<?xml version="1.0" encoding="UTF-8" standalone="no" ?>
<gpx xmlns="http://www.topografix.com/GPX/1/1" xmlns:xsi="http://www.w3.org/2001/XMLSchema-instance" xsi:schemaLocation="http://www.topografix.com/GPX/1/1 http://www.topografix.com/GPX/1/1/gpx.xsd" version="1.1" creator="VisuGPX - https://www.visugpx.com">
  <metadata>
    <name>Trou de la Mouche</name>
    <desc><![CDATA[Descente du Trou de la Mouche par la combe du Grand Crêt]]></desc>
  </metadata>
  <trk>
    <name><![CDATA[Trk047-MNT]]></name>
    <trkseg>
      <trkpt lat="45.91558" lon="6.51165">
        <ele>2384.19458</ele>
        <time>2014-08-24T11:31:53Z</time>
      </trkpt>
      <trkpt lat="45.9156" lon="6.51166">
        <ele>2385.385986</ele>
        <time>2014-08-24T11:31:58Z</time>
      </trkpt>
      <trkpt lat="45.91559" lon="6.51164">
        <ele>2384.301514</ele>
        <time>2014-08-24T11:32:03Z</time>
      </trkpt>
      <trkpt lat="45.91559" lon="6.51163">
        <ele>2384.1521</ele>
        <time>2014-08-24T11:32:08Z</time>
      </trkpt>
      <trkpt lat="45.9156" lon="6.51166">
        <ele>2385.701172</ele>
        <time>2014-08-24T11:32:13Z</time>
      </trkpt>
      <trkpt lat="45.9156" lon="6.51172">
        <ele>2388.215576</ele>
        <time>2014-08-24T11:32:18Z</time>
      </trkpt>
      <trkpt lat="45.9156" lon="6.51176">
        <ele>2389.874023</ele>
        <time>2014-08-24T11:32:23Z</time>
      </trkpt>
      <trkpt lat="45.91558" lon="6.5118">
        <ele>2390.790527</ele>
        <time>2014-08-24T11:32:28Z</time>
      </trkpt>
      <trkpt lat="45.91556" lon="6.51181">
        <ele>2390.161621</ele>
        <time>2014-08-24T11:32:33Z</time>
      </trkpt>
      <trkpt lat="45.91556" lon="6.51181">
        <ele>2390.161621</ele>
        <time>2014-08-24T11:32:38Z</time>
      </trkpt>
      <trkpt lat="45.91557" lon="6.5118">
        <ele>2390.10376</ele>
        <time>2014-08-24T11:32:43Z</time>
      </trkpt>
      <trkpt lat="45.91556" lon="6.51181">
        <ele>2390.430908</ele>
        <time>2014-08-24T11:32:48Z</time>
      </trkpt>
      <trkpt lat="45.91556" lon="6.51182">
        <ele>2390.666748</ele>
        <time>2014-08-24T11:32:53Z</time>
      </trkpt>
      <trkpt lat="45.91557" lon="6.51182">
        <ele>2390.879395</ele>
        <time>2014-08-24T11:32:58Z</time>
      </trkpt>
      <trkpt lat="45.91557" lon="6.51182">
        <ele>2391.14917</ele>
        <time>2014-08-24T11:33:03Z</time>
      </trkpt>
      <trkpt lat="45.91557" lon="6.51183">
        <ele>2391.317871</ele>
        <time>2014-08-24T11:33:08Z</time>
      </trkpt>
      <trkpt lat="45.91557" lon="6.51182">
        <ele>2391.613525</ele>
        <time>2014-08-24T11:33:13Z</time>
      </trkpt>
      <trkpt lat="45.91557" lon="6.51182">
        <ele>2391.54541</ele>
        <time>2014-08-24T11:33:18Z</time>
      </trkpt>
      <trkpt lat="45.91557" lon="6.51182">
        <ele>2391.070313</ele>
        <time>2014-08-24T11:33:23Z</time>
      </trkpt>
      <trkpt lat="45.91557" lon="6.51181">
        <ele>2391.171143</ele>
        <time>2014-08-24T11:33:28Z</time>
      </trkpt>
      <trkpt lat="45.91557" lon="6.51181">
        <ele>2390.83252</ele>
        <time>2014-08-24T11:33:33Z</time>
      </trkpt>
      <trkpt lat="45.91557" lon="6.51182">
        <ele>2391.341064</ele>
        <time>2014-08-24T11:33:38Z</time>
      </trkpt>
      <trkpt lat="45.91557" lon="6.51183">
        <ele>2391.250244</ele>
        <time>2014-08-24T11:33:43Z</time>
      </trkpt>
      <trkpt lat="45.91557" lon="6.51182">
        <ele>2391.273438</ele>
        <time>2014-08-24T11:33:48Z</time>
      </trkpt>
      <trkpt lat="45.91557" lon="6.51181">
        <ele>2391.239014</ele>
        <time>2014-08-24T11:33:53Z</time>
      </trkpt>
      <trkpt lat="45.91557" lon="6.5118">
        <ele>2390.561035</ele>
        <time>2014-08-24T11:33:58Z</time>
      </trkpt>
      <trkpt lat="45.91557" lon="6.51179">
        <ele>2389.983887</ele>
        <time>2014-08-24T11:34:03Z</time>
      </trkpt>
      <trkpt lat="45.91557" lon="6.51179">
        <ele>2390.156494</ele>
        <time>2014-08-24T11:34:08Z</time>
      </trkpt>
      <trkpt lat="45.91556" lon="6.51181">
        <ele>2390.17334</ele>
        <time>2014-08-24T11:34:13Z</time>
      </trkpt>
      <trkpt lat="45.91554" lon="6.51183">
        <ele>2390.340576</ele>
        <time>2014-08-24T11:34:18Z</time>
      </trkpt>
      <trkpt lat="45.91554" lon="6.51183">
        <ele>2390.013184</ele>
        <time>2014-08-24T11:34:23Z</time>
      </trkpt>
      <trkpt lat="45.91552" lon="6.51185">
        <ele>2390.026855</ele>
        <time>2014-08-24T11:34:28Z</time>
      </trkpt>
      <trkpt lat="45.91551" lon="6.51186">
        <ele>2389.753418</ele>
        <time>2014-08-24T11:34:33Z</time>
      </trkpt>
      <trkpt lat="45.91551" lon="6.51187">
        <ele>2390.125</ele>
        <time>2014-08-24T11:34:38Z</time>
      </trkpt>
      <trkpt lat="45.9155" lon="6.51187">
        <ele>2389.61084</ele>
        <time>2014-08-24T11:34:43Z</time>
      </trkpt>
      <trkpt lat="45.91549" lon="6.51186">
        <ele>2388.939941</ele>
        <time>2014-08-24T11:34:48Z</time>
      </trkpt>
      <trkpt lat="45.91549" lon="6.51185">
        <ele>2388.197266</ele>
        <time>2014-08-24T11:34:53Z</time>
      </trkpt>
      <trkpt lat="45.91549" lon="6.51183">
        <ele>2387.860352</ele>
        <time>2014-08-24T11:34:58Z</time>
      </trkpt>
      <trkpt lat="45.91549" lon="6.51184">
        <ele>2387.80249</ele>
        <time>2014-08-24T11:35:03Z</time>
      </trkpt>
      <trkpt lat="45.91549" lon="6.51183">
        <ele>2387.60498</ele>
        <time>2014-08-24T11:35:08Z</time>
      </trkpt>
      <trkpt lat="45.91547" lon="6.51183">
        <ele>2386.451416</ele>
        <time>2014-08-24T11:35:13Z</time>
      </trkpt>
      <trkpt lat="45.91547" lon="6.51184">
        <ele>2386.987793</ele>
        <time>2014-08-24T11:35:18Z</time>
      </trkpt>
      <trkpt lat="45.91545" lon="6.51187">
        <ele>2387.477539</ele>
        <time>2014-08-24T11:35:23Z</time>
      </trkpt>
      <trkpt lat="45.91544" lon="6.51189">
        <ele>2387.186768</ele>
        <time>2014-08-24T11:35:28Z</time>
      </trkpt>
      <trkpt lat="45.91542" lon="6.51191">
        <ele>2387.075439</ele>
        <time>2014-08-24T11:35:33Z</time>
      </trkpt>
      <trkpt lat="45.91543" lon="6.51188">
        <ele>2386.458496</ele>
        <time>2014-08-24T11:35:38Z</time>
      </trkpt>
      <trkpt lat="45.91542" lon="6.51184">
        <ele>2384.507568</ele>
        <time>2014-08-24T11:35:43Z</time>
      </trkpt>
      <trkpt lat="45.91542" lon="6.51182">
        <ele>2383.200439</ele>
        <time>2014-08-24T11:35:48Z</time>
      </trkpt>
      <trkpt lat="45.91542" lon="6.51182">
        <ele>2383.200439</ele>
        <time>2014-08-24T11:35:53Z</time>
      </trkpt>
      <trkpt lat="45.9154" lon="6.51182">
        <ele>2382.527344</ele>
        <time>2014-08-24T11:35:58Z</time>
      </trkpt>
      <trkpt lat="45.9154" lon="6.5118">
        <ele>2381.538574</ele>
        <time>2014-08-24T11:36:03Z</time>
      </trkpt>
      <trkpt lat="45.91539" lon="6.5118">
        <ele>2381.019531</ele>
        <time>2014-08-24T11:36:08Z</time>
      </trkpt>
      <trkpt lat="45.91539" lon="6.5118">
        <ele>2380.773682</ele>
        <time>2014-08-24T11:36:13Z</time>
      </trkpt>
      <trkpt lat="45.91539" lon="6.5118">
        <ele>2381.118652</ele>
        <time>2014-08-24T11:36:18Z</time>
      </trkpt>
      <trkpt lat="45.91539" lon="6.51181">
        <ele>2381.24585</ele>
        <time>2014-08-24T11:36:23Z</time>
      </trkpt>
      <trkpt lat="45.91539" lon="6.51179">
        <ele>2380.919678</ele>
        <time>2014-08-24T11:36:28Z</time>
      </trkpt>
      <trkpt lat="45.91538" lon="6.51178">
        <ele>2379.830811</ele>
        <time>2014-08-24T11:36:33Z</time>
      </trkpt>
      <trkpt lat="45.91538" lon="6.51178">
        <ele>2379.585938</ele>
        <time>2014-08-24T11:36:38Z</time>
      </trkpt>
      <trkpt lat="45.91538" lon="6.51178">
        <ele>2379.368896</ele>
        <time>2014-08-24T11:36:43Z</time>
      </trkpt>
      <trkpt lat="45.91537" lon="6.51178">
        <ele>2379.187256</ele>
        <time>2014-08-24T11:36:48Z</time>
      </trkpt>
      <trkpt lat="45.91537" lon="6.51177">
        <ele>2378.69043</ele>
        <time>2014-08-24T11:36:53Z</time>
      </trkpt>
      <trkpt lat="45.91537" lon="6.51177">
        <ele>2378.501465</ele>
        <time>2014-08-24T11:36:58Z</time>
      </trkpt>
      <trkpt lat="45.91537" lon="6.51177">
        <ele>2378.564453</ele>
        <time>2014-08-24T11:37:03Z</time>
      </trkpt>
      <trkpt lat="45.91536" lon="6.51177">
        <ele>2378.662842</ele>
        <time>2014-08-24T11:37:08Z</time>
      </trkpt>
      <trkpt lat="45.91536" lon="6.51177">
        <ele>2378.29248</ele>
        <time>2014-08-24T11:37:13Z</time>
      </trkpt>
      <trkpt lat="45.91536" lon="6.51177">
        <ele>2378.111084</ele>
        <time>2014-08-24T11:37:18Z</time>
      </trkpt>
      <trkpt lat="45.91536" lon="6.51177">
        <ele>2378.236572</ele>
        <time>2014-08-24T11:37:23Z</time>
      </trkpt>
      <trkpt lat="45.91536" lon="6.51177">
        <ele>2378.442383</ele>
        <time>2014-08-24T11:37:28Z</time>
      </trkpt>
      <trkpt lat="45.91538" lon="6.51174">
        <ele>2378.162842</ele>
        <time>2014-08-24T11:37:33Z</time>
      </trkpt>
      <trkpt lat="45.91536" lon="6.51173">
        <ele>2376.327393</ele>
        <time>2014-08-24T11:37:38Z</time>
      </trkpt>
      <trkpt lat="45.91536" lon="6.51172">
        <ele>2375.982422</ele>
        <time>2014-08-24T11:37:43Z</time>
      </trkpt>
      <trkpt lat="45.91535" lon="6.51171">
        <ele>2375.34375</ele>
        <time>2014-08-24T11:37:48Z</time>
      </trkpt>
      <trkpt lat="45.91531" lon="6.51171">
        <ele>2373.62915</ele>
        <time>2014-08-24T11:37:53Z</time>
      </trkpt>
      <trkpt lat="45.9153" lon="6.51171">
        <ele>2372.629395</ele>
        <time>2014-08-24T11:37:58Z</time>
      </trkpt>
      <trkpt lat="45.91527" lon="6.51169">
        <ele>2370.458984</ele>
        <time>2014-08-24T11:38:03Z</time>
      </trkpt>
      <trkpt lat="45.91525" lon="6.51169">
        <ele>2369.13916</ele>
        <time>2014-08-24T11:38:08Z</time>
      </trkpt>
      <trkpt lat="45.91523" lon="6.51169">
        <ele>2368.539551</ele>
        <time>2014-08-24T11:38:13Z</time>
      </trkpt>
      <trkpt lat="45.9152" lon="6.51169">
        <ele>2367.040283</ele>
        <time>2014-08-24T11:38:18Z</time>
      </trkpt>
      <trkpt lat="45.91519" lon="6.5117">
        <ele>2366.912842</ele>
        <time>2014-08-24T11:38:23Z</time>
      </trkpt>
      <trkpt lat="45.91519" lon="6.51168">
        <ele>2366.053223</ele>
        <time>2014-08-24T11:38:28Z</time>
      </trkpt>
      <trkpt lat="45.9152" lon="6.51164">
        <ele>2364.816895</ele>
        <time>2014-08-24T11:38:33Z</time>
      </trkpt>
      <trkpt lat="45.91518" lon="6.51165">
        <ele>2364.279785</ele>
        <time>2014-08-24T11:38:38Z</time>
      </trkpt>
      <trkpt lat="45.91515" lon="6.51167">
        <ele>2363.818848</ele>
        <time>2014-08-24T11:38:43Z</time>
      </trkpt>
      <trkpt lat="45.91514" lon="6.51167">
        <ele>2363.1521</ele>
        <time>2014-08-24T11:38:48Z</time>
      </trkpt>
      <trkpt lat="45.91512" lon="6.51167">
        <ele>2362.230225</ele>
        <time>2014-08-24T11:38:53Z</time>
      </trkpt>
      <trkpt lat="45.91512" lon="6.51168">
        <ele>2362.198486</ele>
        <time>2014-08-24T11:38:58Z</time>
      </trkpt>
      <trkpt lat="45.91512" lon="6.51165">
        <ele>2361.124023</ele>
        <time>2014-08-24T11:39:03Z</time>
      </trkpt>
      <trkpt lat="45.91513" lon="6.51162">
        <ele>2360.683105</ele>
        <time>2014-08-24T11:39:08Z</time>
      </trkpt>
      <trkpt lat="45.91513" lon="6.5116">
        <ele>2360.02124</ele>
        <time>2014-08-24T11:39:13Z</time>
      </trkpt>
      <trkpt lat="45.91512" lon="6.51162">
        <ele>2360.507568</ele>
        <time>2014-08-24T11:39:18Z</time>
      </trkpt>
      <trkpt lat="45.91515" lon="6.51158">
        <ele>2359.947266</ele>
        <time>2014-08-24T11:39:23Z</time>
      </trkpt>
      <trkpt lat="45.91513" lon="6.51156">
        <ele>2358.236328</ele>
        <time>2014-08-24T11:39:28Z</time>
      </trkpt>
      <trkpt lat="45.91514" lon="6.51153">
        <ele>2358.007813</ele>
        <time>2014-08-24T11:39:33Z</time>
      </trkpt>
      <trkpt lat="45.91515" lon="6.51149">
        <ele>2356.67041</ele>
        <time>2014-08-24T11:39:38Z</time>
      </trkpt>
      <trkpt lat="45.91517" lon="6.51146">
        <ele>2355.926514</ele>
        <time>2014-08-24T11:39:43Z</time>
      </trkpt>
      <trkpt lat="45.91517" lon="6.51146">
        <ele>2356.215332</ele>
        <time>2014-08-24T11:39:48Z</time>
      </trkpt>
      <trkpt lat="45.91517" lon="6.51146">
        <ele>2356.435303</ele>
        <time>2014-08-24T11:39:53Z</time>
      </trkpt>
      <trkpt lat="45.91517" lon="6.51147">
        <ele>2356.582031</ele>
        <time>2014-08-24T11:39:58Z</time>
      </trkpt>
      <trkpt lat="45.91518" lon="6.51145">
        <ele>2356.017822</ele>
        <time>2014-08-24T11:40:03Z</time>
      </trkpt>
      <trkpt lat="45.91519" lon="6.51144">
        <ele>2355.895996</ele>
        <time>2014-08-24T11:40:08Z</time>
      </trkpt>
      <trkpt lat="45.91519" lon="6.51144">
        <ele>2356.225342</ele>
        <time>2014-08-24T11:40:13Z</time>
      </trkpt>
      <trkpt lat="45.91518" lon="6.51145">
        <ele>2356.165771</ele>
        <time>2014-08-24T11:40:18Z</time>
      </trkpt>
      <trkpt lat="45.91517" lon="6.51145">
        <ele>2355.70752</ele>
        <time>2014-08-24T11:40:23Z</time>
      </trkpt>
      <trkpt lat="45.91517" lon="6.51144">
        <ele>2354.977783</ele>
        <time>2014-08-24T11:40:28Z</time>
      </trkpt>
      <trkpt lat="45.91517" lon="6.51143">
        <ele>2354.69043</ele>
        <time>2014-08-24T11:40:33Z</time>
      </trkpt>
      <trkpt lat="45.91518" lon="6.51143">
        <ele>2355.036865</ele>
        <time>2014-08-24T11:40:38Z</time>
      </trkpt>
      <trkpt lat="45.91517" lon="6.51143">
        <ele>2354.932129</ele>
        <time>2014-08-24T11:40:43Z</time>
      </trkpt>
      <trkpt lat="45.91518" lon="6.51139">
        <ele>2353.272949</ele>
        <time>2014-08-24T11:40:48Z</time>
      </trkpt>
      <trkpt lat="45.91522" lon="6.51134">
        <ele>2352.212891</ele>
        <time>2014-08-24T11:40:53Z</time>
      </trkpt>
      <trkpt lat="45.91524" lon="6.51131">
        <ele>2351.389404</ele>
        <time>2014-08-24T11:40:58Z</time>
      </trkpt>
      <trkpt lat="45.91525" lon="6.51128">
        <ele>2350.563965</ele>
        <time>2014-08-24T11:41:03Z</time>
      </trkpt>
      <trkpt lat="45.91523" lon="6.51127">
        <ele>2349.366943</ele>
        <time>2014-08-24T11:41:08Z</time>
      </trkpt>
      <trkpt lat="45.91523" lon="6.51126">
        <ele>2348.672363</ele>
        <time>2014-08-24T11:41:13Z</time>
      </trkpt>
      <trkpt lat="45.91523" lon="6.51124">
        <ele>2347.868408</ele>
        <time>2014-08-24T11:41:18Z</time>
      </trkpt>
      <trkpt lat="45.91525" lon="6.5112">
        <ele>2346.368896</ele>
        <time>2014-08-24T11:41:23Z</time>
      </trkpt>
      <trkpt lat="45.91525" lon="6.51116">
        <ele>2344.334961</ele>
        <time>2014-08-24T11:41:28Z</time>
      </trkpt>
      <trkpt lat="45.91525" lon="6.51111">
        <ele>2342.144775</ele>
        <time>2014-08-24T11:41:33Z</time>
      </trkpt>
      <trkpt lat="45.91526" lon="6.51108">
        <ele>2340.977295</ele>
        <time>2014-08-24T11:41:38Z</time>
      </trkpt>
      <trkpt lat="45.91526" lon="6.51106">
        <ele>2339.76416</ele>
        <time>2014-08-24T11:41:43Z</time>
      </trkpt>
      <trkpt lat="45.91528" lon="6.51102">
        <ele>2338.400635</ele>
        <time>2014-08-24T11:41:48Z</time>
      </trkpt>
      <trkpt lat="45.91529" lon="6.51099">
        <ele>2336.721924</ele>
        <time>2014-08-24T11:41:53Z</time>
      </trkpt>
      <trkpt lat="45.91527" lon="6.511">
        <ele>2336.912109</ele>
        <time>2014-08-24T11:41:58Z</time>
      </trkpt>
      <trkpt lat="45.91524" lon="6.51099">
        <ele>2335.804932</ele>
        <time>2014-08-24T11:42:03Z</time>
      </trkpt>
      <trkpt lat="45.91522" lon="6.51098">
        <ele>2334.789795</ele>
        <time>2014-08-24T11:42:08Z</time>
      </trkpt>
      <trkpt lat="45.91522" lon="6.51097">
        <ele>2334.48877</ele>
        <time>2014-08-24T11:42:13Z</time>
      </trkpt>
      <trkpt lat="45.91523" lon="6.51095">
        <ele>2333.644043</ele>
        <time>2014-08-24T11:42:18Z</time>
      </trkpt>
      <trkpt lat="45.91523" lon="6.51094">
        <ele>2333.150391</ele>
        <time>2014-08-24T11:42:23Z</time>
      </trkpt>
      <trkpt lat="45.91526" lon="6.51093">
        <ele>2333.227051</ele>
        <time>2014-08-24T11:42:28Z</time>
      </trkpt>
      <trkpt lat="45.91528" lon="6.51091">
        <ele>2332.43042</ele>
        <time>2014-08-24T11:42:33Z</time>
      </trkpt>
      <trkpt lat="45.91525" lon="6.51089">
        <ele>2331.141846</ele>
        <time>2014-08-24T11:42:38Z</time>
      </trkpt>
      <trkpt lat="45.91524" lon="6.51087">
        <ele>2329.875488</ele>
        <time>2014-08-24T11:42:43Z</time>
      </trkpt>
      <trkpt lat="45.9152" lon="6.51086">
        <ele>2328.741211</ele>
        <time>2014-08-24T11:42:48Z</time>
      </trkpt>
      <trkpt lat="45.91517" lon="6.51085">
        <ele>2327.820313</ele>
        <time>2014-08-24T11:42:53Z</time>
      </trkpt>
      <trkpt lat="45.91513" lon="6.51084">
        <ele>2326.118164</ele>
        <time>2014-08-24T11:42:58Z</time>
      </trkpt>
      <trkpt lat="45.9151" lon="6.51083">
        <ele>2324.276123</ele>
        <time>2014-08-24T11:43:03Z</time>
      </trkpt>
      <trkpt lat="45.91507" lon="6.51083">
        <ele>2323.157471</ele>
        <time>2014-08-24T11:43:08Z</time>
      </trkpt>
      <trkpt lat="45.91504" lon="6.51083">
        <ele>2321.618652</ele>
        <time>2014-08-24T11:43:13Z</time>
      </trkpt>
      <trkpt lat="45.91505" lon="6.51079">
        <ele>2320.074951</ele>
        <time>2014-08-24T11:43:18Z</time>
      </trkpt>
      <trkpt lat="45.91505" lon="6.51074">
        <ele>2317.908936</ele>
        <time>2014-08-24T11:43:23Z</time>
      </trkpt>
      <trkpt lat="45.91502" lon="6.51072">
        <ele>2316.033203</ele>
        <time>2014-08-24T11:43:28Z</time>
      </trkpt>
      <trkpt lat="45.91502" lon="6.51071">
        <ele>2315.470947</ele>
        <time>2014-08-24T11:43:33Z</time>
      </trkpt>
      <trkpt lat="45.91505" lon="6.51069">
        <ele>2315.409424</ele>
        <time>2014-08-24T11:43:38Z</time>
      </trkpt>
      <trkpt lat="45.91504" lon="6.51068">
        <ele>2314.850342</ele>
        <time>2014-08-24T11:43:43Z</time>
      </trkpt>
      <trkpt lat="45.91502" lon="6.51071">
        <ele>2315.330322</ele>
        <time>2014-08-24T11:43:48Z</time>
      </trkpt>
      <trkpt lat="45.91501" lon="6.51075">
        <ele>2316.871826</ele>
        <time>2014-08-24T11:43:53Z</time>
      </trkpt>
      <trkpt lat="45.91501" lon="6.51074">
        <ele>2316.473145</ele>
        <time>2014-08-24T11:43:58Z</time>
      </trkpt>
      <trkpt lat="45.91501" lon="6.51074">
        <ele>2316.126709</ele>
        <time>2014-08-24T11:44:03Z</time>
      </trkpt>
      <trkpt lat="45.91501" lon="6.51073">
        <ele>2315.780273</ele>
        <time>2014-08-24T11:44:08Z</time>
      </trkpt>
      <trkpt lat="45.91501" lon="6.51072">
        <ele>2315.181152</ele>
        <time>2014-08-24T11:44:13Z</time>
      </trkpt>
      <trkpt lat="45.91502" lon="6.5107">
        <ele>2315.01001</ele>
        <time>2014-08-24T11:44:18Z</time>
      </trkpt>
      <trkpt lat="45.91502" lon="6.5107">
        <ele>2314.660645</ele>
        <time>2014-08-24T11:44:23Z</time>
      </trkpt>
      <trkpt lat="45.91502" lon="6.51069">
        <ele>2314.520752</ele>
        <time>2014-08-24T11:44:28Z</time>
      </trkpt>
      <trkpt lat="45.91501" lon="6.51071">
        <ele>2315.191162</ele>
        <time>2014-08-24T11:44:33Z</time>
      </trkpt>
      <trkpt lat="45.91499" lon="6.5107">
        <ele>2313.908447</ele>
        <time>2014-08-24T11:44:38Z</time>
      </trkpt>
      <trkpt lat="45.91497" lon="6.51069">
        <ele>2312.510498</ele>
        <time>2014-08-24T11:44:43Z</time>
      </trkpt>
      <trkpt lat="45.91494" lon="6.51068">
        <ele>2311.477051</ele>
        <time>2014-08-24T11:44:48Z</time>
      </trkpt>
      <trkpt lat="45.91493" lon="6.51068">
        <ele>2310.495361</ele>
        <time>2014-08-24T11:44:53Z</time>
      </trkpt>
      <trkpt lat="45.91492" lon="6.51066">
        <ele>2309.708252</ele>
        <time>2014-08-24T11:44:58Z</time>
      </trkpt>
      <trkpt lat="45.91492" lon="6.51063">
        <ele>2308.553711</ele>
        <time>2014-08-24T11:45:03Z</time>
      </trkpt>
      <trkpt lat="45.91492" lon="6.51059">
        <ele>2306.858398</ele>
        <time>2014-08-24T11:45:08Z</time>
      </trkpt>
      <trkpt lat="45.9149" lon="6.51056">
        <ele>2305.121338</ele>
        <time>2014-08-24T11:45:13Z</time>
      </trkpt>
      <trkpt lat="45.91489" lon="6.51051">
        <ele>2302.983398</ele>
        <time>2014-08-24T11:45:18Z</time>
      </trkpt>
      <trkpt lat="45.91488" lon="6.51046">
        <ele>2300.801025</ele>
        <time>2014-08-24T11:45:23Z</time>
      </trkpt>
      <trkpt lat="45.91488" lon="6.51043">
        <ele>2299.897949</ele>
        <time>2014-08-24T11:45:28Z</time>
      </trkpt>
      <trkpt lat="45.91488" lon="6.51041">
        <ele>2298.938721</ele>
        <time>2014-08-24T11:45:33Z</time>
      </trkpt>
      <trkpt lat="45.91488" lon="6.51038">
        <ele>2298.065918</ele>
        <time>2014-08-24T11:45:38Z</time>
      </trkpt>
      <trkpt lat="45.91487" lon="6.51036">
        <ele>2297.13916</ele>
        <time>2014-08-24T11:45:43Z</time>
      </trkpt>
      <trkpt lat="45.91489" lon="6.51033">
        <ele>2296.386963</ele>
        <time>2014-08-24T11:45:48Z</time>
      </trkpt>
      <trkpt lat="45.91486" lon="6.51031">
        <ele>2295.097168</ele>
        <time>2014-08-24T11:45:53Z</time>
      </trkpt>
      <trkpt lat="45.91483" lon="6.51032">
        <ele>2294.921387</ele>
        <time>2014-08-24T11:45:58Z</time>
      </trkpt>
      <trkpt lat="45.91481" lon="6.51029">
        <ele>2293.710205</ele>
        <time>2014-08-24T11:46:03Z</time>
      </trkpt>
      <trkpt lat="45.91481" lon="6.51024">
        <ele>2292.223145</ele>
        <time>2014-08-24T11:46:08Z</time>
      </trkpt>
      <trkpt lat="45.91482" lon="6.51021">
        <ele>2291.387207</ele>
        <time>2014-08-24T11:46:13Z</time>
      </trkpt>
      <trkpt lat="45.91479" lon="6.5102">
        <ele>2290.759521</ele>
        <time>2014-08-24T11:46:18Z</time>
      </trkpt>
      <trkpt lat="45.91478" lon="6.51018">
        <ele>2289.49585</ele>
        <time>2014-08-24T11:46:23Z</time>
      </trkpt>
      <trkpt lat="45.91475" lon="6.51016">
        <ele>2288.491943</ele>
        <time>2014-08-24T11:46:28Z</time>
      </trkpt>
      <trkpt lat="45.91472" lon="6.51016">
        <ele>2287.638428</ele>
        <time>2014-08-24T11:46:33Z</time>
      </trkpt>
      <trkpt lat="45.91471" lon="6.51015">
        <ele>2286.904053</ele>
        <time>2014-08-24T11:46:38Z</time>
      </trkpt>
      <trkpt lat="45.91472" lon="6.51011">
        <ele>2285.840332</ele>
        <time>2014-08-24T11:46:43Z</time>
      </trkpt>
      <trkpt lat="45.91474" lon="6.51007">
        <ele>2284.25293</ele>
        <time>2014-08-24T11:46:48Z</time>
      </trkpt>
      <trkpt lat="45.91477" lon="6.51005">
        <ele>2283.478027</ele>
        <time>2014-08-24T11:46:53Z</time>
      </trkpt>
      <trkpt lat="45.91478" lon="6.51002">
        <ele>2282.210693</ele>
        <time>2014-08-24T11:46:58Z</time>
      </trkpt>
      <trkpt lat="45.91476" lon="6.51001">
        <ele>2281.95874</ele>
        <time>2014-08-24T11:47:03Z</time>
      </trkpt>
      <trkpt lat="45.91475" lon="6.50999">
        <ele>2281.059326</ele>
        <time>2014-08-24T11:47:08Z</time>
      </trkpt>
      <trkpt lat="45.91476" lon="6.50999">
        <ele>2280.89502</ele>
        <time>2014-08-24T11:47:13Z</time>
      </trkpt>
      <trkpt lat="45.91476" lon="6.50997">
        <ele>2279.944824</ele>
        <time>2014-08-24T11:47:18Z</time>
      </trkpt>
      <trkpt lat="45.91478" lon="6.50994">
        <ele>2278.574219</ele>
        <time>2014-08-24T11:47:23Z</time>
      </trkpt>
      <trkpt lat="45.91482" lon="6.50993">
        <ele>2278.265869</ele>
        <time>2014-08-24T11:47:28Z</time>
      </trkpt>
      <trkpt lat="45.91484" lon="6.50991">
        <ele>2277.239258</ele>
        <time>2014-08-24T11:47:33Z</time>
      </trkpt>
      <trkpt lat="45.91485" lon="6.50988">
        <ele>2275.750244</ele>
        <time>2014-08-24T11:47:38Z</time>
      </trkpt>
      <trkpt lat="45.91487" lon="6.50983">
        <ele>2273.624756</ele>
        <time>2014-08-24T11:47:43Z</time>
      </trkpt>
      <trkpt lat="45.91484" lon="6.50981">
        <ele>2272.633789</ele>
        <time>2014-08-24T11:47:48Z</time>
      </trkpt>
      <trkpt lat="45.9148" lon="6.5098">
        <ele>2272.244629</ele>
        <time>2014-08-24T11:47:53Z</time>
      </trkpt>
      <trkpt lat="45.91478" lon="6.50978">
        <ele>2271.618652</ele>
        <time>2014-08-24T11:47:58Z</time>
      </trkpt>
      <trkpt lat="45.91473" lon="6.5098">
        <ele>2272.202881</ele>
        <time>2014-08-24T11:48:03Z</time>
      </trkpt>
      <trkpt lat="45.9147" lon="6.50979">
        <ele>2271.056885</ele>
        <time>2014-08-24T11:48:08Z</time>
      </trkpt>
      <trkpt lat="45.91467" lon="6.50977">
        <ele>2269.525635</ele>
        <time>2014-08-24T11:48:13Z</time>
      </trkpt>
      <trkpt lat="45.91467" lon="6.50972">
        <ele>2267.834961</ele>
        <time>2014-08-24T11:48:18Z</time>
      </trkpt>
      <trkpt lat="45.91468" lon="6.50968">
        <ele>2266.02124</ele>
        <time>2014-08-24T11:48:23Z</time>
      </trkpt>
      <trkpt lat="45.91469" lon="6.50962">
        <ele>2263.797119</ele>
        <time>2014-08-24T11:48:28Z</time>
      </trkpt>
      <trkpt lat="45.91464" lon="6.50956">
        <ele>2261.145996</ele>
        <time>2014-08-24T11:48:33Z</time>
      </trkpt>
      <trkpt lat="45.91459" lon="6.50954">
        <ele>2259.653076</ele>
        <time>2014-08-24T11:48:38Z</time>
      </trkpt>
      <trkpt lat="45.91458" lon="6.50948">
        <ele>2257.765869</ele>
        <time>2014-08-24T11:48:43Z</time>
      </trkpt>
      <trkpt lat="45.91459" lon="6.50945">
        <ele>2256.86792</ele>
        <time>2014-08-24T11:48:48Z</time>
      </trkpt>
      <trkpt lat="45.91458" lon="6.50938">
        <ele>2254.921387</ele>
        <time>2014-08-24T11:48:53Z</time>
      </trkpt>
      <trkpt lat="45.91455" lon="6.50933">
        <ele>2253.396973</ele>
        <time>2014-08-24T11:48:58Z</time>
      </trkpt>
      <trkpt lat="45.91452" lon="6.50929">
        <ele>2252.190186</ele>
        <time>2014-08-24T11:49:03Z</time>
      </trkpt>
      <trkpt lat="45.91451" lon="6.50923">
        <ele>2250.686768</ele>
        <time>2014-08-24T11:49:08Z</time>
      </trkpt>
      <trkpt lat="45.91454" lon="6.50922">
        <ele>2250.279297</ele>
        <time>2014-08-24T11:49:13Z</time>
      </trkpt>
      <trkpt lat="45.91457" lon="6.50917">
        <ele>2248.87207</ele>
        <time>2014-08-24T11:49:18Z</time>
      </trkpt>
      <trkpt lat="45.91456" lon="6.50912">
        <ele>2247.497559</ele>
        <time>2014-08-24T11:49:23Z</time>
      </trkpt>
      <trkpt lat="45.91453" lon="6.50908">
        <ele>2246.584229</ele>
        <time>2014-08-24T11:49:28Z</time>
      </trkpt>
      <trkpt lat="45.91454" lon="6.50902">
        <ele>2245.030029</ele>
        <time>2014-08-24T11:49:33Z</time>
      </trkpt>
      <trkpt lat="45.91453" lon="6.50898">
        <ele>2244.106689</ele>
        <time>2014-08-24T11:49:38Z</time>
      </trkpt>
      <trkpt lat="45.91452" lon="6.50893">
        <ele>2243.098145</ele>
        <time>2014-08-24T11:49:43Z</time>
      </trkpt>
      <trkpt lat="45.9145" lon="6.50889">
        <ele>2242.349854</ele>
        <time>2014-08-24T11:49:48Z</time>
      </trkpt>
      <trkpt lat="45.91449" lon="6.50884">
        <ele>2241.416992</ele>
        <time>2014-08-24T11:49:53Z</time>
      </trkpt>
      <trkpt lat="45.9145" lon="6.50883">
        <ele>2241.157227</ele>
        <time>2014-08-24T11:49:58Z</time>
      </trkpt>
      <trkpt lat="45.91449" lon="6.50879">
        <ele>2240.516846</ele>
        <time>2014-08-24T11:50:03Z</time>
      </trkpt>
      <trkpt lat="45.91447" lon="6.50875">
        <ele>2239.787842</ele>
        <time>2014-08-24T11:50:08Z</time>
      </trkpt>
      <trkpt lat="45.91449" lon="6.50871">
        <ele>2238.508545</ele>
        <time>2014-08-24T11:50:13Z</time>
      </trkpt>
      <trkpt lat="45.91453" lon="6.50868">
        <ele>2237.046387</ele>
        <time>2014-08-24T11:50:18Z</time>
      </trkpt>
      <trkpt lat="45.91455" lon="6.5086">
        <ele>2234.783203</ele>
        <time>2014-08-24T11:50:23Z</time>
      </trkpt>
      <trkpt lat="45.91454" lon="6.50854">
        <ele>2233.550537</ele>
        <time>2014-08-24T11:50:28Z</time>
      </trkpt>
      <trkpt lat="45.91451" lon="6.50848">
        <ele>2232.730713</ele>
        <time>2014-08-24T11:50:33Z</time>
      </trkpt>
      <trkpt lat="45.91449" lon="6.50841">
        <ele>2231.544189</ele>
        <time>2014-08-24T11:50:38Z</time>
      </trkpt>
      <trkpt lat="45.91447" lon="6.50835">
        <ele>2230.603027</ele>
        <time>2014-08-24T11:50:43Z</time>
      </trkpt>
      <trkpt lat="45.91442" lon="6.50832">
        <ele>2230.689209</ele>
        <time>2014-08-24T11:50:48Z</time>
      </trkpt>
      <trkpt lat="45.91439" lon="6.50828">
        <ele>2230.343018</ele>
        <time>2014-08-24T11:50:53Z</time>
      </trkpt>
      <trkpt lat="45.91437" lon="6.50824">
        <ele>2229.724854</ele>
        <time>2014-08-24T11:50:58Z</time>
      </trkpt>
      <trkpt lat="45.91436" lon="6.50818">
        <ele>2228.351074</ele>
        <time>2014-08-24T11:51:03Z</time>
      </trkpt>
      <trkpt lat="45.91435" lon="6.50817">
        <ele>2227.988525</ele>
        <time>2014-08-24T11:51:08Z</time>
      </trkpt>
      <trkpt lat="45.91432" lon="6.50814">
        <ele>2226.431885</ele>
        <time>2014-08-24T11:51:13Z</time>
      </trkpt>
      <trkpt lat="45.91431" lon="6.50808">
        <ele>2224.498047</ele>
        <time>2014-08-24T11:51:18Z</time>
      </trkpt>
      <trkpt lat="45.91432" lon="6.50802">
        <ele>2222.950439</ele>
        <time>2014-08-24T11:51:23Z</time>
      </trkpt>
      <trkpt lat="45.9143" lon="6.50799">
        <ele>2221.826172</ele>
        <time>2014-08-24T11:51:28Z</time>
      </trkpt>
      <trkpt lat="45.91433" lon="6.50797">
        <ele>2221.881592</ele>
        <time>2014-08-24T11:51:33Z</time>
      </trkpt>
      <trkpt lat="45.91435" lon="6.50795">
        <ele>2221.911377</ele>
        <time>2014-08-24T11:51:38Z</time>
      </trkpt>
      <trkpt lat="45.91434" lon="6.50791">
        <ele>2220.537598</ele>
        <time>2014-08-24T11:51:43Z</time>
      </trkpt>
      <trkpt lat="45.91434" lon="6.50785">
        <ele>2218.675049</ele>
        <time>2014-08-24T11:51:48Z</time>
      </trkpt>
      <trkpt lat="45.91433" lon="6.50779">
        <ele>2216.782959</ele>
        <time>2014-08-24T11:51:53Z</time>
      </trkpt>
      <trkpt lat="45.91431" lon="6.50773">
        <ele>2214.784912</ele>
        <time>2014-08-24T11:51:58Z</time>
      </trkpt>
      <trkpt lat="45.91429" lon="6.5077">
        <ele>2213.587646</ele>
        <time>2014-08-24T11:52:03Z</time>
      </trkpt>
      <trkpt lat="45.91428" lon="6.50764">
        <ele>2211.794922</ele>
        <time>2014-08-24T11:52:08Z</time>
      </trkpt>
      <trkpt lat="45.9143" lon="6.50759">
        <ele>2210.648438</ele>
        <time>2014-08-24T11:52:13Z</time>
      </trkpt>
      <trkpt lat="45.91427" lon="6.50754">
        <ele>2208.655273</ele>
        <time>2014-08-24T11:52:18Z</time>
      </trkpt>
      <trkpt lat="45.91424" lon="6.50752">
        <ele>2207.650146</ele>
        <time>2014-08-24T11:52:23Z</time>
      </trkpt>
      <trkpt lat="45.91423" lon="6.50747">
        <ele>2205.941895</ele>
        <time>2014-08-24T11:52:28Z</time>
      </trkpt>
      <trkpt lat="45.91424" lon="6.50742">
        <ele>2204.617188</ele>
        <time>2014-08-24T11:52:33Z</time>
      </trkpt>
      <trkpt lat="45.91423" lon="6.50738">
        <ele>2203.418701</ele>
        <time>2014-08-24T11:52:38Z</time>
      </trkpt>
      <trkpt lat="45.91424" lon="6.50737">
        <ele>2203.083984</ele>
        <time>2014-08-24T11:52:43Z</time>
      </trkpt>
      <trkpt lat="45.91423" lon="6.50737">
        <ele>2203.121826</ele>
        <time>2014-08-24T11:52:48Z</time>
      </trkpt>
      <trkpt lat="45.91421" lon="6.50734">
        <ele>2202.060059</ele>
        <time>2014-08-24T11:52:53Z</time>
      </trkpt>
      <trkpt lat="45.9142" lon="6.50733">
        <ele>2201.627197</ele>
        <time>2014-08-24T11:52:58Z</time>
      </trkpt>
      <trkpt lat="45.91418" lon="6.50732">
        <ele>2201.413818</ele>
        <time>2014-08-24T11:53:03Z</time>
      </trkpt>
      <trkpt lat="45.91419" lon="6.5073">
        <ele>2200.808594</ele>
        <time>2014-08-24T11:53:08Z</time>
      </trkpt>
      <trkpt lat="45.91421" lon="6.50727">
        <ele>2200.160156</ele>
        <time>2014-08-24T11:53:13Z</time>
      </trkpt>
      <trkpt lat="45.9142" lon="6.50723">
        <ele>2199.104004</ele>
        <time>2014-08-24T11:53:18Z</time>
      </trkpt>
      <trkpt lat="45.91416" lon="6.5072">
        <ele>2198.219971</ele>
        <time>2014-08-24T11:53:23Z</time>
      </trkpt>
      <trkpt lat="45.91413" lon="6.50716">
        <ele>2197.186523</ele>
        <time>2014-08-24T11:53:28Z</time>
      </trkpt>
      <trkpt lat="45.91412" lon="6.5071">
        <ele>2195.834473</ele>
        <time>2014-08-24T11:53:33Z</time>
      </trkpt>
      <trkpt lat="45.91414" lon="6.50704">
        <ele>2194.405273</ele>
        <time>2014-08-24T11:53:38Z</time>
      </trkpt>
      <trkpt lat="45.91414" lon="6.50698">
        <ele>2192.998535</ele>
        <time>2014-08-24T11:53:43Z</time>
      </trkpt>
      <trkpt lat="45.91413" lon="6.50692">
        <ele>2191.56958</ele>
        <time>2014-08-24T11:53:48Z</time>
      </trkpt>
      <trkpt lat="45.91413" lon="6.50685">
        <ele>2190.427734</ele>
        <time>2014-08-24T11:53:53Z</time>
      </trkpt>
      <trkpt lat="45.91414" lon="6.50684">
        <ele>2190.098389</ele>
        <time>2014-08-24T11:53:58Z</time>
      </trkpt>
      <trkpt lat="45.91414" lon="6.5068">
        <ele>2189.485596</ele>
        <time>2014-08-24T11:54:03Z</time>
      </trkpt>
      <trkpt lat="45.91414" lon="6.50675">
        <ele>2188.675781</ele>
        <time>2014-08-24T11:54:08Z</time>
      </trkpt>
      <trkpt lat="45.91412" lon="6.50671">
        <ele>2188.050049</ele>
        <time>2014-08-24T11:54:13Z</time>
      </trkpt>
      <trkpt lat="45.9141" lon="6.50667">
        <ele>2187.740234</ele>
        <time>2014-08-24T11:54:18Z</time>
      </trkpt>
      <trkpt lat="45.91408" lon="6.50661">
        <ele>2187.036377</ele>
        <time>2014-08-24T11:54:23Z</time>
      </trkpt>
      <trkpt lat="45.91407" lon="6.50655">
        <ele>2186.199463</ele>
        <time>2014-08-24T11:54:28Z</time>
      </trkpt>
      <trkpt lat="45.91407" lon="6.50649">
        <ele>2185.316406</ele>
        <time>2014-08-24T11:54:33Z</time>
      </trkpt>
      <trkpt lat="45.91407" lon="6.50646">
        <ele>2184.940186</ele>
        <time>2014-08-24T11:54:38Z</time>
      </trkpt>
      <trkpt lat="45.91409" lon="6.50642">
        <ele>2183.891846</ele>
        <time>2014-08-24T11:54:43Z</time>
      </trkpt>
      <trkpt lat="45.9141" lon="6.50635">
        <ele>2182.529785</ele>
        <time>2014-08-24T11:54:48Z</time>
      </trkpt>
      <trkpt lat="45.91409" lon="6.50629">
        <ele>2181.866455</ele>
        <time>2014-08-24T11:54:53Z</time>
      </trkpt>
      <trkpt lat="45.9141" lon="6.50624">
        <ele>2181.057861</ele>
        <time>2014-08-24T11:54:58Z</time>
      </trkpt>
      <trkpt lat="45.91411" lon="6.50619">
        <ele>2180.359863</ele>
        <time>2014-08-24T11:55:03Z</time>
      </trkpt>
      <trkpt lat="45.91412" lon="6.50612">
        <ele>2179.354004</ele>
        <time>2014-08-24T11:55:08Z</time>
      </trkpt>
      <trkpt lat="45.91411" lon="6.50605">
        <ele>2179.018555</ele>
        <time>2014-08-24T11:55:13Z</time>
      </trkpt>
      <trkpt lat="45.91408" lon="6.50599">
        <ele>2179.10791</ele>
        <time>2014-08-24T11:55:18Z</time>
      </trkpt>
      <trkpt lat="45.91406" lon="6.50593">
        <ele>2178.876953</ele>
        <time>2014-08-24T11:55:23Z</time>
      </trkpt>
      <trkpt lat="45.91404" lon="6.50587">
        <ele>2179.077393</ele>
        <time>2014-08-24T11:55:28Z</time>
      </trkpt>
      <trkpt lat="45.91401" lon="6.50583">
        <ele>2179.257568</ele>
        <time>2014-08-24T11:55:33Z</time>
      </trkpt>
      <trkpt lat="45.91401" lon="6.50583">
        <ele>2179.423096</ele>
        <time>2014-08-24T11:55:38Z</time>
      </trkpt>
      <trkpt lat="45.91401" lon="6.50583">
        <ele>2179.407959</ele>
        <time>2014-08-24T11:55:43Z</time>
      </trkpt>
      <trkpt lat="45.91399" lon="6.50582">
        <ele>2179.666504</ele>
        <time>2014-08-24T11:55:48Z</time>
      </trkpt>
      <trkpt lat="45.91399" lon="6.50582">
        <ele>2179.651367</ele>
        <time>2014-08-24T11:55:53Z</time>
      </trkpt>
      <trkpt lat="45.91399" lon="6.50581">
        <ele>2179.63623</ele>
        <time>2014-08-24T11:55:58Z</time>
      </trkpt>
      <trkpt lat="45.91399" lon="6.50581">
        <ele>2179.661865</ele>
        <time>2014-08-24T11:56:03Z</time>
      </trkpt>
      <trkpt lat="45.914" lon="6.50578">
        <ele>2179.19165</ele>
        <time>2014-08-24T11:56:08Z</time>
      </trkpt>
      <trkpt lat="45.91399" lon="6.50573">
        <ele>2179.041504</ele>
        <time>2014-08-24T11:56:13Z</time>
      </trkpt>
      <trkpt lat="45.91398" lon="6.50568">
        <ele>2178.693604</ele>
        <time>2014-08-24T11:56:18Z</time>
      </trkpt>
      <trkpt lat="45.91397" lon="6.50562">
        <ele>2178.141113</ele>
        <time>2014-08-24T11:56:23Z</time>
      </trkpt>
      <trkpt lat="45.91396" lon="6.50559">
        <ele>2177.424805</ele>
        <time>2014-08-24T11:56:28Z</time>
      </trkpt>
      <trkpt lat="45.91396" lon="6.50556">
        <ele>2176.593262</ele>
        <time>2014-08-24T11:56:33Z</time>
      </trkpt>
      <trkpt lat="45.91396" lon="6.50551">
        <ele>2175.333496</ele>
        <time>2014-08-24T11:56:38Z</time>
      </trkpt>
      <trkpt lat="45.91398" lon="6.50547">
        <ele>2173.830566</ele>
        <time>2014-08-24T11:56:43Z</time>
      </trkpt>
      <trkpt lat="45.91399" lon="6.50542">
        <ele>2172.391113</ele>
        <time>2014-08-24T11:56:48Z</time>
      </trkpt>
      <trkpt lat="45.91401" lon="6.50537">
        <ele>2170.844971</ele>
        <time>2014-08-24T11:56:53Z</time>
      </trkpt>
      <trkpt lat="45.91402" lon="6.50532">
        <ele>2169.118408</ele>
        <time>2014-08-24T11:56:58Z</time>
      </trkpt>
      <trkpt lat="45.91403" lon="6.50527">
        <ele>2167.544922</ele>
        <time>2014-08-24T11:57:03Z</time>
      </trkpt>
      <trkpt lat="45.91404" lon="6.50523">
        <ele>2166.114014</ele>
        <time>2014-08-24T11:57:08Z</time>
      </trkpt>
      <trkpt lat="45.91403" lon="6.50521">
        <ele>2165.808594</ele>
        <time>2014-08-24T11:57:13Z</time>
      </trkpt>
      <trkpt lat="45.91403" lon="6.50521">
        <ele>2165.808594</ele>
        <time>2014-08-24T11:57:18Z</time>
      </trkpt>
      <trkpt lat="45.91403" lon="6.50519">
        <ele>2165.428711</ele>
        <time>2014-08-24T11:57:23Z</time>
      </trkpt>
      <trkpt lat="45.91403" lon="6.50519">
        <ele>2165.294434</ele>
        <time>2014-08-24T11:57:28Z</time>
      </trkpt>
      <trkpt lat="45.91403" lon="6.50518">
        <ele>2165.259766</ele>
        <time>2014-08-24T11:57:33Z</time>
      </trkpt>
      <trkpt lat="45.91404" lon="6.50517">
        <ele>2164.605469</ele>
        <time>2014-08-24T11:57:38Z</time>
      </trkpt>
      <trkpt lat="45.91404" lon="6.50514">
        <ele>2163.732666</ele>
        <time>2014-08-24T11:57:43Z</time>
      </trkpt>
      <trkpt lat="45.91404" lon="6.50512">
        <ele>2163.17627</ele>
        <time>2014-08-24T11:57:48Z</time>
      </trkpt>
      <trkpt lat="45.91406" lon="6.50513">
        <ele>2163.170898</ele>
        <time>2014-08-24T11:57:53Z</time>
      </trkpt>
      <trkpt lat="45.91407" lon="6.50511">
        <ele>2162.307861</ele>
        <time>2014-08-24T11:57:58Z</time>
      </trkpt>
      <trkpt lat="45.91408" lon="6.50508">
        <ele>2161.157227</ele>
        <time>2014-08-24T11:58:03Z</time>
      </trkpt>
      <trkpt lat="45.91408" lon="6.50508">
        <ele>2161.201172</ele>
        <time>2014-08-24T11:58:08Z</time>
      </trkpt>
      <trkpt lat="45.91411" lon="6.50509">
        <ele>2160.871338</ele>
        <time>2014-08-24T11:58:13Z</time>
      </trkpt>
      <trkpt lat="45.91414" lon="6.50511">
        <ele>2160.836182</ele>
        <time>2014-08-24T11:58:18Z</time>
      </trkpt>
      <trkpt lat="45.91417" lon="6.50513">
        <ele>2160.340088</ele>
        <time>2014-08-24T11:58:23Z</time>
      </trkpt>
      <trkpt lat="45.91421" lon="6.50514">
        <ele>2159.8479</ele>
        <time>2014-08-24T11:58:28Z</time>
      </trkpt>
      <trkpt lat="45.91425" lon="6.50516">
        <ele>2159.237549</ele>
        <time>2014-08-24T11:58:33Z</time>
      </trkpt>
      <trkpt lat="45.91427" lon="6.50517">
        <ele>2158.995361</ele>
        <time>2014-08-24T11:58:38Z</time>
      </trkpt>
      <trkpt lat="45.9143" lon="6.50516">
        <ele>2158.297119</ele>
        <time>2014-08-24T11:58:43Z</time>
      </trkpt>
      <trkpt lat="45.91433" lon="6.50516">
        <ele>2157.526855</ele>
        <time>2014-08-24T11:58:48Z</time>
      </trkpt>
      <trkpt lat="45.91437" lon="6.50516">
        <ele>2156.37793</ele>
        <time>2014-08-24T11:58:53Z</time>
      </trkpt>
      <trkpt lat="45.91441" lon="6.50517">
        <ele>2155.871338</ele>
        <time>2014-08-24T11:58:58Z</time>
      </trkpt>
      <trkpt lat="45.91444" lon="6.5052">
        <ele>2155.911865</ele>
        <time>2014-08-24T11:59:03Z</time>
      </trkpt>
      <trkpt lat="45.91447" lon="6.50523">
        <ele>2155.477295</ele>
        <time>2014-08-24T11:59:08Z</time>
      </trkpt>
      <trkpt lat="45.91449" lon="6.50525">
        <ele>2154.98584</ele>
        <time>2014-08-24T11:59:13Z</time>
      </trkpt>
      <trkpt lat="45.91453" lon="6.50526">
        <ele>2153.404541</ele>
        <time>2014-08-24T11:59:18Z</time>
      </trkpt>
      <trkpt lat="45.91456" lon="6.50527">
        <ele>2152.520508</ele>
        <time>2014-08-24T11:59:23Z</time>
      </trkpt>
      <trkpt lat="45.9146" lon="6.50529">
        <ele>2151.133789</ele>
        <time>2014-08-24T11:59:28Z</time>
      </trkpt>
      <trkpt lat="45.91463" lon="6.50535">
        <ele>2150.788574</ele>
        <time>2014-08-24T11:59:33Z</time>
      </trkpt>
      <trkpt lat="45.91465" lon="6.50539">
        <ele>2150.472412</ele>
        <time>2014-08-24T11:59:38Z</time>
      </trkpt>
      <trkpt lat="45.91467" lon="6.50543">
        <ele>2150.056641</ele>
        <time>2014-08-24T11:59:43Z</time>
      </trkpt>
      <trkpt lat="45.91469" lon="6.50545">
        <ele>2149.658203</ele>
        <time>2014-08-24T11:59:48Z</time>
      </trkpt>
      <trkpt lat="45.91471" lon="6.5055">
        <ele>2149.575195</ele>
        <time>2014-08-24T11:59:53Z</time>
      </trkpt>
      <trkpt lat="45.91473" lon="6.50554">
        <ele>2149.324463</ele>
        <time>2014-08-24T11:59:58Z</time>
      </trkpt>
      <trkpt lat="45.91474" lon="6.50558">
        <ele>2149.314697</ele>
        <time>2014-08-24T12:00:03Z</time>
      </trkpt>
      <trkpt lat="45.91477" lon="6.50559">
        <ele>2147.931396</ele>
        <time>2014-08-24T12:00:08Z</time>
      </trkpt>
      <trkpt lat="45.9148" lon="6.50562">
        <ele>2146.704834</ele>
        <time>2014-08-24T12:00:13Z</time>
      </trkpt>
      <trkpt lat="45.91483" lon="6.50566">
        <ele>2145.915527</ele>
        <time>2014-08-24T12:00:18Z</time>
      </trkpt>
      <trkpt lat="45.91486" lon="6.50572">
        <ele>2145.079346</ele>
        <time>2014-08-24T12:00:23Z</time>
      </trkpt>
      <trkpt lat="45.91486" lon="6.50576">
        <ele>2144.897461</ele>
        <time>2014-08-24T12:00:28Z</time>
      </trkpt>
      <trkpt lat="45.91489" lon="6.5058">
        <ele>2143.8125</ele>
        <time>2014-08-24T12:00:33Z</time>
      </trkpt>
      <trkpt lat="45.91491" lon="6.50579">
        <ele>2142.798584</ele>
        <time>2014-08-24T12:00:38Z</time>
      </trkpt>
      <trkpt lat="45.91494" lon="6.50582">
        <ele>2142.032471</ele>
        <time>2014-08-24T12:00:43Z</time>
      </trkpt>
      <trkpt lat="45.91496" lon="6.50579">
        <ele>2141.103516</ele>
        <time>2014-08-24T12:00:48Z</time>
      </trkpt>
      <trkpt lat="45.91499" lon="6.50578">
        <ele>2139.776855</ele>
        <time>2014-08-24T12:00:53Z</time>
      </trkpt>
      <trkpt lat="45.91499" lon="6.50574">
        <ele>2139.517822</ele>
        <time>2014-08-24T12:00:58Z</time>
      </trkpt>
      <trkpt lat="45.915" lon="6.5057">
        <ele>2138.407959</ele>
        <time>2014-08-24T12:01:03Z</time>
      </trkpt>
      <trkpt lat="45.91501" lon="6.50566">
        <ele>2137.76001</ele>
        <time>2014-08-24T12:01:08Z</time>
      </trkpt>
      <trkpt lat="45.91501" lon="6.50563">
        <ele>2137.336182</ele>
        <time>2014-08-24T12:01:13Z</time>
      </trkpt>
      <trkpt lat="45.91502" lon="6.50559">
        <ele>2136.327881</ele>
        <time>2014-08-24T12:01:18Z</time>
      </trkpt>
      <trkpt lat="45.91502" lon="6.50555">
        <ele>2135.810303</ele>
        <time>2014-08-24T12:01:23Z</time>
      </trkpt>
      <trkpt lat="45.91503" lon="6.5055">
        <ele>2134.918945</ele>
        <time>2014-08-24T12:01:28Z</time>
      </trkpt>
      <trkpt lat="45.91503" lon="6.50545">
        <ele>2134.286865</ele>
        <time>2014-08-24T12:01:33Z</time>
      </trkpt>
      <trkpt lat="45.91504" lon="6.50543">
        <ele>2133.496094</ele>
        <time>2014-08-24T12:01:38Z</time>
      </trkpt>
      <trkpt lat="45.91504" lon="6.50539">
        <ele>2133.041504</ele>
        <time>2014-08-24T12:01:43Z</time>
      </trkpt>
      <trkpt lat="45.91504" lon="6.50534">
        <ele>2132.690674</ele>
        <time>2014-08-24T12:01:48Z</time>
      </trkpt>
      <trkpt lat="45.91506" lon="6.50529">
        <ele>2131.460205</ele>
        <time>2014-08-24T12:01:53Z</time>
      </trkpt>
      <trkpt lat="45.91506" lon="6.50524">
        <ele>2130.585449</ele>
        <time>2014-08-24T12:01:58Z</time>
      </trkpt>
      <trkpt lat="45.9151" lon="6.50521">
        <ele>2128.685791</ele>
        <time>2014-08-24T12:02:03Z</time>
      </trkpt>
      <trkpt lat="45.91512" lon="6.50525">
        <ele>2128.374756</ele>
        <time>2014-08-24T12:02:08Z</time>
      </trkpt>
      <trkpt lat="45.91515" lon="6.50527">
        <ele>2127.412842</ele>
        <time>2014-08-24T12:02:13Z</time>
      </trkpt>
      <trkpt lat="45.91515" lon="6.50523">
        <ele>2126.809814</ele>
        <time>2014-08-24T12:02:18Z</time>
      </trkpt>
      <trkpt lat="45.91518" lon="6.50519">
        <ele>2125.465576</ele>
        <time>2014-08-24T12:02:23Z</time>
      </trkpt>
      <trkpt lat="45.91517" lon="6.50514">
        <ele>2125.019775</ele>
        <time>2014-08-24T12:02:28Z</time>
      </trkpt>
      <trkpt lat="45.91516" lon="6.5051">
        <ele>2125.311279</ele>
        <time>2014-08-24T12:02:33Z</time>
      </trkpt>
      <trkpt lat="45.91515" lon="6.50505">
        <ele>2124.602295</ele>
        <time>2014-08-24T12:02:38Z</time>
      </trkpt>
      <trkpt lat="45.91518" lon="6.50503">
        <ele>2122.851807</ele>
        <time>2014-08-24T12:02:43Z</time>
      </trkpt>
      <trkpt lat="45.91519" lon="6.50505">
        <ele>2123.117432</ele>
        <time>2014-08-24T12:02:48Z</time>
      </trkpt>
      <trkpt lat="45.91522" lon="6.50503">
        <ele>2121.460449</ele>
        <time>2014-08-24T12:02:53Z</time>
      </trkpt>
      <trkpt lat="45.91525" lon="6.50503">
        <ele>2120.146973</ele>
        <time>2014-08-24T12:02:58Z</time>
      </trkpt>
      <trkpt lat="45.91527" lon="6.50505">
        <ele>2119.801758</ele>
        <time>2014-08-24T12:03:03Z</time>
      </trkpt>
      <trkpt lat="45.91529" lon="6.50507">
        <ele>2119.567383</ele>
        <time>2014-08-24T12:03:08Z</time>
      </trkpt>
      <trkpt lat="45.9153" lon="6.50504">
        <ele>2118.355469</ele>
        <time>2014-08-24T12:03:13Z</time>
      </trkpt>
      <trkpt lat="45.91531" lon="6.50501">
        <ele>2116.843506</ele>
        <time>2014-08-24T12:03:18Z</time>
      </trkpt>
      <trkpt lat="45.91535" lon="6.50497">
        <ele>2114.577393</ele>
        <time>2014-08-24T12:03:23Z</time>
      </trkpt>
      <trkpt lat="45.91537" lon="6.50493">
        <ele>2112.392578</ele>
        <time>2014-08-24T12:03:28Z</time>
      </trkpt>
      <trkpt lat="45.91541" lon="6.5049">
        <ele>2110.40918</ele>
        <time>2014-08-24T12:03:33Z</time>
      </trkpt>
      <trkpt lat="45.91544" lon="6.50491">
        <ele>2109.550049</ele>
        <time>2014-08-24T12:03:38Z</time>
      </trkpt>
      <trkpt lat="45.91547" lon="6.50494">
        <ele>2109.328369</ele>
        <time>2014-08-24T12:03:43Z</time>
      </trkpt>
      <trkpt lat="45.91551" lon="6.50492">
        <ele>2107.717041</ele>
        <time>2014-08-24T12:03:48Z</time>
      </trkpt>
      <trkpt lat="45.91554" lon="6.50491">
        <ele>2106.322021</ele>
        <time>2014-08-24T12:03:53Z</time>
      </trkpt>
      <trkpt lat="45.91557" lon="6.50489">
        <ele>2104.861572</ele>
        <time>2014-08-24T12:03:58Z</time>
      </trkpt>
      <trkpt lat="45.91561" lon="6.50487">
        <ele>2103.365723</ele>
        <time>2014-08-24T12:04:03Z</time>
      </trkpt>
      <trkpt lat="45.91565" lon="6.50486">
        <ele>2101.637695</ele>
        <time>2014-08-24T12:04:08Z</time>
      </trkpt>
      <trkpt lat="45.91568" lon="6.50485">
        <ele>2100.401855</ele>
        <time>2014-08-24T12:04:13Z</time>
      </trkpt>
      <trkpt lat="45.91571" lon="6.50487">
        <ele>2100.003662</ele>
        <time>2014-08-24T12:04:18Z</time>
      </trkpt>
      <trkpt lat="45.91574" lon="6.50489">
        <ele>2099.730469</ele>
        <time>2014-08-24T12:04:23Z</time>
      </trkpt>
      <trkpt lat="45.91577" lon="6.50491">
        <ele>2099.074951</ele>
        <time>2014-08-24T12:04:28Z</time>
      </trkpt>
      <trkpt lat="45.91581" lon="6.50493">
        <ele>2098.585449</ele>
        <time>2014-08-24T12:04:33Z</time>
      </trkpt>
      <trkpt lat="45.91583" lon="6.5049">
        <ele>2097.092529</ele>
        <time>2014-08-24T12:04:38Z</time>
      </trkpt>
      <trkpt lat="45.91582" lon="6.50485">
        <ele>2096.03418</ele>
        <time>2014-08-24T12:04:43Z</time>
      </trkpt>
      <trkpt lat="45.91584" lon="6.50485">
        <ele>2095.45752</ele>
        <time>2014-08-24T12:04:48Z</time>
      </trkpt>
      <trkpt lat="45.91588" lon="6.50487">
        <ele>2095.247559</ele>
        <time>2014-08-24T12:04:53Z</time>
      </trkpt>
      <trkpt lat="45.91591" lon="6.5049">
        <ele>2095.493652</ele>
        <time>2014-08-24T12:04:58Z</time>
      </trkpt>
      <trkpt lat="45.91592" lon="6.50494">
        <ele>2096.11377</ele>
        <time>2014-08-24T12:05:03Z</time>
      </trkpt>
      <trkpt lat="45.91594" lon="6.50496">
        <ele>2096.171387</ele>
        <time>2014-08-24T12:05:08Z</time>
      </trkpt>
      <trkpt lat="45.91597" lon="6.50499">
        <ele>2096.247559</ele>
        <time>2014-08-24T12:05:13Z</time>
      </trkpt>
      <trkpt lat="45.916" lon="6.505">
        <ele>2095.95752</ele>
        <time>2014-08-24T12:05:18Z</time>
      </trkpt>
      <trkpt lat="45.91603" lon="6.505">
        <ele>2095.178711</ele>
        <time>2014-08-24T12:05:23Z</time>
      </trkpt>
      <trkpt lat="45.91605" lon="6.50497">
        <ele>2093.94751</ele>
        <time>2014-08-24T12:05:28Z</time>
      </trkpt>
      <trkpt lat="45.91607" lon="6.50493">
        <ele>2092.63623</ele>
        <time>2014-08-24T12:05:33Z</time>
      </trkpt>
      <trkpt lat="45.91608" lon="6.50489">
        <ele>2091.23999</ele>
        <time>2014-08-24T12:05:38Z</time>
      </trkpt>
      <trkpt lat="45.91609" lon="6.50482">
        <ele>2089.36499</ele>
        <time>2014-08-24T12:05:43Z</time>
      </trkpt>
      <trkpt lat="45.9161" lon="6.50476">
        <ele>2087.681152</ele>
        <time>2014-08-24T12:05:48Z</time>
      </trkpt>
      <trkpt lat="45.91609" lon="6.50471">
        <ele>2086.524902</ele>
        <time>2014-08-24T12:05:53Z</time>
      </trkpt>
      <trkpt lat="45.91608" lon="6.50466">
        <ele>2085.533691</ele>
        <time>2014-08-24T12:05:58Z</time>
      </trkpt>
      <trkpt lat="45.9161" lon="6.50464">
        <ele>2084.711182</ele>
        <time>2014-08-24T12:06:03Z</time>
      </trkpt>
      <trkpt lat="45.9161" lon="6.50464">
        <ele>2084.60498</ele>
        <time>2014-08-24T12:06:08Z</time>
      </trkpt>
      <trkpt lat="45.9161" lon="6.50464">
        <ele>2084.472412</ele>
        <time>2014-08-24T12:06:13Z</time>
      </trkpt>
      <trkpt lat="45.9161" lon="6.50464">
        <ele>2084.52002</ele>
        <time>2014-08-24T12:06:18Z</time>
      </trkpt>
      <trkpt lat="45.91611" lon="6.50461">
        <ele>2083.530029</ele>
        <time>2014-08-24T12:06:23Z</time>
      </trkpt>
      <trkpt lat="45.91612" lon="6.50459">
        <ele>2082.66748</ele>
        <time>2014-08-24T12:06:28Z</time>
      </trkpt>
      <trkpt lat="45.91612" lon="6.50461">
        <ele>2083.28125</ele>
        <time>2014-08-24T12:06:33Z</time>
      </trkpt>
      <trkpt lat="45.91612" lon="6.50462">
        <ele>2083.491211</ele>
        <time>2014-08-24T12:06:38Z</time>
      </trkpt>
      <trkpt lat="45.91611" lon="6.50463">
        <ele>2084.056152</ele>
        <time>2014-08-24T12:06:43Z</time>
      </trkpt>
      <trkpt lat="45.91611" lon="6.50463">
        <ele>2083.86499</ele>
        <time>2014-08-24T12:06:48Z</time>
      </trkpt>
      <trkpt lat="45.91611" lon="6.50463">
        <ele>2083.86499</ele>
        <time>2014-08-24T12:06:53Z</time>
      </trkpt>
      <trkpt lat="45.91611" lon="6.50463">
        <ele>2083.976318</ele>
        <time>2014-08-24T12:06:58Z</time>
      </trkpt>
      <trkpt lat="45.9161" lon="6.50463">
        <ele>2084.106201</ele>
        <time>2014-08-24T12:07:03Z</time>
      </trkpt>
      <trkpt lat="45.9161" lon="6.50461">
        <ele>2083.577637</ele>
        <time>2014-08-24T12:07:08Z</time>
      </trkpt>
      <trkpt lat="45.9161" lon="6.50458">
        <ele>2082.949951</ele>
        <time>2014-08-24T12:07:13Z</time>
      </trkpt>
      <trkpt lat="45.9161" lon="6.50457">
        <ele>2082.737549</ele>
        <time>2014-08-24T12:07:18Z</time>
      </trkpt>
      <trkpt lat="45.9161" lon="6.50454">
        <ele>2081.731201</ele>
        <time>2014-08-24T12:07:23Z</time>
      </trkpt>
      <trkpt lat="45.91613" lon="6.5045">
        <ele>2080.23999</ele>
        <time>2014-08-24T12:07:28Z</time>
      </trkpt>
      <trkpt lat="45.91615" lon="6.50446">
        <ele>2078.970459</ele>
        <time>2014-08-24T12:07:33Z</time>
      </trkpt>
      <trkpt lat="45.91615" lon="6.50441">
        <ele>2077.860352</ele>
        <time>2014-08-24T12:07:38Z</time>
      </trkpt>
      <trkpt lat="45.91617" lon="6.50437">
        <ele>2076.501221</ele>
        <time>2014-08-24T12:07:43Z</time>
      </trkpt>
      <trkpt lat="45.91618" lon="6.50433">
        <ele>2075.427246</ele>
        <time>2014-08-24T12:07:48Z</time>
      </trkpt>
      <trkpt lat="45.91618" lon="6.50429">
        <ele>2074.558105</ele>
        <time>2014-08-24T12:07:53Z</time>
      </trkpt>
      <trkpt lat="45.9162" lon="6.50426">
        <ele>2073.524414</ele>
        <time>2014-08-24T12:07:58Z</time>
      </trkpt>
      <trkpt lat="45.9162" lon="6.50421">
        <ele>2072.387451</ele>
        <time>2014-08-24T12:08:03Z</time>
      </trkpt>
      <trkpt lat="45.91621" lon="6.50416">
        <ele>2071.117432</ele>
        <time>2014-08-24T12:08:08Z</time>
      </trkpt>
      <trkpt lat="45.91621" lon="6.50412">
        <ele>2070.094238</ele>
        <time>2014-08-24T12:08:13Z</time>
      </trkpt>
      <trkpt lat="45.91619" lon="6.50409">
        <ele>2069.95459</ele>
        <time>2014-08-24T12:08:18Z</time>
      </trkpt>
      <trkpt lat="45.91619" lon="6.50405">
        <ele>2069.083984</ele>
        <time>2014-08-24T12:08:23Z</time>
      </trkpt>
      <trkpt lat="45.9162" lon="6.50399">
        <ele>2067.398682</ele>
        <time>2014-08-24T12:08:28Z</time>
      </trkpt>
      <trkpt lat="45.91621" lon="6.50396">
        <ele>2066.523438</ele>
        <time>2014-08-24T12:08:33Z</time>
      </trkpt>
      <trkpt lat="45.91623" lon="6.5039">
        <ele>2064.98877</ele>
        <time>2014-08-24T12:08:38Z</time>
      </trkpt>
      <trkpt lat="45.91625" lon="6.50384">
        <ele>2063.458984</ele>
        <time>2014-08-24T12:08:43Z</time>
      </trkpt>
      <trkpt lat="45.91628" lon="6.50382">
        <ele>2062.647949</ele>
        <time>2014-08-24T12:08:48Z</time>
      </trkpt>
      <trkpt lat="45.91629" lon="6.50375">
        <ele>2061.500977</ele>
        <time>2014-08-24T12:08:53Z</time>
      </trkpt>
      <trkpt lat="45.91628" lon="6.50369">
        <ele>2060.744141</ele>
        <time>2014-08-24T12:08:58Z</time>
      </trkpt>
      <trkpt lat="45.91629" lon="6.50363">
        <ele>2059.664795</ele>
        <time>2014-08-24T12:09:03Z</time>
      </trkpt>
      <trkpt lat="45.91632" lon="6.50364">
        <ele>2059.122559</ele>
        <time>2014-08-24T12:09:08Z</time>
      </trkpt>
      <trkpt lat="45.91636" lon="6.50364">
        <ele>2058.230713</ele>
        <time>2014-08-24T12:09:13Z</time>
      </trkpt>
      <trkpt lat="45.91636" lon="6.50357">
        <ele>2057.005615</ele>
        <time>2014-08-24T12:09:18Z</time>
      </trkpt>
      <trkpt lat="45.91637" lon="6.50351">
        <ele>2055.7771</ele>
        <time>2014-08-24T12:09:23Z</time>
      </trkpt>
      <trkpt lat="45.91639" lon="6.50346">
        <ele>2054.524902</ele>
        <time>2014-08-24T12:09:28Z</time>
      </trkpt>
      <trkpt lat="45.91639" lon="6.50342">
        <ele>2053.544189</ele>
        <time>2014-08-24T12:09:33Z</time>
      </trkpt>
      <trkpt lat="45.91641" lon="6.50335">
        <ele>2052.060303</ele>
        <time>2014-08-24T12:09:38Z</time>
      </trkpt>
      <trkpt lat="45.91642" lon="6.50334">
        <ele>2051.420654</ele>
        <time>2014-08-24T12:09:43Z</time>
      </trkpt>
      <trkpt lat="45.91642" lon="6.50334">
        <ele>2051.454102</ele>
        <time>2014-08-24T12:09:48Z</time>
      </trkpt>
      <trkpt lat="45.91642" lon="6.50333">
        <ele>2051.248291</ele>
        <time>2014-08-24T12:09:53Z</time>
      </trkpt>
      <trkpt lat="45.91642" lon="6.5033">
        <ele>2050.680908</ele>
        <time>2014-08-24T12:09:58Z</time>
      </trkpt>
      <trkpt lat="45.91642" lon="6.50324">
        <ele>2049.455566</ele>
        <time>2014-08-24T12:10:03Z</time>
      </trkpt>
      <trkpt lat="45.91642" lon="6.50317">
        <ele>2047.861694</ele>
        <time>2014-08-24T12:10:08Z</time>
      </trkpt>
      <trkpt lat="45.91642" lon="6.50312">
        <ele>2046.811768</ele>
        <time>2014-08-24T12:10:13Z</time>
      </trkpt>
      <trkpt lat="45.91642" lon="6.50307">
        <ele>2045.612305</ele>
        <time>2014-08-24T12:10:18Z</time>
      </trkpt>
      <trkpt lat="45.91642" lon="6.50302">
        <ele>2044.130981</ele>
        <time>2014-08-24T12:10:23Z</time>
      </trkpt>
      <trkpt lat="45.91643" lon="6.50299">
        <ele>2043.164917</ele>
        <time>2014-08-24T12:10:28Z</time>
      </trkpt>
      <trkpt lat="45.91642" lon="6.50295">
        <ele>2042.322632</ele>
        <time>2014-08-24T12:10:33Z</time>
      </trkpt>
      <trkpt lat="45.91643" lon="6.50291">
        <ele>2040.961304</ele>
        <time>2014-08-24T12:10:38Z</time>
      </trkpt>
      <trkpt lat="45.91643" lon="6.50291">
        <ele>2040.961304</ele>
        <time>2014-08-24T12:10:43Z</time>
      </trkpt>
      <trkpt lat="45.91642" lon="6.50287">
        <ele>2040.196899</ele>
        <time>2014-08-24T12:10:48Z</time>
      </trkpt>
      <trkpt lat="45.91645" lon="6.50287">
        <ele>2039.112305</ele>
        <time>2014-08-24T12:10:53Z</time>
      </trkpt>
      <trkpt lat="45.91649" lon="6.50287">
        <ele>2037.591431</ele>
        <time>2014-08-24T12:10:58Z</time>
      </trkpt>
      <trkpt lat="45.91652" lon="6.50291">
        <ele>2037.732788</ele>
        <time>2014-08-24T12:11:03Z</time>
      </trkpt>
      <trkpt lat="45.91654" lon="6.50293">
        <ele>2037.084839</ele>
        <time>2014-08-24T12:11:08Z</time>
      </trkpt>
      <trkpt lat="45.91657" lon="6.50292">
        <ele>2035.66626</ele>
        <time>2014-08-24T12:11:13Z</time>
      </trkpt>
      <trkpt lat="45.91659" lon="6.50291">
        <ele>2034.55542</ele>
        <time>2014-08-24T12:11:18Z</time>
      </trkpt>
      <trkpt lat="45.91659" lon="6.50287">
        <ele>2033.328857</ele>
        <time>2014-08-24T12:11:23Z</time>
      </trkpt>
      <trkpt lat="45.9166" lon="6.50282">
        <ele>2031.958008</ele>
        <time>2014-08-24T12:11:28Z</time>
      </trkpt>
      <trkpt lat="45.9166" lon="6.50278">
        <ele>2030.524658</ele>
        <time>2014-08-24T12:11:33Z</time>
      </trkpt>
      <trkpt lat="45.91662" lon="6.50276">
        <ele>2029.343018</ele>
        <time>2014-08-24T12:11:38Z</time>
      </trkpt>
      <trkpt lat="45.9166" lon="6.50271">
        <ele>2028.425781</ele>
        <time>2014-08-24T12:11:43Z</time>
      </trkpt>
      <trkpt lat="45.9166" lon="6.50265">
        <ele>2026.835449</ele>
        <time>2014-08-24T12:11:48Z</time>
      </trkpt>
      <trkpt lat="45.91657" lon="6.5026">
        <ele>2026.712036</ele>
        <time>2014-08-24T12:11:53Z</time>
      </trkpt>
      <trkpt lat="45.91655" lon="6.50256">
        <ele>2026.394897</ele>
        <time>2014-08-24T12:11:58Z</time>
      </trkpt>
      <trkpt lat="45.91652" lon="6.50253">
        <ele>2026.949219</ele>
        <time>2014-08-24T12:12:03Z</time>
      </trkpt>
      <trkpt lat="45.91652" lon="6.50251">
        <ele>2026.340576</ele>
        <time>2014-08-24T12:12:08Z</time>
      </trkpt>
      <trkpt lat="45.91652" lon="6.50247">
        <ele>2025.028442</ele>
        <time>2014-08-24T12:12:13Z</time>
      </trkpt>
      <trkpt lat="45.9165" lon="6.50242">
        <ele>2024.191895</ele>
        <time>2014-08-24T12:12:18Z</time>
      </trkpt>
      <trkpt lat="45.91649" lon="6.50236">
        <ele>2022.675903</ele>
        <time>2014-08-24T12:12:23Z</time>
      </trkpt>
      <trkpt lat="45.91649" lon="6.50233">
        <ele>2021.905396</ele>
        <time>2014-08-24T12:12:28Z</time>
      </trkpt>
      <trkpt lat="45.91649" lon="6.50233">
        <ele>2021.627075</ele>
        <time>2014-08-24T12:12:33Z</time>
      </trkpt>
      <trkpt lat="45.91649" lon="6.50232">
        <ele>2021.571289</ele>
        <time>2014-08-24T12:12:38Z</time>
      </trkpt>
      <trkpt lat="45.91649" lon="6.50233">
        <ele>2021.627075</ele>
        <time>2014-08-24T12:12:43Z</time>
      </trkpt>
      <trkpt lat="45.91648" lon="6.50227">
        <ele>2020.088745</ele>
        <time>2014-08-24T12:12:48Z</time>
      </trkpt>
      <trkpt lat="45.91646" lon="6.5022">
        <ele>2018.894043</ele>
        <time>2014-08-24T12:12:53Z</time>
      </trkpt>
      <trkpt lat="45.91645" lon="6.50216">
        <ele>2017.932617</ele>
        <time>2014-08-24T12:12:58Z</time>
      </trkpt>
      <trkpt lat="45.91644" lon="6.50209">
        <ele>2016.685059</ele>
        <time>2014-08-24T12:13:03Z</time>
      </trkpt>
      <trkpt lat="45.91642" lon="6.50203">
        <ele>2015.60437</ele>
        <time>2014-08-24T12:13:08Z</time>
      </trkpt>
      <trkpt lat="45.91641" lon="6.50198">
        <ele>2014.168335</ele>
        <time>2014-08-24T12:13:13Z</time>
      </trkpt>
      <trkpt lat="45.91641" lon="6.50192">
        <ele>2012.499634</ele>
        <time>2014-08-24T12:13:18Z</time>
      </trkpt>
      <trkpt lat="45.91639" lon="6.50187">
        <ele>2011.265869</ele>
        <time>2014-08-24T12:13:23Z</time>
      </trkpt>
      <trkpt lat="45.91639" lon="6.50184">
        <ele>2010.150269</ele>
        <time>2014-08-24T12:13:28Z</time>
      </trkpt>
      <trkpt lat="45.91641" lon="6.50185">
        <ele>2009.815063</ele>
        <time>2014-08-24T12:13:33Z</time>
      </trkpt>
      <trkpt lat="45.91644" lon="6.50184">
        <ele>2008.155273</ele>
        <time>2014-08-24T12:13:38Z</time>
      </trkpt>
      <trkpt lat="45.91646" lon="6.50185">
        <ele>2007.296753</ele>
        <time>2014-08-24T12:13:43Z</time>
      </trkpt>
      <trkpt lat="45.91649" lon="6.50187">
        <ele>2006.639648</ele>
        <time>2014-08-24T12:13:48Z</time>
      </trkpt>
      <trkpt lat="45.91652" lon="6.50188">
        <ele>2005.626221</ele>
        <time>2014-08-24T12:13:53Z</time>
      </trkpt>
      <trkpt lat="45.91655" lon="6.50192">
        <ele>2005.22998</ele>
        <time>2014-08-24T12:13:58Z</time>
      </trkpt>
      <trkpt lat="45.91658" lon="6.50193">
        <ele>2004.46936</ele>
        <time>2014-08-24T12:14:03Z</time>
      </trkpt>
      <trkpt lat="45.91658" lon="6.50191">
        <ele>2003.83606</ele>
        <time>2014-08-24T12:14:08Z</time>
      </trkpt>
      <trkpt lat="45.91657" lon="6.50189">
        <ele>2003.075439</ele>
        <time>2014-08-24T12:14:13Z</time>
      </trkpt>
      <trkpt lat="45.91658" lon="6.50184">
        <ele>2001.319458</ele>
        <time>2014-08-24T12:14:18Z</time>
      </trkpt>
      <trkpt lat="45.91655" lon="6.50179">
        <ele>2000.920166</ele>
        <time>2014-08-24T12:14:23Z</time>
      </trkpt>
      <trkpt lat="45.91653" lon="6.50175">
        <ele>2000.498291</ele>
        <time>2014-08-24T12:14:28Z</time>
      </trkpt>
      <trkpt lat="45.91651" lon="6.50172">
        <ele>2000.218506</ele>
        <time>2014-08-24T12:14:33Z</time>
      </trkpt>
      <trkpt lat="45.91654" lon="6.50171">
        <ele>1998.965576</ele>
        <time>2014-08-24T12:14:38Z</time>
      </trkpt>
      <trkpt lat="45.91657" lon="6.50171">
        <ele>1997.191772</ele>
        <time>2014-08-24T12:14:43Z</time>
      </trkpt>
      <trkpt lat="45.91662" lon="6.50171">
        <ele>1995.24939</ele>
        <time>2014-08-24T12:14:48Z</time>
      </trkpt>
      <trkpt lat="45.91664" lon="6.50171">
        <ele>1994.663574</ele>
        <time>2014-08-24T12:14:53Z</time>
      </trkpt>
      <trkpt lat="45.91668" lon="6.50174">
        <ele>1993.795166</ele>
        <time>2014-08-24T12:14:58Z</time>
      </trkpt>
      <trkpt lat="45.91671" lon="6.50175">
        <ele>1992.893066</ele>
        <time>2014-08-24T12:15:03Z</time>
      </trkpt>
      <trkpt lat="45.9167" lon="6.50171">
        <ele>1991.775757</ele>
        <time>2014-08-24T12:15:08Z</time>
      </trkpt>
      <trkpt lat="45.91668" lon="6.50166">
        <ele>1990.941284</ele>
        <time>2014-08-24T12:15:13Z</time>
      </trkpt>
      <trkpt lat="45.91668" lon="6.50161">
        <ele>1989.720337</ele>
        <time>2014-08-24T12:15:18Z</time>
      </trkpt>
      <trkpt lat="45.91666" lon="6.50157">
        <ele>1989.009766</ele>
        <time>2014-08-24T12:15:23Z</time>
      </trkpt>
      <trkpt lat="45.91665" lon="6.50153">
        <ele>1988.541016</ele>
        <time>2014-08-24T12:15:28Z</time>
      </trkpt>
      <trkpt lat="45.91662" lon="6.50151">
        <ele>1988.799683</ele>
        <time>2014-08-24T12:15:33Z</time>
      </trkpt>
      <trkpt lat="45.9166" lon="6.50147">
        <ele>1988.135132</ele>
        <time>2014-08-24T12:15:38Z</time>
      </trkpt>
      <trkpt lat="45.91664" lon="6.50145">
        <ele>1986.339111</ele>
        <time>2014-08-24T12:15:43Z</time>
      </trkpt>
      <trkpt lat="45.91666" lon="6.50144">
        <ele>1985.248291</ele>
        <time>2014-08-24T12:15:48Z</time>
      </trkpt>
      <trkpt lat="45.91669" lon="6.50145">
        <ele>1984.684082</ele>
        <time>2014-08-24T12:15:53Z</time>
      </trkpt>
      <trkpt lat="45.91672" lon="6.50144">
        <ele>1983.044067</ele>
        <time>2014-08-24T12:15:58Z</time>
      </trkpt>
      <trkpt lat="45.91676" lon="6.50144">
        <ele>1981.694946</ele>
        <time>2014-08-24T12:16:03Z</time>
      </trkpt>
      <trkpt lat="45.91679" lon="6.50142">
        <ele>1979.660767</ele>
        <time>2014-08-24T12:16:08Z</time>
      </trkpt>
      <trkpt lat="45.91682" lon="6.50143">
        <ele>1979.22876</ele>
        <time>2014-08-24T12:16:13Z</time>
      </trkpt>
      <trkpt lat="45.91683" lon="6.50145">
        <ele>1979.240112</ele>
        <time>2014-08-24T12:16:18Z</time>
      </trkpt>
      <trkpt lat="45.91683" lon="6.50145">
        <ele>1979.316772</ele>
        <time>2014-08-24T12:16:23Z</time>
      </trkpt>
      <trkpt lat="45.91683" lon="6.50144">
        <ele>1979.132568</ele>
        <time>2014-08-24T12:16:28Z</time>
      </trkpt>
      <trkpt lat="45.91682" lon="6.50144">
        <ele>1979.338135</ele>
        <time>2014-08-24T12:16:33Z</time>
      </trkpt>
      <trkpt lat="45.91682" lon="6.50144">
        <ele>1979.338135</ele>
        <time>2014-08-24T12:16:38Z</time>
      </trkpt>
      <trkpt lat="45.91682" lon="6.50144">
        <ele>1979.338135</ele>
        <time>2014-08-24T12:16:43Z</time>
      </trkpt>
      <trkpt lat="45.91682" lon="6.50144">
        <ele>1979.338135</ele>
        <time>2014-08-24T12:16:48Z</time>
      </trkpt>
      <trkpt lat="45.91683" lon="6.50144">
        <ele>1979.086548</ele>
        <time>2014-08-24T12:16:53Z</time>
      </trkpt>
      <trkpt lat="45.91682" lon="6.50144">
        <ele>1979.338135</ele>
        <time>2014-08-24T12:16:58Z</time>
      </trkpt>
      <trkpt lat="45.91682" lon="6.50144">
        <ele>1979.338135</ele>
        <time>2014-08-24T12:17:03Z</time>
      </trkpt>
      <trkpt lat="45.91683" lon="6.50144">
        <ele>1979.132568</ele>
        <time>2014-08-24T12:17:08Z</time>
      </trkpt>
      <trkpt lat="45.91686" lon="6.50145">
        <ele>1978.424438</ele>
        <time>2014-08-24T12:17:13Z</time>
      </trkpt>
      <trkpt lat="45.91688" lon="6.50147">
        <ele>1977.535889</ele>
        <time>2014-08-24T12:17:18Z</time>
      </trkpt>
      <trkpt lat="45.9169" lon="6.50151">
        <ele>1977.613281</ele>
        <time>2014-08-24T12:17:23Z</time>
      </trkpt>
      <trkpt lat="45.91692" lon="6.5015">
        <ele>1976.28894</ele>
        <time>2014-08-24T12:17:28Z</time>
      </trkpt>
      <trkpt lat="45.91693" lon="6.50147">
        <ele>1975.288086</ele>
        <time>2014-08-24T12:17:33Z</time>
      </trkpt>
      <trkpt lat="45.91692" lon="6.50143">
        <ele>1974.359375</ele>
        <time>2014-08-24T12:17:38Z</time>
      </trkpt>
      <trkpt lat="45.91692" lon="6.50138">
        <ele>1973.400269</ele>
        <time>2014-08-24T12:17:43Z</time>
      </trkpt>
      <trkpt lat="45.91692" lon="6.50133">
        <ele>1971.947266</ele>
        <time>2014-08-24T12:17:48Z</time>
      </trkpt>
      <trkpt lat="45.9169" lon="6.50127">
        <ele>1970.907227</ele>
        <time>2014-08-24T12:17:53Z</time>
      </trkpt>
      <trkpt lat="45.91686" lon="6.50124">
        <ele>1971.319092</ele>
        <time>2014-08-24T12:17:58Z</time>
      </trkpt>
      <trkpt lat="45.91686" lon="6.5012">
        <ele>1969.532471</ele>
        <time>2014-08-24T12:18:03Z</time>
      </trkpt>
      <trkpt lat="45.91691" lon="6.50119">
        <ele>1967.244141</ele>
        <time>2014-08-24T12:18:08Z</time>
      </trkpt>
      <trkpt lat="45.91694" lon="6.50121">
        <ele>1966.346436</ele>
        <time>2014-08-24T12:18:13Z</time>
      </trkpt>
      <trkpt lat="45.91699" lon="6.50124">
        <ele>1964.986694</ele>
        <time>2014-08-24T12:18:18Z</time>
      </trkpt>
      <trkpt lat="45.91702" lon="6.50127">
        <ele>1964.63501</ele>
        <time>2014-08-24T12:18:23Z</time>
      </trkpt>
      <trkpt lat="45.91705" lon="6.50125">
        <ele>1962.510986</ele>
        <time>2014-08-24T12:18:28Z</time>
      </trkpt>
      <trkpt lat="45.91705" lon="6.50119">
        <ele>1960.696777</ele>
        <time>2014-08-24T12:18:33Z</time>
      </trkpt>
      <trkpt lat="45.91703" lon="6.50114">
        <ele>1959.884521</ele>
        <time>2014-08-24T12:18:38Z</time>
      </trkpt>
      <trkpt lat="45.91702" lon="6.50109">
        <ele>1958.522461</ele>
        <time>2014-08-24T12:18:43Z</time>
      </trkpt>
      <trkpt lat="45.917" lon="6.50108">
        <ele>1958.889648</ele>
        <time>2014-08-24T12:18:48Z</time>
      </trkpt>
      <trkpt lat="45.917" lon="6.50104">
        <ele>1957.416992</ele>
        <time>2014-08-24T12:18:53Z</time>
      </trkpt>
      <trkpt lat="45.91702" lon="6.50104">
        <ele>1956.544067</ele>
        <time>2014-08-24T12:18:58Z</time>
      </trkpt>
      <trkpt lat="45.91705" lon="6.50102">
        <ele>1954.673096</ele>
        <time>2014-08-24T12:19:03Z</time>
      </trkpt>
      <trkpt lat="45.9171" lon="6.50103">
        <ele>1953.068726</ele>
        <time>2014-08-24T12:19:08Z</time>
      </trkpt>
      <trkpt lat="45.91713" lon="6.50103">
        <ele>1952.049561</ele>
        <time>2014-08-24T12:19:13Z</time>
      </trkpt>
      <trkpt lat="45.91711" lon="6.50097">
        <ele>1950.808228</ele>
        <time>2014-08-24T12:19:18Z</time>
      </trkpt>
      <trkpt lat="45.91708" lon="6.50094">
        <ele>1951.127075</ele>
        <time>2014-08-24T12:19:23Z</time>
      </trkpt>
      <trkpt lat="45.91707" lon="6.50089">
        <ele>1949.574951</ele>
        <time>2014-08-24T12:19:28Z</time>
      </trkpt>
      <trkpt lat="45.9171" lon="6.50089">
        <ele>1948.528931</ele>
        <time>2014-08-24T12:19:33Z</time>
      </trkpt>
      <trkpt lat="45.91712" lon="6.50089">
        <ele>1947.709473</ele>
        <time>2014-08-24T12:19:38Z</time>
      </trkpt>
      <trkpt lat="45.91716" lon="6.50089">
        <ele>1946.442993</ele>
        <time>2014-08-24T12:19:43Z</time>
      </trkpt>
      <trkpt lat="45.91718" lon="6.50087">
        <ele>1944.792358</ele>
        <time>2014-08-24T12:19:48Z</time>
      </trkpt>
      <trkpt lat="45.91717" lon="6.50082">
        <ele>1943.787476</ele>
        <time>2014-08-24T12:19:53Z</time>
      </trkpt>
      <trkpt lat="45.91714" lon="6.50079">
        <ele>1944.021851</ele>
        <time>2014-08-24T12:19:58Z</time>
      </trkpt>
      <trkpt lat="45.91711" lon="6.50076">
        <ele>1943.759155</ele>
        <time>2014-08-24T12:20:03Z</time>
      </trkpt>
      <trkpt lat="45.91708" lon="6.50073">
        <ele>1943.522217</ele>
        <time>2014-08-24T12:20:08Z</time>
      </trkpt>
      <trkpt lat="45.91708" lon="6.50072">
        <ele>1943.482788</ele>
        <time>2014-08-24T12:20:13Z</time>
      </trkpt>
      <trkpt lat="45.91705" lon="6.50071">
        <ele>1943.814087</ele>
        <time>2014-08-24T12:20:18Z</time>
      </trkpt>
      <trkpt lat="45.91703" lon="6.50067">
        <ele>1943.290039</ele>
        <time>2014-08-24T12:20:23Z</time>
      </trkpt>
      <trkpt lat="45.917" lon="6.50065">
        <ele>1943.319946</ele>
        <time>2014-08-24T12:20:28Z</time>
      </trkpt>
      <trkpt lat="45.91696" lon="6.50064">
        <ele>1943.976318</ele>
        <time>2014-08-24T12:20:33Z</time>
      </trkpt>
      <trkpt lat="45.91693" lon="6.50063">
        <ele>1944.418701</ele>
        <time>2014-08-24T12:20:38Z</time>
      </trkpt>
      <trkpt lat="45.91692" lon="6.50061">
        <ele>1943.69873</ele>
        <time>2014-08-24T12:20:43Z</time>
      </trkpt>
      <trkpt lat="45.9169" lon="6.50058">
        <ele>1943.481201</ele>
        <time>2014-08-24T12:20:48Z</time>
      </trkpt>
      <trkpt lat="45.91687" lon="6.50055">
        <ele>1942.98999</ele>
        <time>2014-08-24T12:20:53Z</time>
      </trkpt>
      <trkpt lat="45.91685" lon="6.50051">
        <ele>1942.060059</ele>
        <time>2014-08-24T12:20:58Z</time>
      </trkpt>
      <trkpt lat="45.91685" lon="6.50046">
        <ele>1940.244995</ele>
        <time>2014-08-24T12:21:03Z</time>
      </trkpt>
      <trkpt lat="45.91684" lon="6.50042">
        <ele>1939.074951</ele>
        <time>2014-08-24T12:21:08Z</time>
      </trkpt>
      <trkpt lat="45.91682" lon="6.50038">
        <ele>1938.189941</ele>
        <time>2014-08-24T12:21:13Z</time>
      </trkpt>
      <trkpt lat="45.91681" lon="6.50034">
        <ele>1936.70874</ele>
        <time>2014-08-24T12:21:18Z</time>
      </trkpt>
      <trkpt lat="45.9168" lon="6.5003">
        <ele>1935.219971</ele>
        <time>2014-08-24T12:21:23Z</time>
      </trkpt>
      <trkpt lat="45.91681" lon="6.50026">
        <ele>1933.45752</ele>
        <time>2014-08-24T12:21:28Z</time>
      </trkpt>
      <trkpt lat="45.9168" lon="6.50023">
        <ele>1932.467529</ele>
        <time>2014-08-24T12:21:33Z</time>
      </trkpt>
      <trkpt lat="45.91678" lon="6.50019">
        <ele>1931.935059</ele>
        <time>2014-08-24T12:21:38Z</time>
      </trkpt>
      <trkpt lat="45.91676" lon="6.50017">
        <ele>1931.548706</ele>
        <time>2014-08-24T12:21:43Z</time>
      </trkpt>
      <trkpt lat="45.91675" lon="6.50014">
        <ele>1930.65625</ele>
        <time>2014-08-24T12:21:48Z</time>
      </trkpt>
      <trkpt lat="45.91673" lon="6.50011">
        <ele>1930.435059</ele>
        <time>2014-08-24T12:21:53Z</time>
      </trkpt>
      <trkpt lat="45.91672" lon="6.50007">
        <ele>1929.141235</ele>
        <time>2014-08-24T12:21:58Z</time>
      </trkpt>
      <trkpt lat="45.91672" lon="6.50003">
        <ele>1927.326294</ele>
        <time>2014-08-24T12:22:03Z</time>
      </trkpt>
      <trkpt lat="45.91672" lon="6.49997">
        <ele>1925.524414</ele>
        <time>2014-08-24T12:22:08Z</time>
      </trkpt>
      <trkpt lat="45.91671" lon="6.49991">
        <ele>1923.953857</ele>
        <time>2014-08-24T12:22:13Z</time>
      </trkpt>
      <trkpt lat="45.91671" lon="6.49984">
        <ele>1922.304688</ele>
        <time>2014-08-24T12:22:18Z</time>
      </trkpt>
      <trkpt lat="45.9167" lon="6.49978">
        <ele>1920.627075</ele>
        <time>2014-08-24T12:22:23Z</time>
      </trkpt>
      <trkpt lat="45.9167" lon="6.49973">
        <ele>1919.287598</ele>
        <time>2014-08-24T12:22:28Z</time>
      </trkpt>
      <trkpt lat="45.9167" lon="6.49966">
        <ele>1917.508667</ele>
        <time>2014-08-24T12:22:33Z</time>
      </trkpt>
      <trkpt lat="45.91671" lon="6.49961">
        <ele>1915.372681</ele>
        <time>2014-08-24T12:22:38Z</time>
      </trkpt>
      <trkpt lat="45.91673" lon="6.49958">
        <ele>1913.970459</ele>
        <time>2014-08-24T12:22:43Z</time>
      </trkpt>
      <trkpt lat="45.91675" lon="6.49953">
        <ele>1912.015137</ele>
        <time>2014-08-24T12:22:48Z</time>
      </trkpt>
      <trkpt lat="45.91674" lon="6.49948">
        <ele>1910.797119</ele>
        <time>2014-08-24T12:22:53Z</time>
      </trkpt>
      <trkpt lat="45.91676" lon="6.49944">
        <ele>1909.185303</ele>
        <time>2014-08-24T12:22:58Z</time>
      </trkpt>
      <trkpt lat="45.91678" lon="6.49944">
        <ele>1908.214722</ele>
        <time>2014-08-24T12:23:03Z</time>
      </trkpt>
      <trkpt lat="45.91676" lon="6.49939">
        <ele>1907.540649</ele>
        <time>2014-08-24T12:23:08Z</time>
      </trkpt>
      <trkpt lat="45.91678" lon="6.49936">
        <ele>1906.195068</ele>
        <time>2014-08-24T12:23:13Z</time>
      </trkpt>
      <trkpt lat="45.91678" lon="6.49932">
        <ele>1905.134644</ele>
        <time>2014-08-24T12:23:18Z</time>
      </trkpt>
      <trkpt lat="45.9168" lon="6.49928">
        <ele>1903.669678</ele>
        <time>2014-08-24T12:23:23Z</time>
      </trkpt>
      <trkpt lat="45.91681" lon="6.49925">
        <ele>1902.613037</ele>
        <time>2014-08-24T12:23:28Z</time>
      </trkpt>
      <trkpt lat="45.91679" lon="6.4992">
        <ele>1902.261475</ele>
        <time>2014-08-24T12:23:33Z</time>
      </trkpt>
      <trkpt lat="45.91681" lon="6.49917">
        <ele>1900.968506</ele>
        <time>2014-08-24T12:23:38Z</time>
      </trkpt>
      <trkpt lat="45.91682" lon="6.49912">
        <ele>1899.740723</ele>
        <time>2014-08-24T12:23:43Z</time>
      </trkpt>
      <trkpt lat="45.91683" lon="6.4991">
        <ele>1899.063721</ele>
        <time>2014-08-24T12:23:48Z</time>
      </trkpt>
      <trkpt lat="45.91685" lon="6.49906">
        <ele>1897.140991</ele>
        <time>2014-08-24T12:23:53Z</time>
      </trkpt>
      <trkpt lat="45.91688" lon="6.49902">
        <ele>1895.415527</ele>
        <time>2014-08-24T12:23:58Z</time>
      </trkpt>
      <trkpt lat="45.91691" lon="6.49902">
        <ele>1894.613892</ele>
        <time>2014-08-24T12:24:03Z</time>
      </trkpt>
      <trkpt lat="45.91693" lon="6.49906">
        <ele>1894.434204</ele>
        <time>2014-08-24T12:24:08Z</time>
      </trkpt>
      <trkpt lat="45.91696" lon="6.4991">
        <ele>1894.291382</ele>
        <time>2014-08-24T12:24:13Z</time>
      </trkpt>
      <trkpt lat="45.91698" lon="6.49913">
        <ele>1894.175659</ele>
        <time>2014-08-24T12:24:18Z</time>
      </trkpt>
      <trkpt lat="45.91701" lon="6.49914">
        <ele>1893.353394</ele>
        <time>2014-08-24T12:24:23Z</time>
      </trkpt>
      <trkpt lat="45.91703" lon="6.49919">
        <ele>1893.423462</ele>
        <time>2014-08-24T12:24:28Z</time>
      </trkpt>
      <trkpt lat="45.91706" lon="6.49922">
        <ele>1893.035767</ele>
        <time>2014-08-24T12:24:33Z</time>
      </trkpt>
      <trkpt lat="45.9171" lon="6.49925">
        <ele>1892.323853</ele>
        <time>2014-08-24T12:24:38Z</time>
      </trkpt>
      <trkpt lat="45.91713" lon="6.49928">
        <ele>1891.592529</ele>
        <time>2014-08-24T12:24:43Z</time>
      </trkpt>
      <trkpt lat="45.91717" lon="6.49929">
        <ele>1890.36792</ele>
        <time>2014-08-24T12:24:48Z</time>
      </trkpt>
      <trkpt lat="45.91721" lon="6.49931">
        <ele>1889.361328</ele>
        <time>2014-08-24T12:24:53Z</time>
      </trkpt>
      <trkpt lat="45.91726" lon="6.49932">
        <ele>1887.755859</ele>
        <time>2014-08-24T12:24:58Z</time>
      </trkpt>
      <trkpt lat="45.9173" lon="6.49933">
        <ele>1886.15686</ele>
        <time>2014-08-24T12:25:03Z</time>
      </trkpt>
      <trkpt lat="45.91734" lon="6.49935">
        <ele>1885.401001</ele>
        <time>2014-08-24T12:25:08Z</time>
      </trkpt>
      <trkpt lat="45.91738" lon="6.49938">
        <ele>1884.596191</ele>
        <time>2014-08-24T12:25:13Z</time>
      </trkpt>
      <trkpt lat="45.91741" lon="6.49938">
        <ele>1883.797363</ele>
        <time>2014-08-24T12:25:18Z</time>
      </trkpt>
      <trkpt lat="45.91744" lon="6.4994">
        <ele>1883.374878</ele>
        <time>2014-08-24T12:25:23Z</time>
      </trkpt>
      <trkpt lat="45.91747" lon="6.4994">
        <ele>1882.58313</ele>
        <time>2014-08-24T12:25:28Z</time>
      </trkpt>
      <trkpt lat="45.9175" lon="6.49941">
        <ele>1881.854736</ele>
        <time>2014-08-24T12:25:33Z</time>
      </trkpt>
      <trkpt lat="45.91754" lon="6.49942">
        <ele>1880.977173</ele>
        <time>2014-08-24T12:25:38Z</time>
      </trkpt>
      <trkpt lat="45.91758" lon="6.49941">
        <ele>1879.797974</ele>
        <time>2014-08-24T12:25:43Z</time>
      </trkpt>
      <trkpt lat="45.9176" lon="6.49937">
        <ele>1878.059937</ele>
        <time>2014-08-24T12:25:48Z</time>
      </trkpt>
      <trkpt lat="45.91763" lon="6.49934">
        <ele>1876.324829</ele>
        <time>2014-08-24T12:25:53Z</time>
      </trkpt>
      <trkpt lat="45.91768" lon="6.49935">
        <ele>1875.06189</ele>
        <time>2014-08-24T12:25:58Z</time>
      </trkpt>
      <trkpt lat="45.91771" lon="6.49932">
        <ele>1873.151978</ele>
        <time>2014-08-24T12:26:03Z</time>
      </trkpt>
      <trkpt lat="45.91774" lon="6.49929">
        <ele>1871.605957</ele>
        <time>2014-08-24T12:26:08Z</time>
      </trkpt>
      <trkpt lat="45.91777" lon="6.49926">
        <ele>1869.847778</ele>
        <time>2014-08-24T12:26:13Z</time>
      </trkpt>
      <trkpt lat="45.9178" lon="6.49922">
        <ele>1867.826782</ele>
        <time>2014-08-24T12:26:18Z</time>
      </trkpt>
      <trkpt lat="45.91779" lon="6.4991">
        <ele>1865.071533</ele>
        <time>2014-08-24T12:26:23Z</time>
      </trkpt>
      <trkpt lat="45.91776" lon="6.49899">
        <ele>1862.421387</ele>
        <time>2014-08-24T12:26:28Z</time>
      </trkpt>
      <trkpt lat="45.91779" lon="6.49895">
        <ele>1860.390015</ele>
        <time>2014-08-24T12:26:33Z</time>
      </trkpt>
      <trkpt lat="45.91784" lon="6.49891">
        <ele>1857.869751</ele>
        <time>2014-08-24T12:26:38Z</time>
      </trkpt>
      <trkpt lat="45.91787" lon="6.49888">
        <ele>1856.403442</ele>
        <time>2014-08-24T12:26:43Z</time>
      </trkpt>
      <trkpt lat="45.91785" lon="6.49871">
        <ele>1852.516602</ele>
        <time>2014-08-24T12:26:48Z</time>
      </trkpt>
      <trkpt lat="45.91786" lon="6.49869">
        <ele>1851.679932</ele>
        <time>2014-08-24T12:26:53Z</time>
      </trkpt>
      <trkpt lat="45.91783" lon="6.49849">
        <ele>1847.714355</ele>
        <time>2014-08-24T12:26:58Z</time>
      </trkpt>
      <trkpt lat="45.91786" lon="6.49844">
        <ele>1845.645996</ele>
        <time>2014-08-24T12:27:03Z</time>
      </trkpt>
      <trkpt lat="45.91786" lon="6.49843">
        <ele>1845.463989</ele>
        <time>2014-08-24T12:27:08Z</time>
      </trkpt>
      <trkpt lat="45.91786" lon="6.49843">
        <ele>1845.383911</ele>
        <time>2014-08-24T12:27:13Z</time>
      </trkpt>
      <trkpt lat="45.91786" lon="6.49843">
        <ele>1845.463989</ele>
        <time>2014-08-24T12:27:18Z</time>
      </trkpt>
      <trkpt lat="45.91786" lon="6.49843">
        <ele>1845.606079</ele>
        <time>2014-08-24T12:27:23Z</time>
      </trkpt>
      <trkpt lat="45.91789" lon="6.49842">
        <ele>1844.323853</ele>
        <time>2014-08-24T12:27:28Z</time>
      </trkpt>
      <trkpt lat="45.91785" lon="6.49814">
        <ele>1838.880249</ele>
        <time>2014-08-24T12:27:33Z</time>
      </trkpt>
      <trkpt lat="45.9179" lon="6.49813">
        <ele>1836.736328</ele>
        <time>2014-08-24T12:27:38Z</time>
      </trkpt>
      <trkpt lat="45.91792" lon="6.49813">
        <ele>1835.776245</ele>
        <time>2014-08-24T12:27:43Z</time>
      </trkpt>
      <trkpt lat="45.91796" lon="6.49814">
        <ele>1834.58252</ele>
        <time>2014-08-24T12:27:48Z</time>
      </trkpt>
      <trkpt lat="45.91799" lon="6.49818">
        <ele>1834.786255</ele>
        <time>2014-08-24T12:27:53Z</time>
      </trkpt>
      <trkpt lat="45.91799" lon="6.49822">
        <ele>1835.626221</ele>
        <time>2014-08-24T12:27:58Z</time>
      </trkpt>
      <trkpt lat="45.918" lon="6.49825">
        <ele>1836.247803</ele>
        <time>2014-08-24T12:28:03Z</time>
      </trkpt>
      <trkpt lat="45.918" lon="6.49831">
        <ele>1837.665771</ele>
        <time>2014-08-24T12:28:08Z</time>
      </trkpt>
      <trkpt lat="45.91802" lon="6.49835">
        <ele>1838.125</ele>
        <time>2014-08-24T12:28:13Z</time>
      </trkpt>
      <trkpt lat="45.91805" lon="6.4984">
        <ele>1838.513306</ele>
        <time>2014-08-24T12:28:18Z</time>
      </trkpt>
      <trkpt lat="45.91808" lon="6.49841">
        <ele>1837.527466</ele>
        <time>2014-08-24T12:28:23Z</time>
      </trkpt>
      <trkpt lat="45.91811" lon="6.49839">
        <ele>1836.063477</ele>
        <time>2014-08-24T12:28:28Z</time>
      </trkpt>
      <trkpt lat="45.91813" lon="6.49835">
        <ele>1834.427612</ele>
        <time>2014-08-24T12:28:33Z</time>
      </trkpt>
      <trkpt lat="45.91815" lon="6.49833">
        <ele>1833.050049</ele>
        <time>2014-08-24T12:28:38Z</time>
      </trkpt>
      <trkpt lat="45.91817" lon="6.49831">
        <ele>1831.793335</ele>
        <time>2014-08-24T12:28:43Z</time>
      </trkpt>
      <trkpt lat="45.9182" lon="6.4983">
        <ele>1830.31665</ele>
        <time>2014-08-24T12:28:48Z</time>
      </trkpt>
      <trkpt lat="45.91822" lon="6.49831">
        <ele>1830.079346</ele>
        <time>2014-08-24T12:28:53Z</time>
      </trkpt>
      <trkpt lat="45.91823" lon="6.4983">
        <ele>1829.148804</ele>
        <time>2014-08-24T12:28:58Z</time>
      </trkpt>
      <trkpt lat="45.91824" lon="6.4983">
        <ele>1828.897095</ele>
        <time>2014-08-24T12:29:03Z</time>
      </trkpt>
      <trkpt lat="45.91824" lon="6.49824">
        <ele>1826.9823</ele>
        <time>2014-08-24T12:29:08Z</time>
      </trkpt>
      <trkpt lat="45.91828" lon="6.49822">
        <ele>1824.853516</ele>
        <time>2014-08-24T12:29:13Z</time>
      </trkpt>
      <trkpt lat="45.91828" lon="6.49816">
        <ele>1823.278809</ele>
        <time>2014-08-24T12:29:18Z</time>
      </trkpt>
      <trkpt lat="45.91828" lon="6.4981">
        <ele>1821.497559</ele>
        <time>2014-08-24T12:29:23Z</time>
      </trkpt>
      <trkpt lat="45.91829" lon="6.49804">
        <ele>1819.618774</ele>
        <time>2014-08-24T12:29:28Z</time>
      </trkpt>
      <trkpt lat="45.91832" lon="6.49805">
        <ele>1818.658691</ele>
        <time>2014-08-24T12:29:33Z</time>
      </trkpt>
      <trkpt lat="45.91835" lon="6.49806">
        <ele>1817.386963</ele>
        <time>2014-08-24T12:29:38Z</time>
      </trkpt>
      <trkpt lat="45.91836" lon="6.49809">
        <ele>1817.672485</ele>
        <time>2014-08-24T12:29:43Z</time>
      </trkpt>
      <trkpt lat="45.91838" lon="6.49809">
        <ele>1816.845825</ele>
        <time>2014-08-24T12:29:48Z</time>
      </trkpt>
      <trkpt lat="45.91839" lon="6.49807">
        <ele>1815.368042</ele>
        <time>2014-08-24T12:29:53Z</time>
      </trkpt>
      <trkpt lat="45.9184" lon="6.49809">
        <ele>1815.405029</ele>
        <time>2014-08-24T12:29:58Z</time>
      </trkpt>
      <trkpt lat="45.91843" lon="6.49811">
        <ele>1814.855469</ele>
        <time>2014-08-24T12:30:03Z</time>
      </trkpt>
      <trkpt lat="45.91845" lon="6.49813">
        <ele>1814.095215</ele>
        <time>2014-08-24T12:30:08Z</time>
      </trkpt>
      <trkpt lat="45.91848" lon="6.49815">
        <ele>1813.034424</ele>
        <time>2014-08-24T12:30:13Z</time>
      </trkpt>
      <trkpt lat="45.91851" lon="6.49818">
        <ele>1812.88147</ele>
        <time>2014-08-24T12:30:18Z</time>
      </trkpt>
      <trkpt lat="45.91854" lon="6.4982">
        <ele>1812.300537</ele>
        <time>2014-08-24T12:30:23Z</time>
      </trkpt>
      <trkpt lat="45.91857" lon="6.4982">
        <ele>1810.409546</ele>
        <time>2014-08-24T12:30:28Z</time>
      </trkpt>
      <trkpt lat="45.91858" lon="6.49817">
        <ele>1808.933716</ele>
        <time>2014-08-24T12:30:33Z</time>
      </trkpt>
      <trkpt lat="45.9186" lon="6.49815">
        <ele>1807.28894</ele>
        <time>2014-08-24T12:30:38Z</time>
      </trkpt>
      <trkpt lat="45.91837" lon="6.49751">
        <ele>1798.678467</ele>
        <time>2014-08-24T12:30:43Z</time>
      </trkpt>
      <trkpt lat="45.9184" lon="6.49751">
        <ele>1796.803589</ele>
        <time>2014-08-24T12:30:48Z</time>
      </trkpt>
      <trkpt lat="45.91843" lon="6.49752">
        <ele>1795.368042</ele>
        <time>2014-08-24T12:30:53Z</time>
      </trkpt>
      <trkpt lat="45.91846" lon="6.49753">
        <ele>1793.812622</ele>
        <time>2014-08-24T12:30:58Z</time>
      </trkpt>
      <trkpt lat="45.91848" lon="6.49758">
        <ele>1794.882446</ele>
        <time>2014-08-24T12:31:03Z</time>
      </trkpt>
      <trkpt lat="45.91848" lon="6.49763">
        <ele>1796.446777</ele>
        <time>2014-08-24T12:31:08Z</time>
      </trkpt>
      <trkpt lat="45.91849" lon="6.49769">
        <ele>1797.909546</ele>
        <time>2014-08-24T12:31:13Z</time>
      </trkpt>
      <trkpt lat="45.9185" lon="6.49773">
        <ele>1798.235718</ele>
        <time>2014-08-24T12:31:18Z</time>
      </trkpt>
      <trkpt lat="45.91853" lon="6.49772">
        <ele>1796.141968</ele>
        <time>2014-08-24T12:31:23Z</time>
      </trkpt>
      <trkpt lat="45.91855" lon="6.49776">
        <ele>1796.406982</ele>
        <time>2014-08-24T12:31:28Z</time>
      </trkpt>
      <trkpt lat="45.91854" lon="6.49783">
        <ele>1799.108887</ele>
        <time>2014-08-24T12:31:33Z</time>
      </trkpt>
      <trkpt lat="45.91858" lon="6.49787">
        <ele>1798.170898</ele>
        <time>2014-08-24T12:31:38Z</time>
      </trkpt>
      <trkpt lat="45.9186" lon="6.49785">
        <ele>1796.415283</ele>
        <time>2014-08-24T12:31:43Z</time>
      </trkpt>
      <trkpt lat="45.91864" lon="6.49788">
        <ele>1794.79126</ele>
        <time>2014-08-24T12:31:48Z</time>
      </trkpt>
      <trkpt lat="45.91868" lon="6.49792">
        <ele>1794.201904</ele>
        <time>2014-08-24T12:31:53Z</time>
      </trkpt>
      <trkpt lat="45.91871" lon="6.49793">
        <ele>1792.629028</ele>
        <time>2014-08-24T12:31:58Z</time>
      </trkpt>
      <trkpt lat="45.91874" lon="6.49792">
        <ele>1790.310059</ele>
        <time>2014-08-24T12:32:03Z</time>
      </trkpt>
      <trkpt lat="45.91876" lon="6.49792">
        <ele>1789.189941</ele>
        <time>2014-08-24T12:32:08Z</time>
      </trkpt>
      <trkpt lat="45.91878" lon="6.49794">
        <ele>1788.647339</ele>
        <time>2014-08-24T12:32:13Z</time>
      </trkpt>
      <trkpt lat="45.9188" lon="6.49794">
        <ele>1787.370239</ele>
        <time>2014-08-24T12:32:18Z</time>
      </trkpt>
      <trkpt lat="45.91883" lon="6.49794">
        <ele>1785.64624</ele>
        <time>2014-08-24T12:32:23Z</time>
      </trkpt>
      <trkpt lat="45.91884" lon="6.49795">
        <ele>1785.348511</ele>
        <time>2014-08-24T12:32:28Z</time>
      </trkpt>
      <trkpt lat="45.91887" lon="6.49794">
        <ele>1782.700684</ele>
        <time>2014-08-24T12:32:33Z</time>
      </trkpt>
      <trkpt lat="45.9189" lon="6.49795">
        <ele>1780.930908</ele>
        <time>2014-08-24T12:32:38Z</time>
      </trkpt>
      <trkpt lat="45.91894" lon="6.49792">
        <ele>1777.409424</ele>
        <time>2014-08-24T12:32:43Z</time>
      </trkpt>
      <trkpt lat="45.91898" lon="6.49791">
        <ele>1774.567871</ele>
        <time>2014-08-24T12:32:48Z</time>
      </trkpt>
      <trkpt lat="45.919" lon="6.49792">
        <ele>1773.403442</ele>
        <time>2014-08-24T12:32:53Z</time>
      </trkpt>
      <trkpt lat="45.919" lon="6.49789">
        <ele>1772.577881</ele>
        <time>2014-08-24T12:32:58Z</time>
      </trkpt>
      <trkpt lat="45.91904" lon="6.49788">
        <ele>1769.321899</ele>
        <time>2014-08-24T12:33:03Z</time>
      </trkpt>
      <trkpt lat="45.91906" lon="6.49785">
        <ele>1767.125366</ele>
        <time>2014-08-24T12:33:08Z</time>
      </trkpt>
      <trkpt lat="45.91907" lon="6.49782">
        <ele>1765.016968</ele>
        <time>2014-08-24T12:33:13Z</time>
      </trkpt>
      <trkpt lat="45.91907" lon="6.49781">
        <ele>1764.211914</ele>
        <time>2014-08-24T12:33:18Z</time>
      </trkpt>
      <trkpt lat="45.91906" lon="6.49781">
        <ele>1764.940552</ele>
        <time>2014-08-24T12:33:23Z</time>
      </trkpt>
      <trkpt lat="45.91908" lon="6.49781">
        <ele>1763.873535</ele>
        <time>2014-08-24T12:33:28Z</time>
      </trkpt>
      <trkpt lat="45.91907" lon="6.49778">
        <ele>1763.112305</ele>
        <time>2014-08-24T12:33:33Z</time>
      </trkpt>
      <trkpt lat="45.91907" lon="6.49779">
        <ele>1763.846069</ele>
        <time>2014-08-24T12:33:38Z</time>
      </trkpt>
      <trkpt lat="45.91907" lon="6.4978">
        <ele>1764.342773</ele>
        <time>2014-08-24T12:33:43Z</time>
      </trkpt>
      <trkpt lat="45.91907" lon="6.49781">
        <ele>1764.733154</ele>
        <time>2014-08-24T12:33:48Z</time>
      </trkpt>
      <trkpt lat="45.91908" lon="6.49782">
        <ele>1764.506348</ele>
        <time>2014-08-24T12:33:53Z</time>
      </trkpt>
      <trkpt lat="45.91909" lon="6.49782">
        <ele>1763.20166</ele>
        <time>2014-08-24T12:33:58Z</time>
      </trkpt>
      <trkpt lat="45.91912" lon="6.49779">
        <ele>1760.458374</ele>
        <time>2014-08-24T12:34:03Z</time>
      </trkpt>
      <trkpt lat="45.91914" lon="6.49776">
        <ele>1757.931641</ele>
        <time>2014-08-24T12:34:08Z</time>
      </trkpt>
      <trkpt lat="45.91917" lon="6.49777">
        <ele>1756.440063</ele>
        <time>2014-08-24T12:34:13Z</time>
      </trkpt>
      <trkpt lat="45.91917" lon="6.49771">
        <ele>1754.015991</ele>
        <time>2014-08-24T12:34:18Z</time>
      </trkpt>
      <trkpt lat="45.91916" lon="6.49766">
        <ele>1752.198486</ele>
        <time>2014-08-24T12:34:23Z</time>
      </trkpt>
      <trkpt lat="45.91919" lon="6.49764">
        <ele>1750.24292</ele>
        <time>2014-08-24T12:34:28Z</time>
      </trkpt>
      <trkpt lat="45.91921" lon="6.49761">
        <ele>1747.447021</ele>
        <time>2014-08-24T12:34:33Z</time>
      </trkpt>
      <trkpt lat="45.91922" lon="6.49758">
        <ele>1745.682739</ele>
        <time>2014-08-24T12:34:38Z</time>
      </trkpt>
      <trkpt lat="45.91922" lon="6.49754">
        <ele>1744.08374</ele>
        <time>2014-08-24T12:34:43Z</time>
      </trkpt>
      <trkpt lat="45.91924" lon="6.49752">
        <ele>1742.340332</ele>
        <time>2014-08-24T12:34:48Z</time>
      </trkpt>
      <trkpt lat="45.91926" lon="6.49749">
        <ele>1740.536743</ele>
        <time>2014-08-24T12:34:53Z</time>
      </trkpt>
      <trkpt lat="45.91926" lon="6.49745">
        <ele>1738.858887</ele>
        <time>2014-08-24T12:34:58Z</time>
      </trkpt>
      <trkpt lat="45.91929" lon="6.49743">
        <ele>1737.748535</ele>
        <time>2014-08-24T12:35:03Z</time>
      </trkpt>
      <trkpt lat="45.91931" lon="6.49741">
        <ele>1736.767822</ele>
        <time>2014-08-24T12:35:08Z</time>
      </trkpt>
      <trkpt lat="45.91932" lon="6.49741">
        <ele>1736.53064</ele>
        <time>2014-08-24T12:35:13Z</time>
      </trkpt>
      <trkpt lat="45.91936" lon="6.49739">
        <ele>1735.124146</ele>
        <time>2014-08-24T12:35:18Z</time>
      </trkpt>
      <trkpt lat="45.91936" lon="6.49735">
        <ele>1733.84314</ele>
        <time>2014-08-24T12:35:23Z</time>
      </trkpt>
      <trkpt lat="45.91937" lon="6.49732">
        <ele>1732.626587</ele>
        <time>2014-08-24T12:35:28Z</time>
      </trkpt>
      <trkpt lat="45.91939" lon="6.49732">
        <ele>1732.117432</ele>
        <time>2014-08-24T12:35:33Z</time>
      </trkpt>
      <trkpt lat="45.91939" lon="6.49728">
        <ele>1730.903931</ele>
        <time>2014-08-24T12:35:38Z</time>
      </trkpt>
      <trkpt lat="45.9194" lon="6.49725">
        <ele>1729.670776</ele>
        <time>2014-08-24T12:35:43Z</time>
      </trkpt>
      <trkpt lat="45.91942" lon="6.49725">
        <ele>1729.298218</ele>
        <time>2014-08-24T12:35:48Z</time>
      </trkpt>
      <trkpt lat="45.91945" lon="6.49726">
        <ele>1729.468018</ele>
        <time>2014-08-24T12:35:53Z</time>
      </trkpt>
      <trkpt lat="45.91947" lon="6.49724">
        <ele>1728.44458</ele>
        <time>2014-08-24T12:35:58Z</time>
      </trkpt>
      <trkpt lat="45.91947" lon="6.4972">
        <ele>1727.062744</ele>
        <time>2014-08-24T12:36:03Z</time>
      </trkpt>
      <trkpt lat="45.91949" lon="6.4972">
        <ele>1726.665649</ele>
        <time>2014-08-24T12:36:08Z</time>
      </trkpt>
      <trkpt lat="45.91951" lon="6.49722">
        <ele>1726.976807</ele>
        <time>2014-08-24T12:36:13Z</time>
      </trkpt>
      <trkpt lat="45.91952" lon="6.49723">
        <ele>1727.276245</ele>
        <time>2014-08-24T12:36:18Z</time>
      </trkpt>
      <trkpt lat="45.91955" lon="6.49722">
        <ele>1726.499878</ele>
        <time>2014-08-24T12:36:23Z</time>
      </trkpt>
      <trkpt lat="45.91957" lon="6.49722">
        <ele>1726.312378</ele>
        <time>2014-08-24T12:36:28Z</time>
      </trkpt>
      <trkpt lat="45.91959" lon="6.49722">
        <ele>1725.89563</ele>
        <time>2014-08-24T12:36:33Z</time>
      </trkpt>
      <trkpt lat="45.91962" lon="6.49721">
        <ele>1725.139771</ele>
        <time>2014-08-24T12:36:38Z</time>
      </trkpt>
      <trkpt lat="45.91962" lon="6.49717">
        <ele>1724.108887</ele>
        <time>2014-08-24T12:36:43Z</time>
      </trkpt>
      <trkpt lat="45.91962" lon="6.49713">
        <ele>1722.670532</ele>
        <time>2014-08-24T12:36:48Z</time>
      </trkpt>
      <trkpt lat="45.91962" lon="6.49709">
        <ele>1721.343872</ele>
        <time>2014-08-24T12:36:53Z</time>
      </trkpt>
      <trkpt lat="45.91962" lon="6.49708">
        <ele>1721.013306</ele>
        <time>2014-08-24T12:36:58Z</time>
      </trkpt>
      <trkpt lat="45.91962" lon="6.4971">
        <ele>1721.592651</ele>
        <time>2014-08-24T12:37:03Z</time>
      </trkpt>
      <trkpt lat="45.91962" lon="6.49711">
        <ele>1721.809082</ele>
        <time>2014-08-24T12:37:08Z</time>
      </trkpt>
      <trkpt lat="45.91962" lon="6.49711">
        <ele>1722.025635</ele>
        <time>2014-08-24T12:37:13Z</time>
      </trkpt>
      <trkpt lat="45.91963" lon="6.49713">
        <ele>1722.390991</ele>
        <time>2014-08-24T12:37:18Z</time>
      </trkpt>
      <trkpt lat="45.91963" lon="6.49713">
        <ele>1722.638306</ele>
        <time>2014-08-24T12:37:23Z</time>
      </trkpt>
      <trkpt lat="45.91964" lon="6.49712">
        <ele>1721.987183</ele>
        <time>2014-08-24T12:37:28Z</time>
      </trkpt>
      <trkpt lat="45.91967" lon="6.49712">
        <ele>1721.466309</ele>
        <time>2014-08-24T12:37:33Z</time>
      </trkpt>
      <trkpt lat="45.91967" lon="6.49706">
        <ele>1719.698853</ele>
        <time>2014-08-24T12:37:38Z</time>
      </trkpt>
      <trkpt lat="45.91967" lon="6.49699">
        <ele>1717.474365</ele>
        <time>2014-08-24T12:37:43Z</time>
      </trkpt>
      <trkpt lat="45.91967" lon="6.49692">
        <ele>1715.418335</ele>
        <time>2014-08-24T12:37:48Z</time>
      </trkpt>
      <trkpt lat="45.91966" lon="6.49687">
        <ele>1713.845337</ele>
        <time>2014-08-24T12:37:53Z</time>
      </trkpt>
      <trkpt lat="45.91966" lon="6.49682">
        <ele>1712.107178</ele>
        <time>2014-08-24T12:37:58Z</time>
      </trkpt>
      <trkpt lat="45.91966" lon="6.49678">
        <ele>1710.985596</ele>
        <time>2014-08-24T12:38:03Z</time>
      </trkpt>
      <trkpt lat="45.91966" lon="6.49674">
        <ele>1709.859253</ele>
        <time>2014-08-24T12:38:08Z</time>
      </trkpt>
      <trkpt lat="45.91966" lon="6.4967">
        <ele>1708.579224</ele>
        <time>2014-08-24T12:38:13Z</time>
      </trkpt>
      <trkpt lat="45.91964" lon="6.49665">
        <ele>1706.852051</ele>
        <time>2014-08-24T12:38:18Z</time>
      </trkpt>
      <trkpt lat="45.91966" lon="6.49659">
        <ele>1704.932495</ele>
        <time>2014-08-24T12:38:23Z</time>
      </trkpt>
      <trkpt lat="45.91964" lon="6.49654">
        <ele>1703.626343</ele>
        <time>2014-08-24T12:38:28Z</time>
      </trkpt>
      <trkpt lat="45.91963" lon="6.49648">
        <ele>1701.529297</ele>
        <time>2014-08-24T12:38:33Z</time>
      </trkpt>
      <trkpt lat="45.91961" lon="6.49643">
        <ele>1700.135864</ele>
        <time>2014-08-24T12:38:38Z</time>
      </trkpt>
      <trkpt lat="45.91961" lon="6.49636">
        <ele>1697.880493</ele>
        <time>2014-08-24T12:38:43Z</time>
      </trkpt>
      <trkpt lat="45.91959" lon="6.49628">
        <ele>1695.508057</ele>
        <time>2014-08-24T12:38:48Z</time>
      </trkpt>
      <trkpt lat="45.91958" lon="6.4962">
        <ele>1693.362671</ele>
        <time>2014-08-24T12:38:53Z</time>
      </trkpt>
      <trkpt lat="45.91956" lon="6.49613">
        <ele>1691.404663</ele>
        <time>2014-08-24T12:38:58Z</time>
      </trkpt>
      <trkpt lat="45.91957" lon="6.49606">
        <ele>1689.098267</ele>
        <time>2014-08-24T12:39:03Z</time>
      </trkpt>
      <trkpt lat="45.91956" lon="6.49599">
        <ele>1687.373047</ele>
        <time>2014-08-24T12:39:08Z</time>
      </trkpt>
      <trkpt lat="45.91956" lon="6.49592">
        <ele>1685.196045</ele>
        <time>2014-08-24T12:39:13Z</time>
      </trkpt>
      <trkpt lat="45.91959" lon="6.49588">
        <ele>1683.533569</ele>
        <time>2014-08-24T12:39:18Z</time>
      </trkpt>
      <trkpt lat="45.91964" lon="6.49587">
        <ele>1682.382446</ele>
        <time>2014-08-24T12:39:23Z</time>
      </trkpt>
      <trkpt lat="45.91967" lon="6.49586">
        <ele>1681.081055</ele>
        <time>2014-08-24T12:39:28Z</time>
      </trkpt>
      <trkpt lat="45.91971" lon="6.49586">
        <ele>1680.515625</ele>
        <time>2014-08-24T12:39:33Z</time>
      </trkpt>
      <trkpt lat="45.91974" lon="6.49588">
        <ele>1680.432861</ele>
        <time>2014-08-24T12:39:38Z</time>
      </trkpt>
      <trkpt lat="45.91977" lon="6.49585">
        <ele>1678.672852</ele>
        <time>2014-08-24T12:39:43Z</time>
      </trkpt>
      <trkpt lat="45.91981" lon="6.49586">
        <ele>1678.334351</ele>
        <time>2014-08-24T12:39:48Z</time>
      </trkpt>
      <trkpt lat="45.91986" lon="6.49586">
        <ele>1677.103394</ele>
        <time>2014-08-24T12:39:53Z</time>
      </trkpt>
      <trkpt lat="45.91991" lon="6.49585">
        <ele>1675.864258</ele>
        <time>2014-08-24T12:39:58Z</time>
      </trkpt>
      <trkpt lat="45.91996" lon="6.49584">
        <ele>1674.410522</ele>
        <time>2014-08-24T12:40:03Z</time>
      </trkpt>
      <trkpt lat="45.92" lon="6.49585">
        <ele>1674.078369</ele>
        <time>2014-08-24T12:40:08Z</time>
      </trkpt>
      <trkpt lat="45.92004" lon="6.49584">
        <ele>1672.774048</ele>
        <time>2014-08-24T12:40:13Z</time>
      </trkpt>
      <trkpt lat="45.92008" lon="6.49584">
        <ele>1672.099976</ele>
        <time>2014-08-24T12:40:18Z</time>
      </trkpt>
      <trkpt lat="45.92012" lon="6.49587">
        <ele>1672.294678</ele>
        <time>2014-08-24T12:40:23Z</time>
      </trkpt>
      <trkpt lat="45.92014" lon="6.4959">
        <ele>1672.650635</ele>
        <time>2014-08-24T12:40:28Z</time>
      </trkpt>
      <trkpt lat="45.92016" lon="6.49592">
        <ele>1672.776367</ele>
        <time>2014-08-24T12:40:33Z</time>
      </trkpt>
      <trkpt lat="45.92019" lon="6.49592">
        <ele>1672.168457</ele>
        <time>2014-08-24T12:40:38Z</time>
      </trkpt>
      <trkpt lat="45.92024" lon="6.49595">
        <ele>1672.208618</ele>
        <time>2014-08-24T12:40:43Z</time>
      </trkpt>
      <trkpt lat="45.92027" lon="6.49597">
        <ele>1671.890259</ele>
        <time>2014-08-24T12:40:48Z</time>
      </trkpt>
      <trkpt lat="45.92032" lon="6.49598">
        <ele>1671.203857</ele>
        <time>2014-08-24T12:40:53Z</time>
      </trkpt>
      <trkpt lat="45.92031" lon="6.49598">
        <ele>1671.251465</ele>
        <time>2014-08-24T12:40:58Z</time>
      </trkpt>
      <trkpt lat="45.92033" lon="6.49599">
        <ele>1670.981567</ele>
        <time>2014-08-24T12:41:03Z</time>
      </trkpt>
      <trkpt lat="45.92037" lon="6.49601">
        <ele>1670.882324</ele>
        <time>2014-08-24T12:41:08Z</time>
      </trkpt>
      <trkpt lat="45.92037" lon="6.49603">
        <ele>1671.379395</ele>
        <time>2014-08-24T12:41:13Z</time>
      </trkpt>
      <trkpt lat="45.92039" lon="6.49605">
        <ele>1671.315186</ele>
        <time>2014-08-24T12:41:18Z</time>
      </trkpt>
      <trkpt lat="45.92043" lon="6.49609">
        <ele>1671.469971</ele>
        <time>2014-08-24T12:41:23Z</time>
      </trkpt>
      <trkpt lat="45.92046" lon="6.49612">
        <ele>1671.784668</ele>
        <time>2014-08-24T12:41:28Z</time>
      </trkpt>
      <trkpt lat="45.92048" lon="6.49611">
        <ele>1670.750732</ele>
        <time>2014-08-24T12:41:33Z</time>
      </trkpt>
      <trkpt lat="45.92049" lon="6.49612">
        <ele>1670.96582</ele>
        <time>2014-08-24T12:41:38Z</time>
      </trkpt>
      <trkpt lat="45.9205" lon="6.49614">
        <ele>1671.193604</ele>
        <time>2014-08-24T12:41:43Z</time>
      </trkpt>
      <trkpt lat="45.9205" lon="6.49614">
        <ele>1671.383911</ele>
        <time>2014-08-24T12:41:48Z</time>
      </trkpt>
      <trkpt lat="45.9205" lon="6.49616">
        <ele>1671.830078</ele>
        <time>2014-08-24T12:41:53Z</time>
      </trkpt>
      <trkpt lat="45.92053" lon="6.49618">
        <ele>1671.612061</ele>
        <time>2014-08-24T12:41:58Z</time>
      </trkpt>
      <trkpt lat="45.92056" lon="6.49617">
        <ele>1670.749146</ele>
        <time>2014-08-24T12:42:03Z</time>
      </trkpt>
      <trkpt lat="45.92058" lon="6.49615">
        <ele>1669.481445</ele>
        <time>2014-08-24T12:42:08Z</time>
      </trkpt>
      <trkpt lat="45.92062" lon="6.49614">
        <ele>1668.318848</ele>
        <time>2014-08-24T12:42:13Z</time>
      </trkpt>
      <trkpt lat="45.92065" lon="6.49612">
        <ele>1666.857056</ele>
        <time>2014-08-24T12:42:18Z</time>
      </trkpt>
      <trkpt lat="45.92069" lon="6.49611">
        <ele>1665.45752</ele>
        <time>2014-08-24T12:42:23Z</time>
      </trkpt>
      <trkpt lat="45.92072" lon="6.49609">
        <ele>1663.727539</ele>
        <time>2014-08-24T12:42:28Z</time>
      </trkpt>
      <trkpt lat="45.92075" lon="6.49607">
        <ele>1662.097534</ele>
        <time>2014-08-24T12:42:33Z</time>
      </trkpt>
      <trkpt lat="45.92079" lon="6.49603">
        <ele>1659.790039</ele>
        <time>2014-08-24T12:42:38Z</time>
      </trkpt>
      <trkpt lat="45.92082" lon="6.49603">
        <ele>1658.809937</ele>
        <time>2014-08-24T12:42:43Z</time>
      </trkpt>
      <trkpt lat="45.92084" lon="6.49602">
        <ele>1657.772461</ele>
        <time>2014-08-24T12:42:48Z</time>
      </trkpt>
      <trkpt lat="45.92087" lon="6.496">
        <ele>1656.32251</ele>
        <time>2014-08-24T12:42:53Z</time>
      </trkpt>
      <trkpt lat="45.92088" lon="6.49597">
        <ele>1655.122559</ele>
        <time>2014-08-24T12:42:58Z</time>
      </trkpt>
      <trkpt lat="45.92088" lon="6.49594">
        <ele>1654.469971</ele>
        <time>2014-08-24T12:43:03Z</time>
      </trkpt>
      <trkpt lat="45.9209" lon="6.49595">
        <ele>1653.997559</ele>
        <time>2014-08-24T12:43:08Z</time>
      </trkpt>
      <trkpt lat="45.92093" lon="6.49598">
        <ele>1653.807495</ele>
        <time>2014-08-24T12:43:13Z</time>
      </trkpt>
      <trkpt lat="45.92094" lon="6.49599">
        <ele>1653.797485</ele>
        <time>2014-08-24T12:43:18Z</time>
      </trkpt>
      <trkpt lat="45.92094" lon="6.49599">
        <ele>1653.907471</ele>
        <time>2014-08-24T12:43:23Z</time>
      </trkpt>
      <trkpt lat="45.92095" lon="6.496">
        <ele>1653.875</ele>
        <time>2014-08-24T12:43:28Z</time>
      </trkpt>
      <trkpt lat="45.92096" lon="6.49602">
        <ele>1654.025024</ele>
        <time>2014-08-24T12:43:33Z</time>
      </trkpt>
      <trkpt lat="45.92096" lon="6.49603">
        <ele>1654.497559</ele>
        <time>2014-08-24T12:43:38Z</time>
      </trkpt>
      <trkpt lat="45.92096" lon="6.49605">
        <ele>1654.577515</ele>
        <time>2014-08-24T12:43:43Z</time>
      </trkpt>
      <trkpt lat="45.92097" lon="6.49606">
        <ele>1654.702515</ele>
        <time>2014-08-24T12:43:48Z</time>
      </trkpt>
      <trkpt lat="45.92098" lon="6.49608">
        <ele>1654.829956</ele>
        <time>2014-08-24T12:43:53Z</time>
      </trkpt>
      <trkpt lat="45.92098" lon="6.49609">
        <ele>1655.027466</ele>
        <time>2014-08-24T12:43:58Z</time>
      </trkpt>
      <trkpt lat="45.92099" lon="6.4961">
        <ele>1655.267456</ele>
        <time>2014-08-24T12:44:03Z</time>
      </trkpt>
      <trkpt lat="45.921" lon="6.4961">
        <ele>1654.80249</ele>
        <time>2014-08-24T12:44:08Z</time>
      </trkpt>
      <trkpt lat="45.92101" lon="6.49612">
        <ele>1654.972534</ele>
        <time>2014-08-24T12:44:13Z</time>
      </trkpt>
      <trkpt lat="45.92105" lon="6.49614">
        <ele>1654.204956</ele>
        <time>2014-08-24T12:44:18Z</time>
      </trkpt>
      <trkpt lat="45.92109" lon="6.49615">
        <ele>1653.172485</ele>
        <time>2014-08-24T12:44:23Z</time>
      </trkpt>
      <trkpt lat="45.92111" lon="6.49611">
        <ele>1651.515015</ele>
        <time>2014-08-24T12:44:28Z</time>
      </trkpt>
      <trkpt lat="45.92112" lon="6.49607">
        <ele>1650.01416</ele>
        <time>2014-08-24T12:44:33Z</time>
      </trkpt>
      <trkpt lat="45.92114" lon="6.49604">
        <ele>1648.18042</ele>
        <time>2014-08-24T12:44:38Z</time>
      </trkpt>
      <trkpt lat="45.92117" lon="6.496">
        <ele>1646.239014</ele>
        <time>2014-08-24T12:44:43Z</time>
      </trkpt>
      <trkpt lat="45.92119" lon="6.49595">
        <ele>1643.836914</ele>
        <time>2014-08-24T12:44:48Z</time>
      </trkpt>
      <trkpt lat="45.92122" lon="6.49591">
        <ele>1641.748779</ele>
        <time>2014-08-24T12:44:53Z</time>
      </trkpt>
      <trkpt lat="45.92124" lon="6.49586">
        <ele>1639.630859</ele>
        <time>2014-08-24T12:44:58Z</time>
      </trkpt>
      <trkpt lat="45.92128" lon="6.49584">
        <ele>1637.301514</ele>
        <time>2014-08-24T12:45:03Z</time>
      </trkpt>
      <trkpt lat="45.92132" lon="6.49581">
        <ele>1634.66272</ele>
        <time>2014-08-24T12:45:08Z</time>
      </trkpt>
      <trkpt lat="45.92136" lon="6.49578">
        <ele>1631.844482</ele>
        <time>2014-08-24T12:45:13Z</time>
      </trkpt>
      <trkpt lat="45.92138" lon="6.49576">
        <ele>1630.219971</ele>
        <time>2014-08-24T12:45:18Z</time>
      </trkpt>
      <trkpt lat="45.92141" lon="6.49574">
        <ele>1628.174072</ele>
        <time>2014-08-24T12:45:23Z</time>
      </trkpt>
      <trkpt lat="45.92144" lon="6.49571">
        <ele>1626.054932</ele>
        <time>2014-08-24T12:45:28Z</time>
      </trkpt>
      <trkpt lat="45.92146" lon="6.49569">
        <ele>1624.295532</ele>
        <time>2014-08-24T12:45:33Z</time>
      </trkpt>
      <trkpt lat="45.92145" lon="6.49566">
        <ele>1623.558838</ele>
        <time>2014-08-24T12:45:38Z</time>
      </trkpt>
      <trkpt lat="45.92145" lon="6.49562">
        <ele>1622.217651</ele>
        <time>2014-08-24T12:45:43Z</time>
      </trkpt>
      <trkpt lat="45.92148" lon="6.4956">
        <ele>1620.363403</ele>
        <time>2014-08-24T12:45:48Z</time>
      </trkpt>
      <trkpt lat="45.92146" lon="6.49556">
        <ele>1619.488281</ele>
        <time>2014-08-24T12:45:53Z</time>
      </trkpt>
      <trkpt lat="45.92144" lon="6.49552">
        <ele>1618.818848</ele>
        <time>2014-08-24T12:45:58Z</time>
      </trkpt>
      <trkpt lat="45.92141" lon="6.49547">
        <ele>1618.239258</ele>
        <time>2014-08-24T12:46:03Z</time>
      </trkpt>
      <trkpt lat="45.92139" lon="6.49543">
        <ele>1617.609985</ele>
        <time>2014-08-24T12:46:08Z</time>
      </trkpt>
      <trkpt lat="45.92138" lon="6.49538">
        <ele>1616.274902</ele>
        <time>2014-08-24T12:46:13Z</time>
      </trkpt>
      <trkpt lat="45.92138" lon="6.49532">
        <ele>1614.092285</ele>
        <time>2014-08-24T12:46:18Z</time>
      </trkpt>
      <trkpt lat="45.92139" lon="6.49527">
        <ele>1612.007568</ele>
        <time>2014-08-24T12:46:23Z</time>
      </trkpt>
      <trkpt lat="45.92138" lon="6.49524">
        <ele>1610.98999</ele>
        <time>2014-08-24T12:46:28Z</time>
      </trkpt>
      <trkpt lat="45.9214" lon="6.49522">
        <ele>1609.770752</ele>
        <time>2014-08-24T12:46:33Z</time>
      </trkpt>
      <trkpt lat="45.92144" lon="6.49521">
        <ele>1607.752319</ele>
        <time>2014-08-24T12:46:38Z</time>
      </trkpt>
      <trkpt lat="45.92148" lon="6.49521">
        <ele>1605.960693</ele>
        <time>2014-08-24T12:46:43Z</time>
      </trkpt>
      <trkpt lat="45.92151" lon="6.49521">
        <ele>1604.328735</ele>
        <time>2014-08-24T12:46:48Z</time>
      </trkpt>
      <trkpt lat="45.92151" lon="6.49518">
        <ele>1603.687134</ele>
        <time>2014-08-24T12:46:53Z</time>
      </trkpt>
      <trkpt lat="45.92154" lon="6.49517">
        <ele>1601.69165</ele>
        <time>2014-08-24T12:46:58Z</time>
      </trkpt>
      <trkpt lat="45.92157" lon="6.49516">
        <ele>1600.290649</ele>
        <time>2014-08-24T12:47:03Z</time>
      </trkpt>
      <trkpt lat="45.92158" lon="6.49513">
        <ele>1598.759033</ele>
        <time>2014-08-24T12:47:08Z</time>
      </trkpt>
      <trkpt lat="45.92159" lon="6.49511">
        <ele>1597.901978</ele>
        <time>2014-08-24T12:47:13Z</time>
      </trkpt>
      <trkpt lat="45.92162" lon="6.49509">
        <ele>1596.56604</ele>
        <time>2014-08-24T12:47:18Z</time>
      </trkpt>
      <trkpt lat="45.92164" lon="6.49507">
        <ele>1595.104004</ele>
        <time>2014-08-24T12:47:23Z</time>
      </trkpt>
      <trkpt lat="45.92163" lon="6.49506">
        <ele>1594.893555</ele>
        <time>2014-08-24T12:47:28Z</time>
      </trkpt>
      <trkpt lat="45.9216" lon="6.49502">
        <ele>1594.65918</ele>
        <time>2014-08-24T12:47:33Z</time>
      </trkpt>
      <trkpt lat="45.92159" lon="6.49497">
        <ele>1593.37561</ele>
        <time>2014-08-24T12:47:38Z</time>
      </trkpt>
      <trkpt lat="45.92164" lon="6.49497">
        <ele>1591.870361</ele>
        <time>2014-08-24T12:47:43Z</time>
      </trkpt>
      <trkpt lat="45.92169" lon="6.49496">
        <ele>1589.888794</ele>
        <time>2014-08-24T12:47:48Z</time>
      </trkpt>
      <trkpt lat="45.92174" lon="6.49494">
        <ele>1587.609131</ele>
        <time>2014-08-24T12:47:53Z</time>
      </trkpt>
      <trkpt lat="45.9221" lon="6.49543">
        <ele>1595.111206</ele>
        <time>2014-08-24T12:47:58Z</time>
      </trkpt>
      <trkpt lat="45.92233" lon="6.49571">
        <ele>1597.388184</ele>
        <time>2014-08-24T12:48:03Z</time>
      </trkpt>
      <trkpt lat="45.92244" lon="6.49582">
        <ele>1597.814087</ele>
        <time>2014-08-24T12:48:08Z</time>
      </trkpt>
      <trkpt lat="45.92249" lon="6.49582">
        <ele>1597.114746</ele>
        <time>2014-08-24T12:48:13Z</time>
      </trkpt>
      <trkpt lat="45.9225" lon="6.49583">
        <ele>1597.114746</ele>
        <time>2014-08-24T12:48:18Z</time>
      </trkpt>
      <trkpt lat="45.92252" lon="6.4958">
        <ele>1596.021973</ele>
        <time>2014-08-24T12:48:23Z</time>
      </trkpt>
      <trkpt lat="45.92254" lon="6.4958">
        <ele>1595.938354</ele>
        <time>2014-08-24T12:48:28Z</time>
      </trkpt>
      <trkpt lat="45.92256" lon="6.4958">
        <ele>1595.810303</ele>
        <time>2014-08-24T12:48:33Z</time>
      </trkpt>
      <trkpt lat="45.92257" lon="6.49577">
        <ele>1594.553955</ele>
        <time>2014-08-24T12:48:38Z</time>
      </trkpt>
      <trkpt lat="45.92257" lon="6.49573">
        <ele>1593.185791</ele>
        <time>2014-08-24T12:48:43Z</time>
      </trkpt>
      <trkpt lat="45.92259" lon="6.4957">
        <ele>1591.939941</ele>
        <time>2014-08-24T12:48:48Z</time>
      </trkpt>
      <trkpt lat="45.92258" lon="6.49568">
        <ele>1591.041992</ele>
        <time>2014-08-24T12:48:53Z</time>
      </trkpt>
      <trkpt lat="45.92258" lon="6.49568">
        <ele>1591.196533</ele>
        <time>2014-08-24T12:48:58Z</time>
      </trkpt>
      <trkpt lat="45.92257" lon="6.49564">
        <ele>1589.512573</ele>
        <time>2014-08-24T12:49:03Z</time>
      </trkpt>
      <trkpt lat="45.92258" lon="6.49561">
        <ele>1588.279663</ele>
        <time>2014-08-24T12:49:08Z</time>
      </trkpt>
      <trkpt lat="45.9226" lon="6.49558">
        <ele>1587.105957</ele>
        <time>2014-08-24T12:49:13Z</time>
      </trkpt>
      <trkpt lat="45.92259" lon="6.49553">
        <ele>1585.468262</ele>
        <time>2014-08-24T12:49:18Z</time>
      </trkpt>
      <trkpt lat="45.92259" lon="6.49553">
        <ele>1585.213989</ele>
        <time>2014-08-24T12:49:23Z</time>
      </trkpt>
      <trkpt lat="45.92255" lon="6.49551">
        <ele>1584.417969</ele>
        <time>2014-08-24T12:49:28Z</time>
      </trkpt>
      <trkpt lat="45.92254" lon="6.49549">
        <ele>1583.551392</ele>
        <time>2014-08-24T12:49:33Z</time>
      </trkpt>
      <trkpt lat="45.92254" lon="6.49548">
        <ele>1583.234497</ele>
        <time>2014-08-24T12:49:38Z</time>
      </trkpt>
      <trkpt lat="45.92257" lon="6.49548">
        <ele>1583.333496</ele>
        <time>2014-08-24T12:49:43Z</time>
      </trkpt>
      <trkpt lat="45.92257" lon="6.49549">
        <ele>1583.568726</ele>
        <time>2014-08-24T12:49:48Z</time>
      </trkpt>
      <trkpt lat="45.92256" lon="6.49549">
        <ele>1583.57605</ele>
        <time>2014-08-24T12:49:53Z</time>
      </trkpt>
      <trkpt lat="45.92257" lon="6.49549">
        <ele>1583.583984</ele>
        <time>2014-08-24T12:49:58Z</time>
      </trkpt>
      <trkpt lat="45.92257" lon="6.49548">
        <ele>1583.45874</ele>
        <time>2014-08-24T12:50:03Z</time>
      </trkpt>
      <trkpt lat="45.92254" lon="6.49546">
        <ele>1582.397095</ele>
        <time>2014-08-24T12:50:08Z</time>
      </trkpt>
      <trkpt lat="45.92252" lon="6.49541">
        <ele>1580.634766</ele>
        <time>2014-08-24T12:50:13Z</time>
      </trkpt>
      <trkpt lat="45.92256" lon="6.4954">
        <ele>1580.188232</ele>
        <time>2014-08-24T12:50:18Z</time>
      </trkpt>
      <trkpt lat="45.92257" lon="6.49535">
        <ele>1578.234253</ele>
        <time>2014-08-24T12:50:23Z</time>
      </trkpt>
      <trkpt lat="45.92254" lon="6.49533">
        <ele>1577.379761</ele>
        <time>2014-08-24T12:50:28Z</time>
      </trkpt>
      <trkpt lat="45.92252" lon="6.49529">
        <ele>1575.717529</ele>
        <time>2014-08-24T12:50:33Z</time>
      </trkpt>
      <trkpt lat="45.92254" lon="6.49525">
        <ele>1574.553833</ele>
        <time>2014-08-24T12:50:38Z</time>
      </trkpt>
      <trkpt lat="45.92255" lon="6.49521">
        <ele>1573.503784</ele>
        <time>2014-08-24T12:50:43Z</time>
      </trkpt>
      <trkpt lat="45.92259" lon="6.4952">
        <ele>1573.113281</ele>
        <time>2014-08-24T12:50:48Z</time>
      </trkpt>
      <trkpt lat="45.92259" lon="6.49516">
        <ele>1571.998657</ele>
        <time>2014-08-24T12:50:53Z</time>
      </trkpt>
      <trkpt lat="45.92257" lon="6.49512">
        <ele>1570.468628</ele>
        <time>2014-08-24T12:50:58Z</time>
      </trkpt>
      <trkpt lat="45.92257" lon="6.49511">
        <ele>1570.331909</ele>
        <time>2014-08-24T12:51:03Z</time>
      </trkpt>
      <trkpt lat="45.92257" lon="6.49506">
        <ele>1568.655151</ele>
        <time>2014-08-24T12:51:08Z</time>
      </trkpt>
      <trkpt lat="45.92253" lon="6.49502">
        <ele>1567.477051</ele>
        <time>2014-08-24T12:51:13Z</time>
      </trkpt>
      <trkpt lat="45.9225" lon="6.49495">
        <ele>1565.083496</ele>
        <time>2014-08-24T12:51:18Z</time>
      </trkpt>
      <trkpt lat="45.9225" lon="6.49491">
        <ele>1563.775024</ele>
        <time>2014-08-24T12:51:23Z</time>
      </trkpt>
      <trkpt lat="45.92251" lon="6.49486">
        <ele>1562.226196</ele>
        <time>2014-08-24T12:51:28Z</time>
      </trkpt>
      <trkpt lat="45.92249" lon="6.49481">
        <ele>1561.141724</ele>
        <time>2014-08-24T12:51:33Z</time>
      </trkpt>
      <trkpt lat="45.92247" lon="6.49475">
        <ele>1559.846191</ele>
        <time>2014-08-24T12:51:38Z</time>
      </trkpt>
      <trkpt lat="45.92247" lon="6.49469">
        <ele>1557.876465</ele>
        <time>2014-08-24T12:51:43Z</time>
      </trkpt>
      <trkpt lat="45.92254" lon="6.49469">
        <ele>1557.062988</ele>
        <time>2014-08-24T12:51:48Z</time>
      </trkpt>
      <trkpt lat="45.92249" lon="6.4946">
        <ele>1555.109985</ele>
        <time>2014-08-24T12:51:53Z</time>
      </trkpt>
      <trkpt lat="45.92243" lon="6.49451">
        <ele>1553.83374</ele>
        <time>2014-08-24T12:51:58Z</time>
      </trkpt>
      <trkpt lat="45.92239" lon="6.49445">
        <ele>1552.574707</ele>
        <time>2014-08-24T12:52:03Z</time>
      </trkpt>
      <trkpt lat="45.92237" lon="6.4944">
        <ele>1551.103394</ele>
        <time>2014-08-24T12:52:08Z</time>
      </trkpt>
      <trkpt lat="45.92235" lon="6.49434">
        <ele>1549.700317</ele>
        <time>2014-08-24T12:52:13Z</time>
      </trkpt>
      <trkpt lat="45.92231" lon="6.49429">
        <ele>1548.394043</ele>
        <time>2014-08-24T12:52:18Z</time>
      </trkpt>
      <trkpt lat="45.92231" lon="6.49424">
        <ele>1546.681396</ele>
        <time>2014-08-24T12:52:23Z</time>
      </trkpt>
      <trkpt lat="45.9223" lon="6.49421">
        <ele>1545.799072</ele>
        <time>2014-08-24T12:52:28Z</time>
      </trkpt>
      <trkpt lat="45.92228" lon="6.49415">
        <ele>1544.067505</ele>
        <time>2014-08-24T12:52:33Z</time>
      </trkpt>
      <trkpt lat="45.92222" lon="6.49408">
        <ele>1541.687988</ele>
        <time>2014-08-24T12:52:38Z</time>
      </trkpt>
      <trkpt lat="45.92223" lon="6.49403">
        <ele>1539.92981</ele>
        <time>2014-08-24T12:52:43Z</time>
      </trkpt>
      <trkpt lat="45.92222" lon="6.494">
        <ele>1538.664307</ele>
        <time>2014-08-24T12:52:48Z</time>
      </trkpt>
      <trkpt lat="45.92223" lon="6.49394">
        <ele>1537.309814</ele>
        <time>2014-08-24T12:52:53Z</time>
      </trkpt>
      <trkpt lat="45.92225" lon="6.4939">
        <ele>1536.466309</ele>
        <time>2014-08-24T12:52:58Z</time>
      </trkpt>
      <trkpt lat="45.92225" lon="6.49387">
        <ele>1535.887207</ele>
        <time>2014-08-24T12:53:03Z</time>
      </trkpt>
      <trkpt lat="45.92231" lon="6.49389">
        <ele>1536.197388</ele>
        <time>2014-08-24T12:53:08Z</time>
      </trkpt>
      <trkpt lat="45.92228" lon="6.49386">
        <ele>1535.557007</ele>
        <time>2014-08-24T12:53:13Z</time>
      </trkpt>
      <trkpt lat="45.92226" lon="6.49383">
        <ele>1535.003662</ele>
        <time>2014-08-24T12:53:18Z</time>
      </trkpt>
      <trkpt lat="45.92219" lon="6.49377">
        <ele>1533.81665</ele>
        <time>2014-08-24T12:53:23Z</time>
      </trkpt>
      <trkpt lat="45.92216" lon="6.49375">
        <ele>1533.292847</ele>
        <time>2014-08-24T12:53:28Z</time>
      </trkpt>
      <trkpt lat="45.92215" lon="6.49374">
        <ele>1533.088867</ele>
        <time>2014-08-24T12:53:33Z</time>
      </trkpt>
      <trkpt lat="45.92218" lon="6.49377">
        <ele>1533.679199</ele>
        <time>2014-08-24T12:53:38Z</time>
      </trkpt>
      <trkpt lat="45.92226" lon="6.49384">
        <ele>1535.097412</ele>
        <time>2014-08-24T12:53:43Z</time>
      </trkpt>
      <trkpt lat="45.92231" lon="6.49387">
        <ele>1535.69104</ele>
        <time>2014-08-24T12:53:48Z</time>
      </trkpt>
      <trkpt lat="45.92228" lon="6.49384">
        <ele>1535.20752</ele>
        <time>2014-08-24T12:53:53Z</time>
      </trkpt>
      <trkpt lat="45.92228" lon="6.49382">
        <ele>1534.670532</ele>
        <time>2014-08-24T12:53:58Z</time>
      </trkpt>
      <trkpt lat="45.92228" lon="6.49381">
        <ele>1534.49292</ele>
        <time>2014-08-24T12:54:03Z</time>
      </trkpt>
      <trkpt lat="45.92228" lon="6.4938">
        <ele>1534.271973</ele>
        <time>2014-08-24T12:54:08Z</time>
      </trkpt>
      <trkpt lat="45.92232" lon="6.49381">
        <ele>1534.533936</ele>
        <time>2014-08-24T12:54:13Z</time>
      </trkpt>
      <trkpt lat="45.92232" lon="6.49378">
        <ele>1533.918457</ele>
        <time>2014-08-24T12:54:18Z</time>
      </trkpt>
      <trkpt lat="45.9223" lon="6.49375">
        <ele>1533.136719</ele>
        <time>2014-08-24T12:54:23Z</time>
      </trkpt>
      <trkpt lat="45.92229" lon="6.49371">
        <ele>1532.262817</ele>
        <time>2014-08-24T12:54:28Z</time>
      </trkpt>
      <trkpt lat="45.92228" lon="6.49365">
        <ele>1531.103516</ele>
        <time>2014-08-24T12:54:33Z</time>
      </trkpt>
      <trkpt lat="45.92226" lon="6.4936">
        <ele>1530.112915</ele>
        <time>2014-08-24T12:54:38Z</time>
      </trkpt>
      <trkpt lat="45.92223" lon="6.49355">
        <ele>1529.002808</ele>
        <time>2014-08-24T12:54:43Z</time>
      </trkpt>
      <trkpt lat="45.92222" lon="6.4935">
        <ele>1528.052368</ele>
        <time>2014-08-24T12:54:48Z</time>
      </trkpt>
      <trkpt lat="45.92221" lon="6.49345">
        <ele>1527.041382</ele>
        <time>2014-08-24T12:54:53Z</time>
      </trkpt>
      <trkpt lat="45.9222" lon="6.4934">
        <ele>1525.930664</ele>
        <time>2014-08-24T12:54:58Z</time>
      </trkpt>
      <trkpt lat="45.92218" lon="6.49334">
        <ele>1524.756104</ele>
        <time>2014-08-24T12:55:03Z</time>
      </trkpt>
      <trkpt lat="45.92219" lon="6.49328">
        <ele>1523.726685</ele>
        <time>2014-08-24T12:55:08Z</time>
      </trkpt>
      <trkpt lat="45.9221" lon="6.49319">
        <ele>1522.459961</ele>
        <time>2014-08-24T12:55:13Z</time>
      </trkpt>
      <trkpt lat="45.92205" lon="6.49312">
        <ele>1522.028931</ele>
        <time>2014-08-24T12:55:18Z</time>
      </trkpt>
      <trkpt lat="45.92205" lon="6.49308">
        <ele>1521.230469</ele>
        <time>2014-08-24T12:55:23Z</time>
      </trkpt>
      <trkpt lat="45.92202" lon="6.49304">
        <ele>1520.630127</ele>
        <time>2014-08-24T12:55:28Z</time>
      </trkpt>
      <trkpt lat="45.92207" lon="6.49304">
        <ele>1520.074951</ele>
        <time>2014-08-24T12:55:33Z</time>
      </trkpt>
      <trkpt lat="45.92204" lon="6.49298">
        <ele>1519.364014</ele>
        <time>2014-08-24T12:55:38Z</time>
      </trkpt>
      <trkpt lat="45.92201" lon="6.49293">
        <ele>1518.740234</ele>
        <time>2014-08-24T12:55:43Z</time>
      </trkpt>
      <trkpt lat="45.92199" lon="6.49287">
        <ele>1517.600342</ele>
        <time>2014-08-24T12:55:48Z</time>
      </trkpt>
      <trkpt lat="45.92193" lon="6.49276">
        <ele>1515.810425</ele>
        <time>2014-08-24T12:55:53Z</time>
      </trkpt>
      <trkpt lat="45.92196" lon="6.49271">
        <ele>1514.379272</ele>
        <time>2014-08-24T12:55:58Z</time>
      </trkpt>
      <trkpt lat="45.92191" lon="6.4926">
        <ele>1512.332153</ele>
        <time>2014-08-24T12:56:03Z</time>
      </trkpt>
      <trkpt lat="45.92184" lon="6.49248">
        <ele>1509.750122</ele>
        <time>2014-08-24T12:56:08Z</time>
      </trkpt>
      <trkpt lat="45.92184" lon="6.4924">
        <ele>1508.031494</ele>
        <time>2014-08-24T12:56:13Z</time>
      </trkpt>
      <trkpt lat="45.92195" lon="6.49239">
        <ele>1507.148926</ele>
        <time>2014-08-24T12:56:18Z</time>
      </trkpt>
      <trkpt lat="45.922" lon="6.49235">
        <ele>1506.113892</ele>
        <time>2014-08-24T12:56:23Z</time>
      </trkpt>
      <trkpt lat="45.92201" lon="6.49229">
        <ele>1504.669067</ele>
        <time>2014-08-24T12:56:28Z</time>
      </trkpt>
      <trkpt lat="45.92199" lon="6.49222">
        <ele>1503.210693</ele>
        <time>2014-08-24T12:56:33Z</time>
      </trkpt>
      <trkpt lat="45.92196" lon="6.49215">
        <ele>1501.801025</ele>
        <time>2014-08-24T12:56:38Z</time>
      </trkpt>
      <trkpt lat="45.92194" lon="6.49207">
        <ele>1499.823364</ele>
        <time>2014-08-24T12:56:43Z</time>
      </trkpt>
      <trkpt lat="45.92191" lon="6.49198">
        <ele>1497.980835</ele>
        <time>2014-08-24T12:56:48Z</time>
      </trkpt>
      <trkpt lat="45.92189" lon="6.4919">
        <ele>1496.114502</ele>
        <time>2014-08-24T12:56:53Z</time>
      </trkpt>
      <trkpt lat="45.92187" lon="6.49184">
        <ele>1494.858521</ele>
        <time>2014-08-24T12:56:58Z</time>
      </trkpt>
      <trkpt lat="45.92185" lon="6.49178">
        <ele>1493.428589</ele>
        <time>2014-08-24T12:57:03Z</time>
      </trkpt>
      <trkpt lat="45.92185" lon="6.49178">
        <ele>1493.355103</ele>
        <time>2014-08-24T12:57:08Z</time>
      </trkpt>
      <trkpt lat="45.92184" lon="6.49177">
        <ele>1493.294067</ele>
        <time>2014-08-24T12:57:13Z</time>
      </trkpt>
      <trkpt lat="45.92182" lon="6.4917">
        <ele>1491.630981</ele>
        <time>2014-08-24T12:57:18Z</time>
      </trkpt>
      <trkpt lat="45.92181" lon="6.49162">
        <ele>1489.9104</ele>
        <time>2014-08-24T12:57:23Z</time>
      </trkpt>
      <trkpt lat="45.9218" lon="6.49156">
        <ele>1488.459351</ele>
        <time>2014-08-24T12:57:28Z</time>
      </trkpt>
      <trkpt lat="45.92181" lon="6.49155">
        <ele>1488.259155</ele>
        <time>2014-08-24T12:57:33Z</time>
      </trkpt>
      <trkpt lat="45.92181" lon="6.49155">
        <ele>1488.303345</ele>
        <time>2014-08-24T12:57:38Z</time>
      </trkpt>
      <trkpt lat="45.92181" lon="6.49156">
        <ele>1488.343994</ele>
        <time>2014-08-24T12:57:43Z</time>
      </trkpt>
      <trkpt lat="45.92181" lon="6.49156">
        <ele>1488.417969</ele>
        <time>2014-08-24T12:57:48Z</time>
      </trkpt>
      <trkpt lat="45.9218" lon="6.49151">
        <ele>1487.343872</ele>
        <time>2014-08-24T12:57:53Z</time>
      </trkpt>
      <trkpt lat="45.92178" lon="6.49145">
        <ele>1485.947144</ele>
        <time>2014-08-24T12:57:58Z</time>
      </trkpt>
      <trkpt lat="45.92176" lon="6.49138">
        <ele>1484.293945</ele>
        <time>2014-08-24T12:58:03Z</time>
      </trkpt>
      <trkpt lat="45.92175" lon="6.49132">
        <ele>1483.19751</ele>
        <time>2014-08-24T12:58:08Z</time>
      </trkpt>
      <trkpt lat="45.92178" lon="6.49126">
        <ele>1482.247437</ele>
        <time>2014-08-24T12:58:13Z</time>
      </trkpt>
      <trkpt lat="45.92175" lon="6.49119">
        <ele>1480.941284</ele>
        <time>2014-08-24T12:58:18Z</time>
      </trkpt>
      <trkpt lat="45.92177" lon="6.49114">
        <ele>1480.160034</ele>
        <time>2014-08-24T12:58:23Z</time>
      </trkpt>
      <trkpt lat="45.92177" lon="6.49114">
        <ele>1480.1875</ele>
        <time>2014-08-24T12:58:28Z</time>
      </trkpt>
      <trkpt lat="45.92177" lon="6.49115">
        <ele>1480.211182</ele>
        <time>2014-08-24T12:58:33Z</time>
      </trkpt>
      <trkpt lat="45.92178" lon="6.49112">
        <ele>1479.734985</ele>
        <time>2014-08-24T12:58:38Z</time>
      </trkpt>
      <trkpt lat="45.92177" lon="6.49111">
        <ele>1479.61499</ele>
        <time>2014-08-24T12:58:43Z</time>
      </trkpt>
      <trkpt lat="45.92177" lon="6.49105">
        <ele>1478.587524</ele>
        <time>2014-08-24T12:58:48Z</time>
      </trkpt>
      <trkpt lat="45.92177" lon="6.49098">
        <ele>1477.38623</ele>
        <time>2014-08-24T12:58:53Z</time>
      </trkpt>
      <trkpt lat="45.92176" lon="6.49092">
        <ele>1476.29248</ele>
        <time>2014-08-24T12:58:58Z</time>
      </trkpt>
      <trkpt lat="45.92176" lon="6.49085">
        <ele>1475.128784</ele>
        <time>2014-08-24T12:59:03Z</time>
      </trkpt>
      <trkpt lat="45.92173" lon="6.49077">
        <ele>1473.900146</ele>
        <time>2014-08-24T12:59:08Z</time>
      </trkpt>
      <trkpt lat="45.9217" lon="6.4907">
        <ele>1472.857422</ele>
        <time>2014-08-24T12:59:13Z</time>
      </trkpt>
      <trkpt lat="45.92167" lon="6.49063">
        <ele>1471.88855</ele>
        <time>2014-08-24T12:59:18Z</time>
      </trkpt>
      <trkpt lat="45.92165" lon="6.49057">
        <ele>1471.180054</ele>
        <time>2014-08-24T12:59:23Z</time>
      </trkpt>
      <trkpt lat="45.92166" lon="6.49058">
        <ele>1471.215576</ele>
        <time>2014-08-24T12:59:28Z</time>
      </trkpt>
      <trkpt lat="45.92167" lon="6.49056">
        <ele>1470.955933</ele>
        <time>2014-08-24T12:59:33Z</time>
      </trkpt>
      <trkpt lat="45.92165" lon="6.49049">
        <ele>1470.055908</ele>
        <time>2014-08-24T12:59:38Z</time>
      </trkpt>
      <trkpt lat="45.92163" lon="6.49041">
        <ele>1469.149048</ele>
        <time>2014-08-24T12:59:43Z</time>
      </trkpt>
      <trkpt lat="45.92162" lon="6.49035">
        <ele>1468.425781</ele>
        <time>2014-08-24T12:59:48Z</time>
      </trkpt>
      <trkpt lat="45.92162" lon="6.4903">
        <ele>1467.796509</ele>
        <time>2014-08-24T12:59:53Z</time>
      </trkpt>
      <trkpt lat="45.92161" lon="6.49024">
        <ele>1467.098755</ele>
        <time>2014-08-24T12:59:58Z</time>
      </trkpt>
      <trkpt lat="45.92158" lon="6.49016">
        <ele>1466.446289</ele>
        <time>2014-08-24T13:00:03Z</time>
      </trkpt>
      <trkpt lat="45.92157" lon="6.49008">
        <ele>1465.459106</ele>
        <time>2014-08-24T13:00:08Z</time>
      </trkpt>
      <trkpt lat="45.92159" lon="6.49004">
        <ele>1464.847534</ele>
        <time>2014-08-24T13:00:13Z</time>
      </trkpt>
      <trkpt lat="45.92158" lon="6.48999">
        <ele>1464.381714</ele>
        <time>2014-08-24T13:00:18Z</time>
      </trkpt>
      <trkpt lat="45.92158" lon="6.4899">
        <ele>1463.587036</ele>
        <time>2014-08-24T13:00:23Z</time>
      </trkpt>
      <trkpt lat="45.92157" lon="6.4898">
        <ele>1462.671021</ele>
        <time>2014-08-24T13:00:28Z</time>
      </trkpt>
      <trkpt lat="45.92157" lon="6.48971">
        <ele>1461.784302</ele>
        <time>2014-08-24T13:00:33Z</time>
      </trkpt>
      <trkpt lat="45.92157" lon="6.48961">
        <ele>1460.91748</ele>
        <time>2014-08-24T13:00:38Z</time>
      </trkpt>
      <trkpt lat="45.92156" lon="6.48952">
        <ele>1460.171753</ele>
        <time>2014-08-24T13:00:43Z</time>
      </trkpt>
      <trkpt lat="45.92155" lon="6.48943">
        <ele>1459.598511</ele>
        <time>2014-08-24T13:00:48Z</time>
      </trkpt>
      <trkpt lat="45.92157" lon="6.48936">
        <ele>1458.792725</ele>
        <time>2014-08-24T13:00:53Z</time>
      </trkpt>
      <trkpt lat="45.92158" lon="6.4893">
        <ele>1458.122559</ele>
        <time>2014-08-24T13:00:58Z</time>
      </trkpt>
      <trkpt lat="45.92158" lon="6.48921">
        <ele>1457.62439</ele>
        <time>2014-08-24T13:01:03Z</time>
      </trkpt>
      <trkpt lat="45.92159" lon="6.48913">
        <ele>1456.991943</ele>
        <time>2014-08-24T13:01:08Z</time>
      </trkpt>
      <trkpt lat="45.92159" lon="6.48908">
        <ele>1456.545898</ele>
        <time>2014-08-24T13:01:13Z</time>
      </trkpt>
      <trkpt lat="45.9216" lon="6.48908">
        <ele>1456.50293</ele>
        <time>2014-08-24T13:01:18Z</time>
      </trkpt>
      <trkpt lat="45.92158" lon="6.48901">
        <ele>1456.272827</ele>
        <time>2014-08-24T13:01:23Z</time>
      </trkpt>
      <trkpt lat="45.92158" lon="6.48893">
        <ele>1455.774536</ele>
        <time>2014-08-24T13:01:28Z</time>
      </trkpt>
      <trkpt lat="45.92158" lon="6.48885">
        <ele>1455.2948</ele>
        <time>2014-08-24T13:01:33Z</time>
      </trkpt>
      <trkpt lat="45.92157" lon="6.48878">
        <ele>1454.937134</ele>
        <time>2014-08-24T13:01:38Z</time>
      </trkpt>
      <trkpt lat="45.92158" lon="6.48873">
        <ele>1454.880005</ele>
        <time>2014-08-24T13:01:43Z</time>
      </trkpt>
      <trkpt lat="45.92159" lon="6.48865">
        <ele>1455.015015</ele>
        <time>2014-08-24T13:01:48Z</time>
      </trkpt>
      <trkpt lat="45.9216" lon="6.48857">
        <ele>1454.88501</ele>
        <time>2014-08-24T13:01:53Z</time>
      </trkpt>
      <trkpt lat="45.92164" lon="6.4885">
        <ele>1454.54248</ele>
        <time>2014-08-24T13:01:58Z</time>
      </trkpt>
      <trkpt lat="45.92166" lon="6.48844">
        <ele>1454.328735</ele>
        <time>2014-08-24T13:02:03Z</time>
      </trkpt>
      <trkpt lat="45.92169" lon="6.48839">
        <ele>1453.962524</ele>
        <time>2014-08-24T13:02:08Z</time>
      </trkpt>
      <trkpt lat="45.92172" lon="6.48833">
        <ele>1453.625</ele>
        <time>2014-08-24T13:02:13Z</time>
      </trkpt>
      <trkpt lat="45.92176" lon="6.48828">
        <ele>1453.152466</ele>
        <time>2014-08-24T13:02:18Z</time>
      </trkpt>
      <trkpt lat="45.92186" lon="6.48827">
        <ele>1451.289795</ele>
        <time>2014-08-24T13:02:23Z</time>
      </trkpt>
      <trkpt lat="45.92188" lon="6.4882">
        <ele>1450.784302</ele>
        <time>2014-08-24T13:02:28Z</time>
      </trkpt>
      <trkpt lat="45.92193" lon="6.48817">
        <ele>1449.317017</ele>
        <time>2014-08-24T13:02:33Z</time>
      </trkpt>
      <trkpt lat="45.92196" lon="6.48812">
        <ele>1448.074829</ele>
        <time>2014-08-24T13:02:38Z</time>
      </trkpt>
      <trkpt lat="45.92193" lon="6.48804">
        <ele>1448.432739</ele>
        <time>2014-08-24T13:02:43Z</time>
      </trkpt>
      <trkpt lat="45.92193" lon="6.48799">
        <ele>1447.73584</ele>
        <time>2014-08-24T13:02:48Z</time>
      </trkpt>
      <trkpt lat="45.92193" lon="6.48794">
        <ele>1447.384888</ele>
        <time>2014-08-24T13:02:53Z</time>
      </trkpt>
      <trkpt lat="45.9219" lon="6.48791">
        <ele>1448.485718</ele>
        <time>2014-08-24T13:02:58Z</time>
      </trkpt>
      <trkpt lat="45.92186" lon="6.48787">
        <ele>1449.64856</ele>
        <time>2014-08-24T13:03:03Z</time>
      </trkpt>
      <trkpt lat="45.92185" lon="6.48781">
        <ele>1449.784668</ele>
        <time>2014-08-24T13:03:08Z</time>
      </trkpt>
      <trkpt lat="45.92183" lon="6.48775">
        <ele>1449.916626</ele>
        <time>2014-08-24T13:03:13Z</time>
      </trkpt>
      <trkpt lat="45.9218" lon="6.48768">
        <ele>1450.196045</ele>
        <time>2014-08-24T13:03:18Z</time>
      </trkpt>
      <trkpt lat="45.92178" lon="6.48762">
        <ele>1450.506836</ele>
        <time>2014-08-24T13:03:23Z</time>
      </trkpt>
      <trkpt lat="45.92177" lon="6.48756">
        <ele>1450.809692</ele>
        <time>2014-08-24T13:03:28Z</time>
      </trkpt>
      <trkpt lat="45.92174" lon="6.48749">
        <ele>1451.401245</ele>
        <time>2014-08-24T13:03:33Z</time>
      </trkpt>
      <trkpt lat="45.92172" lon="6.48742">
        <ele>1451.400635</ele>
        <time>2014-08-24T13:03:38Z</time>
      </trkpt>
      <trkpt lat="45.92169" lon="6.48736">
        <ele>1451.835083</ele>
        <time>2014-08-24T13:03:43Z</time>
      </trkpt>
      <trkpt lat="45.92166" lon="6.48729">
        <ele>1452.177856</ele>
        <time>2014-08-24T13:03:48Z</time>
      </trkpt>
      <trkpt lat="45.92164" lon="6.48721">
        <ele>1452.538574</ele>
        <time>2014-08-24T13:03:53Z</time>
      </trkpt>
      <trkpt lat="45.9216" lon="6.48715">
        <ele>1453.449951</ele>
        <time>2014-08-24T13:03:58Z</time>
      </trkpt>
      <trkpt lat="45.92157" lon="6.48709">
        <ele>1454.504395</ele>
        <time>2014-08-24T13:04:03Z</time>
      </trkpt>
      <trkpt lat="45.92153" lon="6.48704">
        <ele>1455.985962</ele>
        <time>2014-08-24T13:04:08Z</time>
      </trkpt>
      <trkpt lat="45.92148" lon="6.48699">
        <ele>1458.19165</ele>
        <time>2014-08-24T13:04:13Z</time>
      </trkpt>
      <trkpt lat="45.92142" lon="6.48694">
        <ele>1460.277588</ele>
        <time>2014-08-24T13:04:18Z</time>
      </trkpt>
      <trkpt lat="45.92138" lon="6.48688">
        <ele>1461.93396</ele>
        <time>2014-08-24T13:04:23Z</time>
      </trkpt>
      <trkpt lat="45.92133" lon="6.48681">
        <ele>1463.770264</ele>
        <time>2014-08-24T13:04:28Z</time>
      </trkpt>
      <trkpt lat="45.92128" lon="6.48674">
        <ele>1465.510254</ele>
        <time>2014-08-24T13:04:33Z</time>
      </trkpt>
      <trkpt lat="45.92117" lon="6.48662">
        <ele>1469.855591</ele>
        <time>2014-08-24T13:04:38Z</time>
      </trkpt>
      <trkpt lat="45.92115" lon="6.48653">
        <ele>1470.741089</ele>
        <time>2014-08-24T13:04:43Z</time>
      </trkpt>
      <trkpt lat="45.92114" lon="6.48644">
        <ele>1470.570435</ele>
        <time>2014-08-24T13:04:48Z</time>
      </trkpt>
      <trkpt lat="45.92116" lon="6.48634">
        <ele>1469.550171</ele>
        <time>2014-08-24T13:04:53Z</time>
      </trkpt>
      <trkpt lat="45.92118" lon="6.48625">
        <ele>1468.192993</ele>
        <time>2014-08-24T13:04:58Z</time>
      </trkpt>
      <trkpt lat="45.92122" lon="6.48618">
        <ele>1465.711792</ele>
        <time>2014-08-24T13:05:03Z</time>
      </trkpt>
      <trkpt lat="45.92126" lon="6.4861">
        <ele>1464.328979</ele>
        <time>2014-08-24T13:05:08Z</time>
      </trkpt>
      <trkpt lat="45.92128" lon="6.48602">
        <ele>1463.670654</ele>
        <time>2014-08-24T13:05:13Z</time>
      </trkpt>
      <trkpt lat="45.92132" lon="6.48593">
        <ele>1462.784912</ele>
        <time>2014-08-24T13:05:18Z</time>
      </trkpt>
      <trkpt lat="45.92136" lon="6.48585">
        <ele>1461.942993</ele>
        <time>2014-08-24T13:05:23Z</time>
      </trkpt>
      <trkpt lat="45.92139" lon="6.48576">
        <ele>1461.57251</ele>
        <time>2014-08-24T13:05:28Z</time>
      </trkpt>
      <trkpt lat="45.92142" lon="6.48568">
        <ele>1461.363281</ele>
        <time>2014-08-24T13:05:33Z</time>
      </trkpt>
      <trkpt lat="45.92144" lon="6.4856">
        <ele>1461.691895</ele>
        <time>2014-08-24T13:05:38Z</time>
      </trkpt>
      <trkpt lat="45.92145" lon="6.48551">
        <ele>1462.062622</ele>
        <time>2014-08-24T13:05:43Z</time>
      </trkpt>
      <trkpt lat="45.92147" lon="6.48543">
        <ele>1461.166992</ele>
        <time>2014-08-24T13:05:48Z</time>
      </trkpt>
      <trkpt lat="45.92148" lon="6.48535">
        <ele>1460.663208</ele>
        <time>2014-08-24T13:05:53Z</time>
      </trkpt>
      <trkpt lat="45.92147" lon="6.48528">
        <ele>1460.331787</ele>
        <time>2014-08-24T13:05:58Z</time>
      </trkpt>
      <trkpt lat="45.92148" lon="6.48519">
        <ele>1459.773926</ele>
        <time>2014-08-24T13:06:03Z</time>
      </trkpt>
      <trkpt lat="45.92151" lon="6.48512">
        <ele>1459.079102</ele>
        <time>2014-08-24T13:06:08Z</time>
      </trkpt>
      <trkpt lat="45.92151" lon="6.48509">
        <ele>1458.816772</ele>
        <time>2014-08-24T13:06:13Z</time>
      </trkpt>
      <trkpt lat="45.92149" lon="6.48513">
        <ele>1459.316284</ele>
        <time>2014-08-24T13:06:18Z</time>
      </trkpt>
      <trkpt lat="45.92151" lon="6.48513">
        <ele>1459.133545</ele>
        <time>2014-08-24T13:06:23Z</time>
      </trkpt>
      <trkpt lat="45.92151" lon="6.48514">
        <ele>1458.959839</ele>
        <time>2014-08-24T13:06:28Z</time>
      </trkpt>
      <trkpt lat="45.92151" lon="6.48514">
        <ele>1458.959839</ele>
        <time>2014-08-24T13:06:33Z</time>
      </trkpt>
      <trkpt lat="45.92151" lon="6.48514">
        <ele>1458.959839</ele>
        <time>2014-08-24T13:06:38Z</time>
      </trkpt>
      <trkpt lat="45.92151" lon="6.48514">
        <ele>1458.959839</ele>
        <time>2014-08-24T13:06:43Z</time>
      </trkpt>
      <trkpt lat="45.92151" lon="6.48514">
        <ele>1459.128784</ele>
        <time>2014-08-24T13:06:48Z</time>
      </trkpt>
      <trkpt lat="45.92151" lon="6.48514">
        <ele>1459.11377</ele>
        <time>2014-08-24T13:06:53Z</time>
      </trkpt>
      <trkpt lat="45.92151" lon="6.48514">
        <ele>1459.11377</ele>
        <time>2014-08-24T13:06:58Z</time>
      </trkpt>
      <trkpt lat="45.92151" lon="6.48514">
        <ele>1459.15686</ele>
        <time>2014-08-24T13:07:03Z</time>
      </trkpt>
      <trkpt lat="45.9215" lon="6.48513">
        <ele>1459.178101</ele>
        <time>2014-08-24T13:07:08Z</time>
      </trkpt>
      <trkpt lat="45.9215" lon="6.48513">
        <ele>1459.237183</ele>
        <time>2014-08-24T13:07:13Z</time>
      </trkpt>
      <trkpt lat="45.92149" lon="6.48513">
        <ele>1459.262085</ele>
        <time>2014-08-24T13:07:18Z</time>
      </trkpt>
      <trkpt lat="45.92149" lon="6.48513">
        <ele>1459.298828</ele>
        <time>2014-08-24T13:07:23Z</time>
      </trkpt>
      <trkpt lat="45.92149" lon="6.48513">
        <ele>1459.314697</ele>
        <time>2014-08-24T13:07:28Z</time>
      </trkpt>
      <trkpt lat="45.92148" lon="6.48513">
        <ele>1459.363892</ele>
        <time>2014-08-24T13:07:33Z</time>
      </trkpt>
      <trkpt lat="45.92148" lon="6.48514">
        <ele>1459.469116</ele>
        <time>2014-08-24T13:07:38Z</time>
      </trkpt>
      <trkpt lat="45.92149" lon="6.48513">
        <ele>1459.25354</ele>
        <time>2014-08-24T13:07:43Z</time>
      </trkpt>
      <trkpt lat="45.92152" lon="6.48508">
        <ele>1458.513428</ele>
        <time>2014-08-24T13:07:48Z</time>
      </trkpt>
      <trkpt lat="45.92154" lon="6.48502">
        <ele>1457.626831</ele>
        <time>2014-08-24T13:07:53Z</time>
      </trkpt>
      <trkpt lat="45.92159" lon="6.48499">
        <ele>1456.275391</ele>
        <time>2014-08-24T13:07:58Z</time>
      </trkpt>
      <trkpt lat="45.92163" lon="6.48495">
        <ele>1454.921143</ele>
        <time>2014-08-24T13:08:03Z</time>
      </trkpt>
      <trkpt lat="45.92166" lon="6.48489">
        <ele>1454.102417</ele>
        <time>2014-08-24T13:08:08Z</time>
      </trkpt>
      <trkpt lat="45.92169" lon="6.48482">
        <ele>1453.021851</ele>
        <time>2014-08-24T13:08:13Z</time>
      </trkpt>
      <trkpt lat="45.92172" lon="6.48478">
        <ele>1452.027222</ele>
        <time>2014-08-24T13:08:18Z</time>
      </trkpt>
      <trkpt lat="45.92176" lon="6.48473">
        <ele>1450.91626</ele>
        <time>2014-08-24T13:08:23Z</time>
      </trkpt>
      <trkpt lat="45.9218" lon="6.48468">
        <ele>1449.940186</ele>
        <time>2014-08-24T13:08:28Z</time>
      </trkpt>
      <trkpt lat="45.92184" lon="6.48463">
        <ele>1449.219482</ele>
        <time>2014-08-24T13:08:33Z</time>
      </trkpt>
      <trkpt lat="45.92187" lon="6.48456">
        <ele>1448.751343</ele>
        <time>2014-08-24T13:08:38Z</time>
      </trkpt>
      <trkpt lat="45.92189" lon="6.4845">
        <ele>1448.400024</ele>
        <time>2014-08-24T13:08:43Z</time>
      </trkpt>
      <trkpt lat="45.92196" lon="6.48447">
        <ele>1447.659912</ele>
        <time>2014-08-24T13:08:48Z</time>
      </trkpt>
      <trkpt lat="45.92203" lon="6.48443">
        <ele>1446.674072</ele>
        <time>2014-08-24T13:08:53Z</time>
      </trkpt>
      <trkpt lat="45.92207" lon="6.48438">
        <ele>1446.41687</ele>
        <time>2014-08-24T13:08:58Z</time>
      </trkpt>
      <trkpt lat="45.92212" lon="6.48435">
        <ele>1445.757446</ele>
        <time>2014-08-24T13:09:03Z</time>
      </trkpt>
      <trkpt lat="45.92218" lon="6.48432">
        <ele>1445.268188</ele>
        <time>2014-08-24T13:09:08Z</time>
      </trkpt>
      <trkpt lat="45.92223" lon="6.48427">
        <ele>1444.614624</ele>
        <time>2014-08-24T13:09:13Z</time>
      </trkpt>
      <trkpt lat="45.92227" lon="6.48422">
        <ele>1443.897461</ele>
        <time>2014-08-24T13:09:18Z</time>
      </trkpt>
      <trkpt lat="45.92231" lon="6.48418">
        <ele>1443.233032</ele>
        <time>2014-08-24T13:09:23Z</time>
      </trkpt>
      <trkpt lat="45.92233" lon="6.48413">
        <ele>1442.868042</ele>
        <time>2014-08-24T13:09:28Z</time>
      </trkpt>
      <trkpt lat="45.92231" lon="6.48413">
        <ele>1443.001953</ele>
        <time>2014-08-24T13:09:33Z</time>
      </trkpt>
      <trkpt lat="45.92226" lon="6.48414">
        <ele>1443.56958</ele>
        <time>2014-08-24T13:09:38Z</time>
      </trkpt>
      <trkpt lat="45.92219" lon="6.48414">
        <ele>1444.281494</ele>
        <time>2014-08-24T13:09:43Z</time>
      </trkpt>
      <trkpt lat="45.92213" lon="6.48415">
        <ele>1445.010742</ele>
        <time>2014-08-24T13:09:48Z</time>
      </trkpt>
      <trkpt lat="45.92206" lon="6.48415">
        <ele>1445.789063</ele>
        <time>2014-08-24T13:09:53Z</time>
      </trkpt>
      <trkpt lat="45.922" lon="6.48416">
        <ele>1446.57373</ele>
        <time>2014-08-24T13:09:58Z</time>
      </trkpt>
      <trkpt lat="45.92193" lon="6.48416">
        <ele>1446.961792</ele>
        <time>2014-08-24T13:10:03Z</time>
      </trkpt>
      <trkpt lat="45.92187" lon="6.48416">
        <ele>1447.33606</ele>
        <time>2014-08-24T13:10:08Z</time>
      </trkpt>
      <trkpt lat="45.92181" lon="6.48416">
        <ele>1447.675049</ele>
        <time>2014-08-24T13:10:13Z</time>
      </trkpt>
      <trkpt lat="45.92179" lon="6.48416">
        <ele>1447.764648</ele>
        <time>2014-08-24T13:10:18Z</time>
      </trkpt>
      <trkpt lat="45.92177" lon="6.48415">
        <ele>1447.765015</ele>
        <time>2014-08-24T13:10:23Z</time>
      </trkpt>
      <trkpt lat="45.92177" lon="6.48415">
        <ele>1447.792236</ele>
        <time>2014-08-24T13:10:28Z</time>
      </trkpt>
      <trkpt lat="45.92173" lon="6.48413">
        <ele>1447.830933</ele>
        <time>2014-08-24T13:10:33Z</time>
      </trkpt>
      <trkpt lat="45.92175" lon="6.48416">
        <ele>1447.949463</ele>
        <time>2014-08-24T13:10:38Z</time>
      </trkpt>
      <trkpt lat="45.92175" lon="6.48416">
        <ele>1447.997925</ele>
        <time>2014-08-24T13:10:43Z</time>
      </trkpt>
      <trkpt lat="45.92173" lon="6.48415">
        <ele>1448.023315</ele>
        <time>2014-08-24T13:10:48Z</time>
      </trkpt>
      <trkpt lat="45.92169" lon="6.48413">
        <ele>1448.067505</ele>
        <time>2014-08-24T13:10:53Z</time>
      </trkpt>
      <trkpt lat="45.92164" lon="6.48411">
        <ele>1448.074097</ele>
        <time>2014-08-24T13:10:58Z</time>
      </trkpt>
      <trkpt lat="45.92167" lon="6.48413">
        <ele>1448.177856</ele>
        <time>2014-08-24T13:11:03Z</time>
      </trkpt>
      <trkpt lat="45.92169" lon="6.48416">
        <ele>1448.312256</ele>
        <time>2014-08-24T13:11:08Z</time>
      </trkpt>
      <trkpt lat="45.92173" lon="6.4842">
        <ele>1448.445801</ele>
        <time>2014-08-24T13:11:13Z</time>
      </trkpt>
      <trkpt lat="45.92175" lon="6.48421">
        <ele>1448.509033</ele>
        <time>2014-08-24T13:11:18Z</time>
      </trkpt>
      <trkpt lat="45.92179" lon="6.48424">
        <ele>1448.586792</ele>
        <time>2014-08-24T13:11:23Z</time>
      </trkpt>
      <trkpt lat="45.92181" lon="6.48426">
        <ele>1448.69458</ele>
        <time>2014-08-24T13:11:28Z</time>
      </trkpt>
      <trkpt lat="45.92183" lon="6.48428">
        <ele>1448.713135</ele>
        <time>2014-08-24T13:11:33Z</time>
      </trkpt>
      <trkpt lat="45.92186" lon="6.4843">
        <ele>1448.605835</ele>
        <time>2014-08-24T13:11:38Z</time>
      </trkpt>
      <trkpt lat="45.92187" lon="6.4843">
        <ele>1448.549438</ele>
        <time>2014-08-24T13:11:43Z</time>
      </trkpt>
      <trkpt lat="45.92189" lon="6.48431">
        <ele>1448.436035</ele>
        <time>2014-08-24T13:11:48Z</time>
      </trkpt>
      <trkpt lat="45.92189" lon="6.4843">
        <ele>1448.46936</ele>
        <time>2014-08-24T13:11:53Z</time>
      </trkpt>
      <trkpt lat="45.92193" lon="6.4843">
        <ele>1448.241577</ele>
        <time>2014-08-24T13:11:58Z</time>
      </trkpt>
      <trkpt lat="45.92194" lon="6.48432">
        <ele>1448.169312</ele>
        <time>2014-08-24T13:12:03Z</time>
      </trkpt>
      <trkpt lat="45.922" lon="6.48432">
        <ele>1447.791992</ele>
        <time>2014-08-24T13:12:08Z</time>
      </trkpt>
      <trkpt lat="45.92199" lon="6.48434">
        <ele>1447.85498</ele>
        <time>2014-08-24T13:12:13Z</time>
      </trkpt>
      <trkpt lat="45.92198" lon="6.48433">
        <ele>1447.934082</ele>
        <time>2014-08-24T13:12:18Z</time>
      </trkpt>
      <trkpt lat="45.92196" lon="6.48432">
        <ele>1448.057007</ele>
        <time>2014-08-24T13:12:23Z</time>
      </trkpt>
      <trkpt lat="45.92194" lon="6.4843">
        <ele>1448.223999</ele>
        <time>2014-08-24T13:12:28Z</time>
      </trkpt>
      <trkpt lat="45.92191" lon="6.48428">
        <ele>1448.349976</ele>
        <time>2014-08-24T13:12:33Z</time>
      </trkpt>
      <trkpt lat="45.9219" lon="6.48427">
        <ele>1448.301147</ele>
        <time>2014-08-24T13:12:38Z</time>
      </trkpt>
      <trkpt lat="45.92188" lon="6.48426">
        <ele>1448.268799</ele>
        <time>2014-08-24T13:12:43Z</time>
      </trkpt>
      <trkpt lat="45.92186" lon="6.48425">
        <ele>1448.276245</ele>
        <time>2014-08-24T13:12:48Z</time>
      </trkpt>
      <trkpt lat="45.92185" lon="6.48424">
        <ele>1448.239258</ele>
        <time>2014-08-24T13:12:53Z</time>
      </trkpt>
      <trkpt lat="45.92183" lon="6.48422">
        <ele>1448.124512</ele>
        <time>2014-08-24T13:12:58Z</time>
      </trkpt>
      <trkpt lat="45.92184" lon="6.48421">
        <ele>1448.001709</ele>
        <time>2014-08-24T13:13:03Z</time>
      </trkpt>
      <trkpt lat="45.92185" lon="6.48421">
        <ele>1447.917969</ele>
        <time>2014-08-24T13:13:08Z</time>
      </trkpt>
      <trkpt lat="45.92188" lon="6.48421">
        <ele>1447.839722</ele>
        <time>2014-08-24T13:13:13Z</time>
      </trkpt>
      <trkpt lat="45.92192" lon="6.48422">
        <ele>1447.663574</ele>
        <time>2014-08-24T13:13:18Z</time>
      </trkpt>
      <trkpt lat="45.92197" lon="6.48423">
        <ele>1447.478027</ele>
        <time>2014-08-24T13:13:23Z</time>
      </trkpt>
      <trkpt lat="45.92199" lon="6.48425">
        <ele>1447.571289</ele>
        <time>2014-08-24T13:13:28Z</time>
      </trkpt>
      <trkpt lat="45.92202" lon="6.48423">
        <ele>1447.05896</ele>
        <time>2014-08-24T13:13:33Z</time>
      </trkpt>
      <trkpt lat="45.92206" lon="6.48421">
        <ele>1446.329834</ele>
        <time>2014-08-24T13:13:38Z</time>
      </trkpt>
      <trkpt lat="45.92211" lon="6.4842">
        <ele>1445.635864</ele>
        <time>2014-08-24T13:13:43Z</time>
      </trkpt>
      <trkpt lat="45.92214" lon="6.48418">
        <ele>1445.140991</ele>
        <time>2014-08-24T13:13:48Z</time>
      </trkpt>
      <trkpt lat="45.92217" lon="6.48418">
        <ele>1444.744507</ele>
        <time>2014-08-24T13:13:53Z</time>
      </trkpt>
      <trkpt lat="45.92221" lon="6.48417">
        <ele>1444.32312</ele>
        <time>2014-08-24T13:13:58Z</time>
      </trkpt>
      <trkpt lat="45.92225" lon="6.48418">
        <ele>1443.831177</ele>
        <time>2014-08-24T13:14:03Z</time>
      </trkpt>
      <trkpt lat="45.9223" lon="6.48416">
        <ele>1443.321411</ele>
        <time>2014-08-24T13:14:08Z</time>
      </trkpt>
      <trkpt lat="45.92233" lon="6.48415">
        <ele>1442.859375</ele>
        <time>2014-08-24T13:14:13Z</time>
      </trkpt>
      <trkpt lat="45.92237" lon="6.48411">
        <ele>1442.404053</ele>
        <time>2014-08-24T13:14:18Z</time>
      </trkpt>
      <trkpt lat="45.9224" lon="6.48406">
        <ele>1441.971924</ele>
        <time>2014-08-24T13:14:23Z</time>
      </trkpt>
      <trkpt lat="45.92244" lon="6.48401">
        <ele>1441.59082</ele>
        <time>2014-08-24T13:14:28Z</time>
      </trkpt>
      <trkpt lat="45.92248" lon="6.48397">
        <ele>1440.990723</ele>
        <time>2014-08-24T13:14:33Z</time>
      </trkpt>
      <trkpt lat="45.92252" lon="6.48394">
        <ele>1440.478271</ele>
        <time>2014-08-24T13:14:38Z</time>
      </trkpt>
      <trkpt lat="45.92256" lon="6.48391">
        <ele>1439.943481</ele>
        <time>2014-08-24T13:14:43Z</time>
      </trkpt>
      <trkpt lat="45.92261" lon="6.48389">
        <ele>1439.328247</ele>
        <time>2014-08-24T13:14:48Z</time>
      </trkpt>
      <trkpt lat="45.92266" lon="6.48387">
        <ele>1438.807495</ele>
        <time>2014-08-24T13:14:53Z</time>
      </trkpt>
      <trkpt lat="45.92272" lon="6.48385">
        <ele>1438.345215</ele>
        <time>2014-08-24T13:14:58Z</time>
      </trkpt>
      <trkpt lat="45.92276" lon="6.48383">
        <ele>1438.009155</ele>
        <time>2014-08-24T13:15:03Z</time>
      </trkpt>
      <trkpt lat="45.92281" lon="6.48381">
        <ele>1437.689331</ele>
        <time>2014-08-24T13:15:08Z</time>
      </trkpt>
      <trkpt lat="45.92286" lon="6.48378">
        <ele>1437.567139</ele>
        <time>2014-08-24T13:15:13Z</time>
      </trkpt>
      <trkpt lat="45.92291" lon="6.48375">
        <ele>1437.545532</ele>
        <time>2014-08-24T13:15:18Z</time>
      </trkpt>
      <trkpt lat="45.92296" lon="6.48371">
        <ele>1437.530884</ele>
        <time>2014-08-24T13:15:23Z</time>
      </trkpt>
      <trkpt lat="45.923" lon="6.48369">
        <ele>1437.093506</ele>
        <time>2014-08-24T13:15:28Z</time>
      </trkpt>
      <trkpt lat="45.92305" lon="6.48368">
        <ele>1436.699463</ele>
        <time>2014-08-24T13:15:33Z</time>
      </trkpt>
      <trkpt lat="45.92311" lon="6.48366">
        <ele>1436.261108</ele>
        <time>2014-08-24T13:15:38Z</time>
      </trkpt>
      <trkpt lat="45.92316" lon="6.48363">
        <ele>1435.973145</ele>
        <time>2014-08-24T13:15:43Z</time>
      </trkpt>
      <trkpt lat="45.92321" lon="6.4836">
        <ele>1435.748413</ele>
        <time>2014-08-24T13:15:48Z</time>
      </trkpt>
      <trkpt lat="45.92327" lon="6.48357">
        <ele>1435.572754</ele>
        <time>2014-08-24T13:15:53Z</time>
      </trkpt>
      <trkpt lat="45.92331" lon="6.48353">
        <ele>1435.664063</ele>
        <time>2014-08-24T13:15:58Z</time>
      </trkpt>
      <trkpt lat="45.92335" lon="6.48349">
        <ele>1435.925415</ele>
        <time>2014-08-24T13:16:03Z</time>
      </trkpt>
      <trkpt lat="45.92341" lon="6.48347">
        <ele>1435.831421</ele>
        <time>2014-08-24T13:16:08Z</time>
      </trkpt>
      <trkpt lat="45.92347" lon="6.48344">
        <ele>1435.639771</ele>
        <time>2014-08-24T13:16:13Z</time>
      </trkpt>
      <trkpt lat="45.92352" lon="6.48347">
        <ele>1434.933838</ele>
        <time>2014-08-24T13:16:18Z</time>
      </trkpt>
      <trkpt lat="45.92358" lon="6.48348">
        <ele>1434.366211</ele>
        <time>2014-08-24T13:16:23Z</time>
      </trkpt>
      <trkpt lat="45.92364" lon="6.48346">
        <ele>1434.252808</ele>
        <time>2014-08-24T13:16:28Z</time>
      </trkpt>
      <trkpt lat="45.92369" lon="6.48342">
        <ele>1434.493652</ele>
        <time>2014-08-24T13:16:33Z</time>
      </trkpt>
      <trkpt lat="45.92373" lon="6.48338">
        <ele>1434.750732</ele>
        <time>2014-08-24T13:16:38Z</time>
      </trkpt>
      <trkpt lat="45.92379" lon="6.48336">
        <ele>1434.701538</ele>
        <time>2014-08-24T13:16:43Z</time>
      </trkpt>
      <trkpt lat="45.92383" lon="6.48335">
        <ele>1434.657471</ele>
        <time>2014-08-24T13:16:48Z</time>
      </trkpt>
      <trkpt lat="45.92389" lon="6.48334">
        <ele>1433.777466</ele>
        <time>2014-08-24T13:16:53Z</time>
      </trkpt>
      <trkpt lat="45.92395" lon="6.48333">
        <ele>1432.987549</ele>
        <time>2014-08-24T13:16:58Z</time>
      </trkpt>
      <trkpt lat="45.92401" lon="6.48333">
        <ele>1432.047485</ele>
        <time>2014-08-24T13:17:03Z</time>
      </trkpt>
      <trkpt lat="45.92404" lon="6.48333">
        <ele>1431.517456</ele>
        <time>2014-08-24T13:17:08Z</time>
      </trkpt>
      <trkpt lat="45.92407" lon="6.48334">
        <ele>1430.887451</ele>
        <time>2014-08-24T13:17:13Z</time>
      </trkpt>
      <trkpt lat="45.92407" lon="6.48334">
        <ele>1430.869995</ele>
        <time>2014-08-24T13:17:18Z</time>
      </trkpt>
      <trkpt lat="45.92408" lon="6.48334">
        <ele>1430.675049</ele>
        <time>2014-08-24T13:17:23Z</time>
      </trkpt>
      <trkpt lat="45.92408" lon="6.48334">
        <ele>1430.675049</ele>
        <time>2014-08-24T13:17:28Z</time>
      </trkpt>
    </trkseg>
  </trk>
</gpx>